<?xml version="1.0" encoding="UTF-8" standalone="no" ?>
<gpx xmlns="http://www.topografix.com/GPX/1/1" xmlns:xsi="http://www.w3.org/2001/XMLSchema-instance" xsi:schemaLocation="http://www.topografix.com/GPX/1/1 http://www.topografix.com/GPX/1/1/gpx.xsd" version="1.1" creator="VisuGPX - https://www.visugpx.com">
  <metadata>
    <name>2017-02-01 - Soultz,  Wattwiller</name>
    <desc><![CDATA[2017-02-01 - Soultz,  Wattwiller - Club vosgien Colmar, 29 participants - Guide : Jean-Paul Gulmann]]></desc>
  </metadata>
  <trk>
    <name><![CDATA[FEV-01-17 16:32:07]]></name>
    <trkseg>
      <trkpt lat="47.88974" lon="7.22707">
        <ele>268.83</ele>
        <time>2017-02-01T08:05:01Z</time>
      </trkpt>
      <trkpt lat="47.88972" lon="7.22691">
        <ele>270.75</ele>
        <time>2017-02-01T08:08:33Z</time>
      </trkpt>
      <trkpt lat="47.88977" lon="7.22679">
        <ele>267.38</ele>
        <time>2017-02-01T08:08:45Z</time>
      </trkpt>
      <trkpt lat="47.88986" lon="7.22677">
        <ele>266.42</ele>
        <time>2017-02-01T08:08:56Z</time>
      </trkpt>
      <trkpt lat="47.88994" lon="7.22665">
        <ele>267.86</ele>
        <time>2017-02-01T08:09:06Z</time>
      </trkpt>
      <trkpt lat="47.88995" lon="7.2265">
        <ele>270.75</ele>
        <time>2017-02-01T08:09:16Z</time>
      </trkpt>
      <trkpt lat="47.88998" lon="7.22636">
        <ele>269.31</ele>
        <time>2017-02-01T08:09:27Z</time>
      </trkpt>
      <trkpt lat="47.89008" lon="7.2263">
        <ele>270.75</ele>
        <time>2017-02-01T08:09:57Z</time>
      </trkpt>
      <trkpt lat="47.89018" lon="7.22621">
        <ele>271.23</ele>
        <time>2017-02-01T08:10:02Z</time>
      </trkpt>
      <trkpt lat="47.89015" lon="7.22604">
        <ele>269.31</ele>
        <time>2017-02-01T08:10:09Z</time>
      </trkpt>
      <trkpt lat="47.89012" lon="7.22588">
        <ele>272.19</ele>
        <time>2017-02-01T08:10:21Z</time>
      </trkpt>
      <trkpt lat="47.89017" lon="7.22575">
        <ele>270.75</ele>
        <time>2017-02-01T08:10:31Z</time>
      </trkpt>
      <trkpt lat="47.89023" lon="7.22562">
        <ele>271.71</ele>
        <time>2017-02-01T08:10:40Z</time>
      </trkpt>
      <trkpt lat="47.89027" lon="7.22549">
        <ele>269.79</ele>
        <time>2017-02-01T08:10:49Z</time>
      </trkpt>
      <trkpt lat="47.89031" lon="7.22536">
        <ele>271.23</ele>
        <time>2017-02-01T08:11:00Z</time>
      </trkpt>
      <trkpt lat="47.89035" lon="7.22521">
        <ele>272.19</ele>
        <time>2017-02-01T08:11:10Z</time>
      </trkpt>
      <trkpt lat="47.89037" lon="7.22507">
        <ele>270.27</ele>
        <time>2017-02-01T08:11:19Z</time>
      </trkpt>
      <trkpt lat="47.8904" lon="7.22491">
        <ele>272.19</ele>
        <time>2017-02-01T08:11:31Z</time>
      </trkpt>
      <trkpt lat="47.89043" lon="7.22474">
        <ele>271.23</ele>
        <time>2017-02-01T08:11:43Z</time>
      </trkpt>
      <trkpt lat="47.89045" lon="7.22455">
        <ele>272.67</ele>
        <time>2017-02-01T08:11:55Z</time>
      </trkpt>
      <trkpt lat="47.89049" lon="7.2244">
        <ele>273.15</ele>
        <time>2017-02-01T08:12:04Z</time>
      </trkpt>
      <trkpt lat="47.8905" lon="7.22424">
        <ele>273.15</ele>
        <time>2017-02-01T08:12:13Z</time>
      </trkpt>
      <trkpt lat="47.8905" lon="7.22407">
        <ele>270.75</ele>
        <time>2017-02-01T08:12:22Z</time>
      </trkpt>
      <trkpt lat="47.89049" lon="7.22391">
        <ele>272.67</ele>
        <time>2017-02-01T08:12:31Z</time>
      </trkpt>
      <trkpt lat="47.89051" lon="7.22373">
        <ele>271.71</ele>
        <time>2017-02-01T08:12:40Z</time>
      </trkpt>
      <trkpt lat="47.89053" lon="7.22357">
        <ele>274.59</ele>
        <time>2017-02-01T08:12:49Z</time>
      </trkpt>
      <trkpt lat="47.89052" lon="7.22341">
        <ele>273.63</ele>
        <time>2017-02-01T08:12:58Z</time>
      </trkpt>
      <trkpt lat="47.8905" lon="7.22326">
        <ele>276.04</ele>
        <time>2017-02-01T08:13:08Z</time>
      </trkpt>
      <trkpt lat="47.89049" lon="7.22309">
        <ele>276.52</ele>
        <time>2017-02-01T08:13:16Z</time>
      </trkpt>
      <trkpt lat="47.89049" lon="7.22291">
        <ele>277.48</ele>
        <time>2017-02-01T08:13:25Z</time>
      </trkpt>
      <trkpt lat="47.89049" lon="7.22275">
        <ele>277.96</ele>
        <time>2017-02-01T08:13:35Z</time>
      </trkpt>
      <trkpt lat="47.89047" lon="7.22261">
        <ele>278.44</ele>
        <time>2017-02-01T08:13:44Z</time>
      </trkpt>
      <trkpt lat="47.89045" lon="7.22247">
        <ele>279.4</ele>
        <time>2017-02-01T08:13:53Z</time>
      </trkpt>
      <trkpt lat="47.89041" lon="7.22233">
        <ele>277.48</ele>
        <time>2017-02-01T08:14:03Z</time>
      </trkpt>
      <trkpt lat="47.89038" lon="7.22218">
        <ele>278.92</ele>
        <time>2017-02-01T08:14:13Z</time>
      </trkpt>
      <trkpt lat="47.89037" lon="7.22203">
        <ele>282.28</ele>
        <time>2017-02-01T08:14:23Z</time>
      </trkpt>
      <trkpt lat="47.89036" lon="7.22187">
        <ele>284.21</ele>
        <time>2017-02-01T08:14:34Z</time>
      </trkpt>
      <trkpt lat="47.89032" lon="7.22172">
        <ele>283.73</ele>
        <time>2017-02-01T08:14:43Z</time>
      </trkpt>
      <trkpt lat="47.89031" lon="7.22157">
        <ele>285.65</ele>
        <time>2017-02-01T08:14:51Z</time>
      </trkpt>
      <trkpt lat="47.89028" lon="7.22144">
        <ele>284.69</ele>
        <time>2017-02-01T08:15:00Z</time>
      </trkpt>
      <trkpt lat="47.89026" lon="7.2213">
        <ele>286.61</ele>
        <time>2017-02-01T08:15:20Z</time>
      </trkpt>
      <trkpt lat="47.89022" lon="7.22114">
        <ele>289.97</ele>
        <time>2017-02-01T08:15:29Z</time>
      </trkpt>
      <trkpt lat="47.8902" lon="7.221">
        <ele>289.97</ele>
        <time>2017-02-01T08:15:38Z</time>
      </trkpt>
      <trkpt lat="47.89016" lon="7.22087">
        <ele>289.49</ele>
        <time>2017-02-01T08:15:47Z</time>
      </trkpt>
      <trkpt lat="47.89012" lon="7.22074">
        <ele>291.42</ele>
        <time>2017-02-01T08:15:56Z</time>
      </trkpt>
      <trkpt lat="47.89007" lon="7.22061">
        <ele>292.38</ele>
        <time>2017-02-01T08:16:06Z</time>
      </trkpt>
      <trkpt lat="47.89002" lon="7.22048">
        <ele>291.42</ele>
        <time>2017-02-01T08:16:16Z</time>
      </trkpt>
      <trkpt lat="47.88998" lon="7.22034">
        <ele>294.3</ele>
        <time>2017-02-01T08:16:38Z</time>
      </trkpt>
      <trkpt lat="47.88994" lon="7.22021">
        <ele>293.82</ele>
        <time>2017-02-01T08:16:46Z</time>
      </trkpt>
      <trkpt lat="47.88989" lon="7.2201">
        <ele>298.63</ele>
        <time>2017-02-01T08:16:54Z</time>
      </trkpt>
      <trkpt lat="47.88988" lon="7.21996">
        <ele>296.7</ele>
        <time>2017-02-01T08:17:03Z</time>
      </trkpt>
      <trkpt lat="47.88988" lon="7.2198">
        <ele>298.15</ele>
        <time>2017-02-01T08:17:13Z</time>
      </trkpt>
      <trkpt lat="47.88989" lon="7.21964">
        <ele>300.55</ele>
        <time>2017-02-01T08:17:23Z</time>
      </trkpt>
      <trkpt lat="47.8899" lon="7.21949">
        <ele>301.03</ele>
        <time>2017-02-01T08:17:33Z</time>
      </trkpt>
      <trkpt lat="47.88994" lon="7.21933">
        <ele>301.99</ele>
        <time>2017-02-01T08:17:43Z</time>
      </trkpt>
      <trkpt lat="47.88996" lon="7.21918">
        <ele>300.07</ele>
        <time>2017-02-01T08:17:52Z</time>
      </trkpt>
      <trkpt lat="47.88998" lon="7.21904">
        <ele>303.43</ele>
        <time>2017-02-01T08:18:01Z</time>
      </trkpt>
      <trkpt lat="47.88999" lon="7.2189">
        <ele>304.88</ele>
        <time>2017-02-01T08:18:10Z</time>
      </trkpt>
      <trkpt lat="47.89" lon="7.21877">
        <ele>305.84</ele>
        <time>2017-02-01T08:18:20Z</time>
      </trkpt>
      <trkpt lat="47.88998" lon="7.21861">
        <ele>308.24</ele>
        <time>2017-02-01T08:18:30Z</time>
      </trkpt>
      <trkpt lat="47.88996" lon="7.21846">
        <ele>309.2</ele>
        <time>2017-02-01T08:18:40Z</time>
      </trkpt>
      <trkpt lat="47.88995" lon="7.21831">
        <ele>309.68</ele>
        <time>2017-02-01T08:18:50Z</time>
      </trkpt>
      <trkpt lat="47.88994" lon="7.21817">
        <ele>310.16</ele>
        <time>2017-02-01T08:19:01Z</time>
      </trkpt>
      <trkpt lat="47.88993" lon="7.21802">
        <ele>312.57</ele>
        <time>2017-02-01T08:19:12Z</time>
      </trkpt>
      <trkpt lat="47.8899" lon="7.21786">
        <ele>312.09</ele>
        <time>2017-02-01T08:19:22Z</time>
      </trkpt>
      <trkpt lat="47.88988" lon="7.21773">
        <ele>314.97</ele>
        <time>2017-02-01T08:19:32Z</time>
      </trkpt>
      <trkpt lat="47.88987" lon="7.21757">
        <ele>315.45</ele>
        <time>2017-02-01T08:19:43Z</time>
      </trkpt>
      <trkpt lat="47.88986" lon="7.21744">
        <ele>315.45</ele>
        <time>2017-02-01T08:19:53Z</time>
      </trkpt>
      <trkpt lat="47.88985" lon="7.21725">
        <ele>316.41</ele>
        <time>2017-02-01T08:20:07Z</time>
      </trkpt>
      <trkpt lat="47.88985" lon="7.2171">
        <ele>320.26</ele>
        <time>2017-02-01T08:20:17Z</time>
      </trkpt>
      <trkpt lat="47.88987" lon="7.21693">
        <ele>318.33</ele>
        <time>2017-02-01T08:20:28Z</time>
      </trkpt>
      <trkpt lat="47.8899" lon="7.21677">
        <ele>321.7</ele>
        <time>2017-02-01T08:20:40Z</time>
      </trkpt>
      <trkpt lat="47.88991" lon="7.21656">
        <ele>321.7</ele>
        <time>2017-02-01T08:20:53Z</time>
      </trkpt>
      <trkpt lat="47.88991" lon="7.21641">
        <ele>321.7</ele>
        <time>2017-02-01T08:21:04Z</time>
      </trkpt>
      <trkpt lat="47.8899" lon="7.21624">
        <ele>322.66</ele>
        <time>2017-02-01T08:21:17Z</time>
      </trkpt>
      <trkpt lat="47.88991" lon="7.21604">
        <ele>325.54</ele>
        <time>2017-02-01T08:21:30Z</time>
      </trkpt>
      <trkpt lat="47.8899" lon="7.21584">
        <ele>328.91</ele>
        <time>2017-02-01T08:21:45Z</time>
      </trkpt>
      <trkpt lat="47.88987" lon="7.21567">
        <ele>330.35</ele>
        <time>2017-02-01T08:22:00Z</time>
      </trkpt>
      <trkpt lat="47.88982" lon="7.21547">
        <ele>331.31</ele>
        <time>2017-02-01T08:22:14Z</time>
      </trkpt>
      <trkpt lat="47.88977" lon="7.2153">
        <ele>331.79</ele>
        <time>2017-02-01T08:22:28Z</time>
      </trkpt>
      <trkpt lat="47.88972" lon="7.21514">
        <ele>334.2</ele>
        <time>2017-02-01T08:22:40Z</time>
      </trkpt>
      <trkpt lat="47.8897" lon="7.21493">
        <ele>335.16</ele>
        <time>2017-02-01T08:22:53Z</time>
      </trkpt>
      <trkpt lat="47.88965" lon="7.21477">
        <ele>335.64</ele>
        <time>2017-02-01T08:23:05Z</time>
      </trkpt>
      <trkpt lat="47.88959" lon="7.21461">
        <ele>339</ele>
        <time>2017-02-01T08:23:19Z</time>
      </trkpt>
      <trkpt lat="47.88952" lon="7.21446">
        <ele>338.52</ele>
        <time>2017-02-01T08:23:31Z</time>
      </trkpt>
      <trkpt lat="47.88944" lon="7.21431">
        <ele>338.52</ele>
        <time>2017-02-01T08:23:43Z</time>
      </trkpt>
      <trkpt lat="47.88936" lon="7.2142">
        <ele>339.48</ele>
        <time>2017-02-01T08:23:54Z</time>
      </trkpt>
      <trkpt lat="47.88929" lon="7.2141">
        <ele>342.85</ele>
        <time>2017-02-01T08:24:09Z</time>
      </trkpt>
      <trkpt lat="47.88922" lon="7.21398">
        <ele>342.37</ele>
        <time>2017-02-01T08:24:19Z</time>
      </trkpt>
      <trkpt lat="47.88916" lon="7.21389">
        <ele>341.41</ele>
        <time>2017-02-01T08:24:31Z</time>
      </trkpt>
      <trkpt lat="47.88909" lon="7.21377">
        <ele>343.33</ele>
        <time>2017-02-01T08:24:55Z</time>
      </trkpt>
      <trkpt lat="47.88903" lon="7.21367">
        <ele>343.33</ele>
        <time>2017-02-01T08:25:14Z</time>
      </trkpt>
      <trkpt lat="47.88896" lon="7.21356">
        <ele>343.33</ele>
        <time>2017-02-01T08:25:23Z</time>
      </trkpt>
      <trkpt lat="47.88889" lon="7.21344">
        <ele>344.77</ele>
        <time>2017-02-01T08:25:33Z</time>
      </trkpt>
      <trkpt lat="47.88883" lon="7.21333">
        <ele>344.29</ele>
        <time>2017-02-01T08:25:42Z</time>
      </trkpt>
      <trkpt lat="47.88876" lon="7.21322">
        <ele>342.85</ele>
        <time>2017-02-01T08:25:52Z</time>
      </trkpt>
      <trkpt lat="47.88869" lon="7.21311">
        <ele>341.41</ele>
        <time>2017-02-01T08:26:01Z</time>
      </trkpt>
      <trkpt lat="47.88861" lon="7.213">
        <ele>343.33</ele>
        <time>2017-02-01T08:26:10Z</time>
      </trkpt>
      <trkpt lat="47.88853" lon="7.21289">
        <ele>343.33</ele>
        <time>2017-02-01T08:26:20Z</time>
      </trkpt>
      <trkpt lat="47.88845" lon="7.21279">
        <ele>342.85</ele>
        <time>2017-02-01T08:26:28Z</time>
      </trkpt>
      <trkpt lat="47.88837" lon="7.21268">
        <ele>340.44</ele>
        <time>2017-02-01T08:26:37Z</time>
      </trkpt>
      <trkpt lat="47.88831" lon="7.21257">
        <ele>338.52</ele>
        <time>2017-02-01T08:26:45Z</time>
      </trkpt>
      <trkpt lat="47.88825" lon="7.21244">
        <ele>338.52</ele>
        <time>2017-02-01T08:26:53Z</time>
      </trkpt>
      <trkpt lat="47.88819" lon="7.21233">
        <ele>338.52</ele>
        <time>2017-02-01T08:27:02Z</time>
      </trkpt>
      <trkpt lat="47.88813" lon="7.2122">
        <ele>338.52</ele>
        <time>2017-02-01T08:27:12Z</time>
      </trkpt>
      <trkpt lat="47.88807" lon="7.21209">
        <ele>338.52</ele>
        <time>2017-02-01T08:27:21Z</time>
      </trkpt>
      <trkpt lat="47.88801" lon="7.21198">
        <ele>338.04</ele>
        <time>2017-02-01T08:27:30Z</time>
      </trkpt>
      <trkpt lat="47.88795" lon="7.21186">
        <ele>338.04</ele>
        <time>2017-02-01T08:27:39Z</time>
      </trkpt>
      <trkpt lat="47.88789" lon="7.21175">
        <ele>337.08</ele>
        <time>2017-02-01T08:27:48Z</time>
      </trkpt>
      <trkpt lat="47.88782" lon="7.21165">
        <ele>335.16</ele>
        <time>2017-02-01T08:27:56Z</time>
      </trkpt>
      <trkpt lat="47.88774" lon="7.21157">
        <ele>334.68</ele>
        <time>2017-02-01T08:28:04Z</time>
      </trkpt>
      <trkpt lat="47.88768" lon="7.21148">
        <ele>334.2</ele>
        <time>2017-02-01T08:28:12Z</time>
      </trkpt>
      <trkpt lat="47.8876" lon="7.21139">
        <ele>332.75</ele>
        <time>2017-02-01T08:28:21Z</time>
      </trkpt>
      <trkpt lat="47.88753" lon="7.21129">
        <ele>332.27</ele>
        <time>2017-02-01T08:28:29Z</time>
      </trkpt>
      <trkpt lat="47.88744" lon="7.21123">
        <ele>332.27</ele>
        <time>2017-02-01T08:28:37Z</time>
      </trkpt>
      <trkpt lat="47.88736" lon="7.21115">
        <ele>327.95</ele>
        <time>2017-02-01T08:28:45Z</time>
      </trkpt>
      <trkpt lat="47.88728" lon="7.21107">
        <ele>328.43</ele>
        <time>2017-02-01T08:28:53Z</time>
      </trkpt>
      <trkpt lat="47.8872" lon="7.21098">
        <ele>328.43</ele>
        <time>2017-02-01T08:29:03Z</time>
      </trkpt>
      <trkpt lat="47.88712" lon="7.2109">
        <ele>325.54</ele>
        <time>2017-02-01T08:29:11Z</time>
      </trkpt>
      <trkpt lat="47.88704" lon="7.21081">
        <ele>326.5</ele>
        <time>2017-02-01T08:29:19Z</time>
      </trkpt>
      <trkpt lat="47.88695" lon="7.21071">
        <ele>324.1</ele>
        <time>2017-02-01T08:29:28Z</time>
      </trkpt>
      <trkpt lat="47.88686" lon="7.21061">
        <ele>325.06</ele>
        <time>2017-02-01T08:29:37Z</time>
      </trkpt>
      <trkpt lat="47.88677" lon="7.21052">
        <ele>323.62</ele>
        <time>2017-02-01T08:29:46Z</time>
      </trkpt>
      <trkpt lat="47.88669" lon="7.21044">
        <ele>322.18</ele>
        <time>2017-02-01T08:29:55Z</time>
      </trkpt>
      <trkpt lat="47.8866" lon="7.21034">
        <ele>322.18</ele>
        <time>2017-02-01T08:30:05Z</time>
      </trkpt>
      <trkpt lat="47.88651" lon="7.21023">
        <ele>318.33</ele>
        <time>2017-02-01T08:30:15Z</time>
      </trkpt>
      <trkpt lat="47.88644" lon="7.21013">
        <ele>320.74</ele>
        <time>2017-02-01T08:30:25Z</time>
      </trkpt>
      <trkpt lat="47.88638" lon="7.21">
        <ele>316.89</ele>
        <time>2017-02-01T08:30:34Z</time>
      </trkpt>
      <trkpt lat="47.88634" lon="7.20987">
        <ele>318.81</ele>
        <time>2017-02-01T08:30:43Z</time>
      </trkpt>
      <trkpt lat="47.88629" lon="7.20971">
        <ele>318.33</ele>
        <time>2017-02-01T08:30:53Z</time>
      </trkpt>
      <trkpt lat="47.88624" lon="7.20954">
        <ele>317.85</ele>
        <time>2017-02-01T08:31:02Z</time>
      </trkpt>
      <trkpt lat="47.88622" lon="7.20938">
        <ele>314.49</ele>
        <time>2017-02-01T08:31:12Z</time>
      </trkpt>
      <trkpt lat="47.8862" lon="7.20921">
        <ele>315.45</ele>
        <time>2017-02-01T08:31:22Z</time>
      </trkpt>
      <trkpt lat="47.88617" lon="7.20904">
        <ele>316.41</ele>
        <time>2017-02-01T08:31:31Z</time>
      </trkpt>
      <trkpt lat="47.88616" lon="7.2089">
        <ele>316.89</ele>
        <time>2017-02-01T08:31:40Z</time>
      </trkpt>
      <trkpt lat="47.88615" lon="7.20875">
        <ele>314.97</ele>
        <time>2017-02-01T08:31:50Z</time>
      </trkpt>
      <trkpt lat="47.88613" lon="7.20851">
        <ele>314.49</ele>
        <time>2017-02-01T08:32:01Z</time>
      </trkpt>
      <trkpt lat="47.88607" lon="7.20835">
        <ele>315.93</ele>
        <time>2017-02-01T08:32:13Z</time>
      </trkpt>
      <trkpt lat="47.88599" lon="7.2082">
        <ele>314.49</ele>
        <time>2017-02-01T08:32:23Z</time>
      </trkpt>
      <trkpt lat="47.88594" lon="7.20801">
        <ele>316.41</ele>
        <time>2017-02-01T08:32:38Z</time>
      </trkpt>
      <trkpt lat="47.88589" lon="7.20784">
        <ele>317.85</ele>
        <time>2017-02-01T08:32:51Z</time>
      </trkpt>
      <trkpt lat="47.88582" lon="7.20768">
        <ele>318.81</ele>
        <time>2017-02-01T08:33:04Z</time>
      </trkpt>
      <trkpt lat="47.8858" lon="7.20751">
        <ele>319.78</ele>
        <time>2017-02-01T08:33:16Z</time>
      </trkpt>
      <trkpt lat="47.8858" lon="7.20733">
        <ele>322.18</ele>
        <time>2017-02-01T08:33:28Z</time>
      </trkpt>
      <trkpt lat="47.88577" lon="7.20716">
        <ele>324.1</ele>
        <time>2017-02-01T08:33:40Z</time>
      </trkpt>
      <trkpt lat="47.88572" lon="7.20698">
        <ele>325.54</ele>
        <time>2017-02-01T08:33:50Z</time>
      </trkpt>
      <trkpt lat="47.88568" lon="7.20682">
        <ele>321.22</ele>
        <time>2017-02-01T08:33:59Z</time>
      </trkpt>
      <trkpt lat="47.88565" lon="7.20667">
        <ele>321.7</ele>
        <time>2017-02-01T08:34:08Z</time>
      </trkpt>
      <trkpt lat="47.88561" lon="7.20652">
        <ele>321.22</ele>
        <time>2017-02-01T08:34:17Z</time>
      </trkpt>
      <trkpt lat="47.88555" lon="7.20638">
        <ele>320.26</ele>
        <time>2017-02-01T08:34:27Z</time>
      </trkpt>
      <trkpt lat="47.88546" lon="7.20628">
        <ele>317.85</ele>
        <time>2017-02-01T08:34:37Z</time>
      </trkpt>
      <trkpt lat="47.88539" lon="7.20618">
        <ele>318.81</ele>
        <time>2017-02-01T08:34:47Z</time>
      </trkpt>
      <trkpt lat="47.88541" lon="7.20605">
        <ele>317.37</ele>
        <time>2017-02-01T08:34:56Z</time>
      </trkpt>
      <trkpt lat="47.88547" lon="7.20592">
        <ele>320.74</ele>
        <time>2017-02-01T08:35:07Z</time>
      </trkpt>
      <trkpt lat="47.88552" lon="7.20577">
        <ele>317.85</ele>
        <time>2017-02-01T08:35:16Z</time>
      </trkpt>
      <trkpt lat="47.88559" lon="7.20565">
        <ele>318.33</ele>
        <time>2017-02-01T08:35:25Z</time>
      </trkpt>
      <trkpt lat="47.88565" lon="7.2055">
        <ele>318.33</ele>
        <time>2017-02-01T08:35:34Z</time>
      </trkpt>
      <trkpt lat="47.8857" lon="7.20534">
        <ele>318.81</ele>
        <time>2017-02-01T08:35:44Z</time>
      </trkpt>
      <trkpt lat="47.88574" lon="7.2052">
        <ele>322.18</ele>
        <time>2017-02-01T08:35:54Z</time>
      </trkpt>
      <trkpt lat="47.8858" lon="7.20504">
        <ele>321.7</ele>
        <time>2017-02-01T08:36:06Z</time>
      </trkpt>
      <trkpt lat="47.88581" lon="7.20489">
        <ele>321.7</ele>
        <time>2017-02-01T08:36:17Z</time>
      </trkpt>
      <trkpt lat="47.8858" lon="7.20471">
        <ele>323.14</ele>
        <time>2017-02-01T08:36:26Z</time>
      </trkpt>
      <trkpt lat="47.88577" lon="7.20455">
        <ele>324.1</ele>
        <time>2017-02-01T08:36:35Z</time>
      </trkpt>
      <trkpt lat="47.88576" lon="7.2044">
        <ele>324.1</ele>
        <time>2017-02-01T08:36:44Z</time>
      </trkpt>
      <trkpt lat="47.88575" lon="7.20425">
        <ele>322.66</ele>
        <time>2017-02-01T08:36:52Z</time>
      </trkpt>
      <trkpt lat="47.88574" lon="7.20411">
        <ele>326.02</ele>
        <time>2017-02-01T08:37:01Z</time>
      </trkpt>
      <trkpt lat="47.88572" lon="7.20396">
        <ele>326.02</ele>
        <time>2017-02-01T08:37:10Z</time>
      </trkpt>
      <trkpt lat="47.88572" lon="7.20381">
        <ele>325.06</ele>
        <time>2017-02-01T08:37:19Z</time>
      </trkpt>
      <trkpt lat="47.8857" lon="7.20365">
        <ele>326.02</ele>
        <time>2017-02-01T08:37:28Z</time>
      </trkpt>
      <trkpt lat="47.88566" lon="7.20347">
        <ele>327.47</ele>
        <time>2017-02-01T08:37:37Z</time>
      </trkpt>
      <trkpt lat="47.88563" lon="7.20332">
        <ele>327.95</ele>
        <time>2017-02-01T08:37:46Z</time>
      </trkpt>
      <trkpt lat="47.88562" lon="7.20315">
        <ele>327.47</ele>
        <time>2017-02-01T08:37:56Z</time>
      </trkpt>
      <trkpt lat="47.88561" lon="7.203">
        <ele>327.47</ele>
        <time>2017-02-01T08:38:05Z</time>
      </trkpt>
      <trkpt lat="47.88557" lon="7.20284">
        <ele>325.54</ele>
        <time>2017-02-01T08:38:14Z</time>
      </trkpt>
      <trkpt lat="47.88553" lon="7.20267">
        <ele>326.5</ele>
        <time>2017-02-01T08:38:23Z</time>
      </trkpt>
      <trkpt lat="47.88549" lon="7.20251">
        <ele>324.58</ele>
        <time>2017-02-01T08:38:32Z</time>
      </trkpt>
      <trkpt lat="47.88547" lon="7.20236">
        <ele>324.58</ele>
        <time>2017-02-01T08:38:40Z</time>
      </trkpt>
      <trkpt lat="47.88542" lon="7.20221">
        <ele>324.1</ele>
        <time>2017-02-01T08:38:50Z</time>
      </trkpt>
      <trkpt lat="47.8854" lon="7.20204">
        <ele>324.1</ele>
        <time>2017-02-01T08:38:59Z</time>
      </trkpt>
      <trkpt lat="47.88537" lon="7.20189">
        <ele>325.54</ele>
        <time>2017-02-01T08:39:08Z</time>
      </trkpt>
      <trkpt lat="47.88534" lon="7.20172">
        <ele>325.06</ele>
        <time>2017-02-01T08:39:17Z</time>
      </trkpt>
      <trkpt lat="47.88532" lon="7.20156">
        <ele>326.5</ele>
        <time>2017-02-01T08:39:27Z</time>
      </trkpt>
      <trkpt lat="47.8853" lon="7.2014">
        <ele>324.58</ele>
        <time>2017-02-01T08:39:36Z</time>
      </trkpt>
      <trkpt lat="47.88529" lon="7.20124">
        <ele>326.5</ele>
        <time>2017-02-01T08:39:45Z</time>
      </trkpt>
      <trkpt lat="47.88524" lon="7.20109">
        <ele>324.58</ele>
        <time>2017-02-01T08:39:54Z</time>
      </trkpt>
      <trkpt lat="47.88521" lon="7.20092">
        <ele>325.06</ele>
        <time>2017-02-01T08:40:03Z</time>
      </trkpt>
      <trkpt lat="47.88517" lon="7.20075">
        <ele>326.5</ele>
        <time>2017-02-01T08:40:12Z</time>
      </trkpt>
      <trkpt lat="47.88513" lon="7.20063">
        <ele>324.58</ele>
        <time>2017-02-01T08:40:20Z</time>
      </trkpt>
      <trkpt lat="47.88508" lon="7.20048">
        <ele>321.22</ele>
        <time>2017-02-01T08:40:30Z</time>
      </trkpt>
      <trkpt lat="47.88504" lon="7.20032">
        <ele>322.66</ele>
        <time>2017-02-01T08:40:39Z</time>
      </trkpt>
      <trkpt lat="47.885" lon="7.20017">
        <ele>322.66</ele>
        <time>2017-02-01T08:40:48Z</time>
      </trkpt>
      <trkpt lat="47.88495" lon="7.20002">
        <ele>320.26</ele>
        <time>2017-02-01T08:40:57Z</time>
      </trkpt>
      <trkpt lat="47.88491" lon="7.1999">
        <ele>322.18</ele>
        <time>2017-02-01T08:41:06Z</time>
      </trkpt>
      <trkpt lat="47.8849" lon="7.19975">
        <ele>321.7</ele>
        <time>2017-02-01T08:41:15Z</time>
      </trkpt>
      <trkpt lat="47.88488" lon="7.1996">
        <ele>318.81</ele>
        <time>2017-02-01T08:41:24Z</time>
      </trkpt>
      <trkpt lat="47.88487" lon="7.19946">
        <ele>320.74</ele>
        <time>2017-02-01T08:41:33Z</time>
      </trkpt>
      <trkpt lat="47.88487" lon="7.19929">
        <ele>318.81</ele>
        <time>2017-02-01T08:41:42Z</time>
      </trkpt>
      <trkpt lat="47.88487" lon="7.19912">
        <ele>316.89</ele>
        <time>2017-02-01T08:41:51Z</time>
      </trkpt>
      <trkpt lat="47.88488" lon="7.19892">
        <ele>318.81</ele>
        <time>2017-02-01T08:42:02Z</time>
      </trkpt>
      <trkpt lat="47.88488" lon="7.19876">
        <ele>319.3</ele>
        <time>2017-02-01T08:42:10Z</time>
      </trkpt>
      <trkpt lat="47.88496" lon="7.19865">
        <ele>318.81</ele>
        <time>2017-02-01T08:42:19Z</time>
      </trkpt>
      <trkpt lat="47.88502" lon="7.1985">
        <ele>318.81</ele>
        <time>2017-02-01T08:42:28Z</time>
      </trkpt>
      <trkpt lat="47.88507" lon="7.19836">
        <ele>319.3</ele>
        <time>2017-02-01T08:42:38Z</time>
      </trkpt>
      <trkpt lat="47.88507" lon="7.1982">
        <ele>319.78</ele>
        <time>2017-02-01T08:42:49Z</time>
      </trkpt>
      <trkpt lat="47.88507" lon="7.19804">
        <ele>319.78</ele>
        <time>2017-02-01T08:42:57Z</time>
      </trkpt>
      <trkpt lat="47.88506" lon="7.19788">
        <ele>319.78</ele>
        <time>2017-02-01T08:43:06Z</time>
      </trkpt>
      <trkpt lat="47.88508" lon="7.19771">
        <ele>319.78</ele>
        <time>2017-02-01T08:43:16Z</time>
      </trkpt>
      <trkpt lat="47.88509" lon="7.19753">
        <ele>319.78</ele>
        <time>2017-02-01T08:43:25Z</time>
      </trkpt>
      <trkpt lat="47.88509" lon="7.19736">
        <ele>318.81</ele>
        <time>2017-02-01T08:43:35Z</time>
      </trkpt>
      <trkpt lat="47.88511" lon="7.19718">
        <ele>319.3</ele>
        <time>2017-02-01T08:43:44Z</time>
      </trkpt>
      <trkpt lat="47.88511" lon="7.19702">
        <ele>321.22</ele>
        <time>2017-02-01T08:43:53Z</time>
      </trkpt>
      <trkpt lat="47.88511" lon="7.19687">
        <ele>322.18</ele>
        <time>2017-02-01T08:44:02Z</time>
      </trkpt>
      <trkpt lat="47.88513" lon="7.19671">
        <ele>319.3</ele>
        <time>2017-02-01T08:44:12Z</time>
      </trkpt>
      <trkpt lat="47.88515" lon="7.19652">
        <ele>322.18</ele>
        <time>2017-02-01T08:44:22Z</time>
      </trkpt>
      <trkpt lat="47.88511" lon="7.19636">
        <ele>321.22</ele>
        <time>2017-02-01T08:44:32Z</time>
      </trkpt>
      <trkpt lat="47.88506" lon="7.19624">
        <ele>320.74</ele>
        <time>2017-02-01T08:44:41Z</time>
      </trkpt>
      <trkpt lat="47.88499" lon="7.19615">
        <ele>323.14</ele>
        <time>2017-02-01T08:44:49Z</time>
      </trkpt>
      <trkpt lat="47.88491" lon="7.19607">
        <ele>321.7</ele>
        <time>2017-02-01T08:44:57Z</time>
      </trkpt>
      <trkpt lat="47.88483" lon="7.19599">
        <ele>320.74</ele>
        <time>2017-02-01T08:45:05Z</time>
      </trkpt>
      <trkpt lat="47.88475" lon="7.19589">
        <ele>322.18</ele>
        <time>2017-02-01T08:45:14Z</time>
      </trkpt>
      <trkpt lat="47.88466" lon="7.19581">
        <ele>321.22</ele>
        <time>2017-02-01T08:45:22Z</time>
      </trkpt>
      <trkpt lat="47.88459" lon="7.19571">
        <ele>325.06</ele>
        <time>2017-02-01T08:45:31Z</time>
      </trkpt>
      <trkpt lat="47.8845" lon="7.19568">
        <ele>322.66</ele>
        <time>2017-02-01T08:45:40Z</time>
      </trkpt>
      <trkpt lat="47.88444" lon="7.19576">
        <ele>323.14</ele>
        <time>2017-02-01T08:46:48Z</time>
      </trkpt>
      <trkpt lat="47.88442" lon="7.19585">
        <ele>321.7</ele>
        <time>2017-02-01T08:47:53Z</time>
      </trkpt>
      <trkpt lat="47.88443" lon="7.19604">
        <ele>321.22</ele>
        <time>2017-02-01T08:48:06Z</time>
      </trkpt>
      <trkpt lat="47.88434" lon="7.19617">
        <ele>322.66</ele>
        <time>2017-02-01T08:48:19Z</time>
      </trkpt>
      <trkpt lat="47.88431" lon="7.19631">
        <ele>322.18</ele>
        <time>2017-02-01T08:48:29Z</time>
      </trkpt>
      <trkpt lat="47.88425" lon="7.19644">
        <ele>320.26</ele>
        <time>2017-02-01T08:48:39Z</time>
      </trkpt>
      <trkpt lat="47.88422" lon="7.1966">
        <ele>319.3</ele>
        <time>2017-02-01T08:48:51Z</time>
      </trkpt>
      <trkpt lat="47.88419" lon="7.19676">
        <ele>319.3</ele>
        <time>2017-02-01T08:49:02Z</time>
      </trkpt>
      <trkpt lat="47.88414" lon="7.1969">
        <ele>321.7</ele>
        <time>2017-02-01T08:49:12Z</time>
      </trkpt>
      <trkpt lat="47.88406" lon="7.19701">
        <ele>320.26</ele>
        <time>2017-02-01T08:49:22Z</time>
      </trkpt>
      <trkpt lat="47.88395" lon="7.19708">
        <ele>319.3</ele>
        <time>2017-02-01T08:49:32Z</time>
      </trkpt>
      <trkpt lat="47.88386" lon="7.19714">
        <ele>317.37</ele>
        <time>2017-02-01T08:49:40Z</time>
      </trkpt>
      <trkpt lat="47.88377" lon="7.19721">
        <ele>319.3</ele>
        <time>2017-02-01T08:49:49Z</time>
      </trkpt>
      <trkpt lat="47.88369" lon="7.19727">
        <ele>318.33</ele>
        <time>2017-02-01T08:49:57Z</time>
      </trkpt>
      <trkpt lat="47.88359" lon="7.19733">
        <ele>317.37</ele>
        <time>2017-02-01T08:50:08Z</time>
      </trkpt>
      <trkpt lat="47.8835" lon="7.19739">
        <ele>315.45</ele>
        <time>2017-02-01T08:50:17Z</time>
      </trkpt>
      <trkpt lat="47.88341" lon="7.19747">
        <ele>316.89</ele>
        <time>2017-02-01T08:50:26Z</time>
      </trkpt>
      <trkpt lat="47.88331" lon="7.19754">
        <ele>317.85</ele>
        <time>2017-02-01T08:50:36Z</time>
      </trkpt>
      <trkpt lat="47.88322" lon="7.19761">
        <ele>314.49</ele>
        <time>2017-02-01T08:50:46Z</time>
      </trkpt>
      <trkpt lat="47.88313" lon="7.19768">
        <ele>314.97</ele>
        <time>2017-02-01T08:50:54Z</time>
      </trkpt>
      <trkpt lat="47.88304" lon="7.19779">
        <ele>314.97</ele>
        <time>2017-02-01T08:51:04Z</time>
      </trkpt>
      <trkpt lat="47.88295" lon="7.19788">
        <ele>315.45</ele>
        <time>2017-02-01T08:51:13Z</time>
      </trkpt>
      <trkpt lat="47.88286" lon="7.19796">
        <ele>315.93</ele>
        <time>2017-02-01T08:51:23Z</time>
      </trkpt>
      <trkpt lat="47.88277" lon="7.19804">
        <ele>316.89</ele>
        <time>2017-02-01T08:51:33Z</time>
      </trkpt>
      <trkpt lat="47.88269" lon="7.19811">
        <ele>314.49</ele>
        <time>2017-02-01T08:51:41Z</time>
      </trkpt>
      <trkpt lat="47.88259" lon="7.19818">
        <ele>314.01</ele>
        <time>2017-02-01T08:51:51Z</time>
      </trkpt>
      <trkpt lat="47.88249" lon="7.19812">
        <ele>315.45</ele>
        <time>2017-02-01T08:52:01Z</time>
      </trkpt>
      <trkpt lat="47.88239" lon="7.19803">
        <ele>314.97</ele>
        <time>2017-02-01T08:52:11Z</time>
      </trkpt>
      <trkpt lat="47.88231" lon="7.19794">
        <ele>315.45</ele>
        <time>2017-02-01T08:52:20Z</time>
      </trkpt>
      <trkpt lat="47.8822" lon="7.19786">
        <ele>316.89</ele>
        <time>2017-02-01T08:52:31Z</time>
      </trkpt>
      <trkpt lat="47.88216" lon="7.19768">
        <ele>316.89</ele>
        <time>2017-02-01T08:52:45Z</time>
      </trkpt>
      <trkpt lat="47.88215" lon="7.19755">
        <ele>317.85</ele>
        <time>2017-02-01T08:52:58Z</time>
      </trkpt>
      <trkpt lat="47.88211" lon="7.19735">
        <ele>318.33</ele>
        <time>2017-02-01T08:53:11Z</time>
      </trkpt>
      <trkpt lat="47.88203" lon="7.19713">
        <ele>320.74</ele>
        <time>2017-02-01T08:53:24Z</time>
      </trkpt>
      <trkpt lat="47.88201" lon="7.19686">
        <ele>321.7</ele>
        <time>2017-02-01T08:53:41Z</time>
      </trkpt>
      <trkpt lat="47.88204" lon="7.19669">
        <ele>320.74</ele>
        <time>2017-02-01T08:54:01Z</time>
      </trkpt>
      <trkpt lat="47.88209" lon="7.19639">
        <ele>320.74</ele>
        <time>2017-02-01T08:54:16Z</time>
      </trkpt>
      <trkpt lat="47.88205" lon="7.19611">
        <ele>321.22</ele>
        <time>2017-02-01T08:54:34Z</time>
      </trkpt>
      <trkpt lat="47.88202" lon="7.19584">
        <ele>324.1</ele>
        <time>2017-02-01T08:54:51Z</time>
      </trkpt>
      <trkpt lat="47.88197" lon="7.19568">
        <ele>324.1</ele>
        <time>2017-02-01T08:55:15Z</time>
      </trkpt>
      <trkpt lat="47.88194" lon="7.19535">
        <ele>324.58</ele>
        <time>2017-02-01T08:55:36Z</time>
      </trkpt>
      <trkpt lat="47.88194" lon="7.19505">
        <ele>323.62</ele>
        <time>2017-02-01T08:55:52Z</time>
      </trkpt>
      <trkpt lat="47.88194" lon="7.19479">
        <ele>325.06</ele>
        <time>2017-02-01T08:56:14Z</time>
      </trkpt>
      <trkpt lat="47.88189" lon="7.19465">
        <ele>325.06</ele>
        <time>2017-02-01T08:58:03Z</time>
      </trkpt>
      <trkpt lat="47.88177" lon="7.19444">
        <ele>327.95</ele>
        <time>2017-02-01T08:58:18Z</time>
      </trkpt>
      <trkpt lat="47.88169" lon="7.19429">
        <ele>327.95</ele>
        <time>2017-02-01T08:58:37Z</time>
      </trkpt>
      <trkpt lat="47.88159" lon="7.19421">
        <ele>331.79</ele>
        <time>2017-02-01T08:58:56Z</time>
      </trkpt>
      <trkpt lat="47.88139" lon="7.19406">
        <ele>332.75</ele>
        <time>2017-02-01T08:59:12Z</time>
      </trkpt>
      <trkpt lat="47.88122" lon="7.19398">
        <ele>335.16</ele>
        <time>2017-02-01T08:59:28Z</time>
      </trkpt>
      <trkpt lat="47.88104" lon="7.1939">
        <ele>340.92</ele>
        <time>2017-02-01T08:59:56Z</time>
      </trkpt>
      <trkpt lat="47.88086" lon="7.19383">
        <ele>343.33</ele>
        <time>2017-02-01T09:00:23Z</time>
      </trkpt>
      <trkpt lat="47.88067" lon="7.19376">
        <ele>345.73</ele>
        <time>2017-02-01T09:00:46Z</time>
      </trkpt>
      <trkpt lat="47.88058" lon="7.19375">
        <ele>346.21</ele>
        <time>2017-02-01T09:02:25Z</time>
      </trkpt>
      <trkpt lat="47.88045" lon="7.1937">
        <ele>348.13</ele>
        <time>2017-02-01T09:02:39Z</time>
      </trkpt>
      <trkpt lat="47.88037" lon="7.19366">
        <ele>347.17</ele>
        <time>2017-02-01T09:02:56Z</time>
      </trkpt>
      <trkpt lat="47.88021" lon="7.19369">
        <ele>351.5</ele>
        <time>2017-02-01T09:03:17Z</time>
      </trkpt>
      <trkpt lat="47.88" lon="7.19379">
        <ele>356.31</ele>
        <time>2017-02-01T09:03:33Z</time>
      </trkpt>
      <trkpt lat="47.87982" lon="7.19382">
        <ele>359.67</ele>
        <time>2017-02-01T09:03:56Z</time>
      </trkpt>
      <trkpt lat="47.87964" lon="7.1938">
        <ele>359.19</ele>
        <time>2017-02-01T09:04:17Z</time>
      </trkpt>
      <trkpt lat="47.87964" lon="7.19382">
        <ele>359.19</ele>
        <time>2017-02-01T09:04:53Z</time>
      </trkpt>
      <trkpt lat="47.87957" lon="7.19374">
        <ele>363.52</ele>
        <time>2017-02-01T09:08:28Z</time>
      </trkpt>
      <trkpt lat="47.87939" lon="7.19345">
        <ele>363.04</ele>
        <time>2017-02-01T09:08:59Z</time>
      </trkpt>
      <trkpt lat="47.87923" lon="7.19326">
        <ele>367.36</ele>
        <time>2017-02-01T09:09:18Z</time>
      </trkpt>
      <trkpt lat="47.87911" lon="7.19313">
        <ele>367.36</ele>
        <time>2017-02-01T09:09:32Z</time>
      </trkpt>
      <trkpt lat="47.87902" lon="7.19307">
        <ele>370.73</ele>
        <time>2017-02-01T09:09:47Z</time>
      </trkpt>
      <trkpt lat="47.87888" lon="7.19297">
        <ele>369.76</ele>
        <time>2017-02-01T09:10:06Z</time>
      </trkpt>
      <trkpt lat="47.87874" lon="7.19287">
        <ele>374.09</ele>
        <time>2017-02-01T09:10:22Z</time>
      </trkpt>
      <trkpt lat="47.87866" lon="7.19283">
        <ele>374.09</ele>
        <time>2017-02-01T09:10:34Z</time>
      </trkpt>
      <trkpt lat="47.87855" lon="7.19274">
        <ele>376.49</ele>
        <time>2017-02-01T09:10:56Z</time>
      </trkpt>
      <trkpt lat="47.87814" lon="7.19254">
        <ele>385.15</ele>
        <time>2017-02-01T09:11:46Z</time>
      </trkpt>
      <trkpt lat="47.87797" lon="7.19245">
        <ele>387.55</ele>
        <time>2017-02-01T09:12:12Z</time>
      </trkpt>
      <trkpt lat="47.87757" lon="7.19222">
        <ele>389.95</ele>
        <time>2017-02-01T09:12:49Z</time>
      </trkpt>
      <trkpt lat="47.87736" lon="7.19213">
        <ele>393.8</ele>
        <time>2017-02-01T09:13:03Z</time>
      </trkpt>
      <trkpt lat="47.87714" lon="7.19203">
        <ele>393.8</ele>
        <time>2017-02-01T09:13:18Z</time>
      </trkpt>
      <trkpt lat="47.87686" lon="7.19187">
        <ele>393.32</ele>
        <time>2017-02-01T09:13:53Z</time>
      </trkpt>
      <trkpt lat="47.87666" lon="7.19167">
        <ele>394.76</ele>
        <time>2017-02-01T09:14:18Z</time>
      </trkpt>
      <trkpt lat="47.8765" lon="7.19153">
        <ele>395.24</ele>
        <time>2017-02-01T09:14:36Z</time>
      </trkpt>
      <trkpt lat="47.87622" lon="7.19149">
        <ele>392.84</ele>
        <time>2017-02-01T09:15:00Z</time>
      </trkpt>
      <trkpt lat="47.87602" lon="7.19142">
        <ele>392.84</ele>
        <time>2017-02-01T09:15:18Z</time>
      </trkpt>
      <trkpt lat="47.87587" lon="7.19144">
        <ele>394.28</ele>
        <time>2017-02-01T09:16:05Z</time>
      </trkpt>
      <trkpt lat="47.87578" lon="7.19143">
        <ele>395.24</ele>
        <time>2017-02-01T09:22:32Z</time>
      </trkpt>
      <trkpt lat="47.87575" lon="7.19148">
        <ele>397.16</ele>
        <time>2017-02-01T09:28:49Z</time>
      </trkpt>
      <trkpt lat="47.87574" lon="7.19161">
        <ele>396.2</ele>
        <time>2017-02-01T09:29:29Z</time>
      </trkpt>
      <trkpt lat="47.8756" lon="7.19163">
        <ele>397.16</ele>
        <time>2017-02-01T09:29:44Z</time>
      </trkpt>
      <trkpt lat="47.87546" lon="7.19159">
        <ele>394.28</ele>
        <time>2017-02-01T09:30:12Z</time>
      </trkpt>
      <trkpt lat="47.87535" lon="7.19162">
        <ele>395.24</ele>
        <time>2017-02-01T09:30:22Z</time>
      </trkpt>
      <trkpt lat="47.87523" lon="7.19158">
        <ele>392.36</ele>
        <time>2017-02-01T09:30:31Z</time>
      </trkpt>
      <trkpt lat="47.87512" lon="7.19153">
        <ele>396.2</ele>
        <time>2017-02-01T09:30:40Z</time>
      </trkpt>
      <trkpt lat="47.875" lon="7.19155">
        <ele>394.76</ele>
        <time>2017-02-01T09:30:50Z</time>
      </trkpt>
      <trkpt lat="47.87489" lon="7.19159">
        <ele>393.32</ele>
        <time>2017-02-01T09:31:00Z</time>
      </trkpt>
      <trkpt lat="47.87478" lon="7.19161">
        <ele>391.87</ele>
        <time>2017-02-01T09:31:11Z</time>
      </trkpt>
      <trkpt lat="47.87464" lon="7.19164">
        <ele>389.47</ele>
        <time>2017-02-01T09:31:24Z</time>
      </trkpt>
      <trkpt lat="47.87448" lon="7.19163">
        <ele>390.91</ele>
        <time>2017-02-01T09:31:38Z</time>
      </trkpt>
      <trkpt lat="47.87432" lon="7.19168">
        <ele>388.03</ele>
        <time>2017-02-01T09:31:53Z</time>
      </trkpt>
      <trkpt lat="47.87418" lon="7.19172">
        <ele>387.55</ele>
        <time>2017-02-01T09:32:07Z</time>
      </trkpt>
      <trkpt lat="47.87401" lon="7.19172">
        <ele>388.51</ele>
        <time>2017-02-01T09:32:22Z</time>
      </trkpt>
      <trkpt lat="47.87387" lon="7.19171">
        <ele>386.11</ele>
        <time>2017-02-01T09:32:35Z</time>
      </trkpt>
      <trkpt lat="47.87373" lon="7.19176">
        <ele>385.15</ele>
        <time>2017-02-01T09:32:51Z</time>
      </trkpt>
      <trkpt lat="47.87358" lon="7.19176">
        <ele>378.9</ele>
        <time>2017-02-01T09:33:05Z</time>
      </trkpt>
      <trkpt lat="47.87342" lon="7.19178">
        <ele>382.74</ele>
        <time>2017-02-01T09:33:19Z</time>
      </trkpt>
      <trkpt lat="47.87327" lon="7.19169">
        <ele>376.49</ele>
        <time>2017-02-01T09:33:34Z</time>
      </trkpt>
      <trkpt lat="47.87314" lon="7.19153">
        <ele>373.61</ele>
        <time>2017-02-01T09:33:51Z</time>
      </trkpt>
      <trkpt lat="47.87309" lon="7.19142">
        <ele>369.28</ele>
        <time>2017-02-01T09:34:05Z</time>
      </trkpt>
      <trkpt lat="47.87293" lon="7.19115">
        <ele>357.75</ele>
        <time>2017-02-01T09:34:25Z</time>
      </trkpt>
      <trkpt lat="47.8727" lon="7.19103">
        <ele>360.63</ele>
        <time>2017-02-01T09:34:40Z</time>
      </trkpt>
      <trkpt lat="47.87268" lon="7.19125">
        <ele>360.15</ele>
        <time>2017-02-01T09:34:53Z</time>
      </trkpt>
      <trkpt lat="47.87263" lon="7.19148">
        <ele>360.63</ele>
        <time>2017-02-01T09:35:07Z</time>
      </trkpt>
      <trkpt lat="47.87257" lon="7.19161">
        <ele>354.38</ele>
        <time>2017-02-01T09:35:19Z</time>
      </trkpt>
      <trkpt lat="47.87249" lon="7.19173">
        <ele>355.83</ele>
        <time>2017-02-01T09:35:28Z</time>
      </trkpt>
      <trkpt lat="47.87239" lon="7.19179">
        <ele>355.34</ele>
        <time>2017-02-01T09:35:38Z</time>
      </trkpt>
      <trkpt lat="47.87228" lon="7.19187">
        <ele>353.9</ele>
        <time>2017-02-01T09:35:48Z</time>
      </trkpt>
      <trkpt lat="47.87216" lon="7.19186">
        <ele>351.5</ele>
        <time>2017-02-01T09:35:58Z</time>
      </trkpt>
      <trkpt lat="47.87196" lon="7.19174">
        <ele>352.46</ele>
        <time>2017-02-01T09:36:11Z</time>
      </trkpt>
      <trkpt lat="47.8718" lon="7.19171">
        <ele>353.9</ele>
        <time>2017-02-01T09:36:24Z</time>
      </trkpt>
      <trkpt lat="47.87168" lon="7.19161">
        <ele>356.79</ele>
        <time>2017-02-01T09:36:36Z</time>
      </trkpt>
      <trkpt lat="47.87154" lon="7.19162">
        <ele>354.86</ele>
        <time>2017-02-01T09:36:52Z</time>
      </trkpt>
      <trkpt lat="47.87133" lon="7.19162">
        <ele>361.11</ele>
        <time>2017-02-01T09:37:07Z</time>
      </trkpt>
      <trkpt lat="47.87112" lon="7.19158">
        <ele>363.52</ele>
        <time>2017-02-01T09:37:24Z</time>
      </trkpt>
      <trkpt lat="47.87093" lon="7.19157">
        <ele>362.07</ele>
        <time>2017-02-01T09:37:39Z</time>
      </trkpt>
      <trkpt lat="47.87088" lon="7.19151">
        <ele>364</ele>
        <time>2017-02-01T09:38:35Z</time>
      </trkpt>
      <trkpt lat="47.87084" lon="7.19142">
        <ele>364.48</ele>
        <time>2017-02-01T09:38:45Z</time>
      </trkpt>
      <trkpt lat="47.87083" lon="7.19125">
        <ele>365.44</ele>
        <time>2017-02-01T09:38:56Z</time>
      </trkpt>
      <trkpt lat="47.87084" lon="7.19103">
        <ele>367.36</ele>
        <time>2017-02-01T09:39:09Z</time>
      </trkpt>
      <trkpt lat="47.87082" lon="7.19084">
        <ele>366.4</ele>
        <time>2017-02-01T09:39:23Z</time>
      </trkpt>
      <trkpt lat="47.87076" lon="7.19061">
        <ele>369.28</ele>
        <time>2017-02-01T09:39:38Z</time>
      </trkpt>
      <trkpt lat="47.87072" lon="7.19043">
        <ele>371.69</ele>
        <time>2017-02-01T09:39:51Z</time>
      </trkpt>
      <trkpt lat="47.8707" lon="7.19026">
        <ele>371.21</ele>
        <time>2017-02-01T09:40:06Z</time>
      </trkpt>
      <trkpt lat="47.87062" lon="7.18995">
        <ele>374.09</ele>
        <time>2017-02-01T09:40:22Z</time>
      </trkpt>
      <trkpt lat="47.87057" lon="7.18974">
        <ele>373.13</ele>
        <time>2017-02-01T09:40:38Z</time>
      </trkpt>
      <trkpt lat="47.87053" lon="7.18956">
        <ele>377.45</ele>
        <time>2017-02-01T09:40:52Z</time>
      </trkpt>
      <trkpt lat="47.87045" lon="7.1893">
        <ele>375.53</ele>
        <time>2017-02-01T09:41:08Z</time>
      </trkpt>
      <trkpt lat="47.8704" lon="7.1891">
        <ele>377.94</ele>
        <time>2017-02-01T09:41:21Z</time>
      </trkpt>
      <trkpt lat="47.87037" lon="7.1889">
        <ele>376.49</ele>
        <time>2017-02-01T09:41:36Z</time>
      </trkpt>
      <trkpt lat="47.87031" lon="7.1887">
        <ele>378.9</ele>
        <time>2017-02-01T09:41:48Z</time>
      </trkpt>
      <trkpt lat="47.87024" lon="7.18852">
        <ele>379.38</ele>
        <time>2017-02-01T09:42:01Z</time>
      </trkpt>
      <trkpt lat="47.87019" lon="7.18836">
        <ele>378.9</ele>
        <time>2017-02-01T09:42:13Z</time>
      </trkpt>
      <trkpt lat="47.87014" lon="7.18803">
        <ele>383.7</ele>
        <time>2017-02-01T09:42:32Z</time>
      </trkpt>
      <trkpt lat="47.87007" lon="7.18781">
        <ele>384.18</ele>
        <time>2017-02-01T09:42:50Z</time>
      </trkpt>
      <trkpt lat="47.87005" lon="7.1876">
        <ele>385.63</ele>
        <time>2017-02-01T09:43:04Z</time>
      </trkpt>
      <trkpt lat="47.86998" lon="7.18743">
        <ele>387.07</ele>
        <time>2017-02-01T09:43:17Z</time>
      </trkpt>
      <trkpt lat="47.86993" lon="7.18721">
        <ele>387.07</ele>
        <time>2017-02-01T09:43:31Z</time>
      </trkpt>
      <trkpt lat="47.8699" lon="7.18705">
        <ele>389.95</ele>
        <time>2017-02-01T09:43:43Z</time>
      </trkpt>
      <trkpt lat="47.86985" lon="7.18687">
        <ele>388.03</ele>
        <time>2017-02-01T09:43:56Z</time>
      </trkpt>
      <trkpt lat="47.86981" lon="7.18667">
        <ele>388.99</ele>
        <time>2017-02-01T09:44:09Z</time>
      </trkpt>
      <trkpt lat="47.86977" lon="7.18648">
        <ele>389.47</ele>
        <time>2017-02-01T09:44:22Z</time>
      </trkpt>
      <trkpt lat="47.8697" lon="7.18623">
        <ele>392.36</ele>
        <time>2017-02-01T09:44:39Z</time>
      </trkpt>
      <trkpt lat="47.86964" lon="7.18597">
        <ele>393.32</ele>
        <time>2017-02-01T09:45:00Z</time>
      </trkpt>
      <trkpt lat="47.86962" lon="7.1857">
        <ele>395.24</ele>
        <time>2017-02-01T09:45:21Z</time>
      </trkpt>
      <trkpt lat="47.86966" lon="7.18547">
        <ele>396.68</ele>
        <time>2017-02-01T09:45:37Z</time>
      </trkpt>
      <trkpt lat="47.86957" lon="7.18508">
        <ele>399.57</ele>
        <time>2017-02-01T09:46:02Z</time>
      </trkpt>
      <trkpt lat="47.8695" lon="7.18496">
        <ele>401.01</ele>
        <time>2017-02-01T09:46:49Z</time>
      </trkpt>
      <trkpt lat="47.86933" lon="7.18488">
        <ele>403.41</ele>
        <time>2017-02-01T09:47:11Z</time>
      </trkpt>
      <trkpt lat="47.86911" lon="7.18486">
        <ele>403.89</ele>
        <time>2017-02-01T09:47:34Z</time>
      </trkpt>
      <trkpt lat="47.86893" lon="7.18482">
        <ele>407.74</ele>
        <time>2017-02-01T09:47:59Z</time>
      </trkpt>
      <trkpt lat="47.86874" lon="7.18473">
        <ele>409.18</ele>
        <time>2017-02-01T09:48:25Z</time>
      </trkpt>
      <trkpt lat="47.86849" lon="7.18445">
        <ele>411.1</ele>
        <time>2017-02-01T09:49:02Z</time>
      </trkpt>
      <trkpt lat="47.86833" lon="7.1842">
        <ele>413.02</ele>
        <time>2017-02-01T09:49:21Z</time>
      </trkpt>
      <trkpt lat="47.86828" lon="7.18406">
        <ele>416.39</ele>
        <time>2017-02-01T09:49:36Z</time>
      </trkpt>
      <trkpt lat="47.86825" lon="7.18388">
        <ele>417.83</ele>
        <time>2017-02-01T09:49:52Z</time>
      </trkpt>
      <trkpt lat="47.86819" lon="7.18369">
        <ele>422.16</ele>
        <time>2017-02-01T09:50:08Z</time>
      </trkpt>
      <trkpt lat="47.86809" lon="7.18348">
        <ele>421.19</ele>
        <time>2017-02-01T09:50:23Z</time>
      </trkpt>
      <trkpt lat="47.86792" lon="7.18337">
        <ele>422.16</ele>
        <time>2017-02-01T09:50:36Z</time>
      </trkpt>
      <trkpt lat="47.86783" lon="7.18324">
        <ele>425.04</ele>
        <time>2017-02-01T09:50:49Z</time>
      </trkpt>
      <trkpt lat="47.86777" lon="7.18313">
        <ele>427.92</ele>
        <time>2017-02-01T09:51:05Z</time>
      </trkpt>
      <trkpt lat="47.86771" lon="7.18297">
        <ele>430.33</ele>
        <time>2017-02-01T09:51:20Z</time>
      </trkpt>
      <trkpt lat="47.86763" lon="7.1828">
        <ele>432.25</ele>
        <time>2017-02-01T09:51:33Z</time>
      </trkpt>
      <trkpt lat="47.86757" lon="7.18268">
        <ele>432.25</ele>
        <time>2017-02-01T09:51:50Z</time>
      </trkpt>
      <trkpt lat="47.86741" lon="7.1825">
        <ele>434.65</ele>
        <time>2017-02-01T09:52:09Z</time>
      </trkpt>
      <trkpt lat="47.86734" lon="7.18237">
        <ele>438.98</ele>
        <time>2017-02-01T09:52:29Z</time>
      </trkpt>
      <trkpt lat="47.86726" lon="7.18218">
        <ele>441.86</ele>
        <time>2017-02-01T09:52:47Z</time>
      </trkpt>
      <trkpt lat="47.86724" lon="7.18195">
        <ele>443.31</ele>
        <time>2017-02-01T09:53:01Z</time>
      </trkpt>
      <trkpt lat="47.86723" lon="7.18174">
        <ele>443.79</ele>
        <time>2017-02-01T09:53:13Z</time>
      </trkpt>
      <trkpt lat="47.86727" lon="7.18155">
        <ele>449.07</ele>
        <time>2017-02-01T09:53:26Z</time>
      </trkpt>
      <trkpt lat="47.86722" lon="7.18131">
        <ele>449.55</ele>
        <time>2017-02-01T09:53:50Z</time>
      </trkpt>
      <trkpt lat="47.86722" lon="7.18097">
        <ele>453.4</ele>
        <time>2017-02-01T09:54:08Z</time>
      </trkpt>
      <trkpt lat="47.86718" lon="7.18068">
        <ele>456.28</ele>
        <time>2017-02-01T09:54:24Z</time>
      </trkpt>
      <trkpt lat="47.86713" lon="7.18048">
        <ele>459.65</ele>
        <time>2017-02-01T09:54:49Z</time>
      </trkpt>
      <trkpt lat="47.86708" lon="7.18033">
        <ele>463.49</ele>
        <time>2017-02-01T09:55:04Z</time>
      </trkpt>
      <trkpt lat="47.86704" lon="7.18012">
        <ele>465.42</ele>
        <time>2017-02-01T09:55:24Z</time>
      </trkpt>
      <trkpt lat="47.86703" lon="7.17992">
        <ele>468.78</ele>
        <time>2017-02-01T09:55:36Z</time>
      </trkpt>
      <trkpt lat="47.86696" lon="7.17979">
        <ele>469.26</ele>
        <time>2017-02-01T09:55:50Z</time>
      </trkpt>
      <trkpt lat="47.86682" lon="7.17969">
        <ele>475.03</ele>
        <time>2017-02-01T09:56:12Z</time>
      </trkpt>
      <trkpt lat="47.86676" lon="7.17959">
        <ele>475.51</ele>
        <time>2017-02-01T09:56:32Z</time>
      </trkpt>
      <trkpt lat="47.86663" lon="7.17957">
        <ele>477.91</ele>
        <time>2017-02-01T09:56:57Z</time>
      </trkpt>
      <trkpt lat="47.86641" lon="7.17952">
        <ele>481.76</ele>
        <time>2017-02-01T09:57:21Z</time>
      </trkpt>
      <trkpt lat="47.86624" lon="7.17955">
        <ele>483.2</ele>
        <time>2017-02-01T09:57:40Z</time>
      </trkpt>
      <trkpt lat="47.86605" lon="7.17961">
        <ele>487.05</ele>
        <time>2017-02-01T09:58:04Z</time>
      </trkpt>
      <trkpt lat="47.86588" lon="7.17964">
        <ele>488.97</ele>
        <time>2017-02-01T09:58:30Z</time>
      </trkpt>
      <trkpt lat="47.86574" lon="7.17962">
        <ele>491.37</ele>
        <time>2017-02-01T09:58:50Z</time>
      </trkpt>
      <trkpt lat="47.86562" lon="7.17954">
        <ele>493.77</ele>
        <time>2017-02-01T09:59:17Z</time>
      </trkpt>
      <trkpt lat="47.86544" lon="7.17948">
        <ele>495.22</ele>
        <time>2017-02-01T09:59:39Z</time>
      </trkpt>
      <trkpt lat="47.86528" lon="7.17956">
        <ele>499.54</ele>
        <time>2017-02-01T10:00:07Z</time>
      </trkpt>
      <trkpt lat="47.86506" lon="7.17977">
        <ele>504.83</ele>
        <time>2017-02-01T10:00:28Z</time>
      </trkpt>
      <trkpt lat="47.86492" lon="7.17967">
        <ele>502.43</ele>
        <time>2017-02-01T10:00:44Z</time>
      </trkpt>
      <trkpt lat="47.86475" lon="7.17977">
        <ele>506.27</ele>
        <time>2017-02-01T10:01:11Z</time>
      </trkpt>
      <trkpt lat="47.86459" lon="7.17984">
        <ele>509.16</ele>
        <time>2017-02-01T10:01:34Z</time>
      </trkpt>
      <trkpt lat="47.86442" lon="7.17995">
        <ele>512.04</ele>
        <time>2017-02-01T10:02:02Z</time>
      </trkpt>
      <trkpt lat="47.8642" lon="7.18007">
        <ele>514.44</ele>
        <time>2017-02-01T10:02:23Z</time>
      </trkpt>
      <trkpt lat="47.86399" lon="7.18011">
        <ele>517.81</ele>
        <time>2017-02-01T10:02:51Z</time>
      </trkpt>
      <trkpt lat="47.86391" lon="7.18014">
        <ele>520.69</ele>
        <time>2017-02-01T10:04:20Z</time>
      </trkpt>
      <trkpt lat="47.8638" lon="7.18025">
        <ele>521.17</ele>
        <time>2017-02-01T10:05:08Z</time>
      </trkpt>
      <trkpt lat="47.86365" lon="7.18031">
        <ele>525.02</ele>
        <time>2017-02-01T10:05:40Z</time>
      </trkpt>
      <trkpt lat="47.86344" lon="7.1803">
        <ele>526.46</ele>
        <time>2017-02-01T10:05:55Z</time>
      </trkpt>
      <trkpt lat="47.86322" lon="7.18043">
        <ele>530.3</ele>
        <time>2017-02-01T10:06:16Z</time>
      </trkpt>
      <trkpt lat="47.86308" lon="7.18036">
        <ele>531.75</ele>
        <time>2017-02-01T10:06:36Z</time>
      </trkpt>
      <trkpt lat="47.86299" lon="7.1802">
        <ele>537.03</ele>
        <time>2017-02-01T10:06:51Z</time>
      </trkpt>
      <trkpt lat="47.86291" lon="7.18007">
        <ele>535.11</ele>
        <time>2017-02-01T10:07:05Z</time>
      </trkpt>
      <trkpt lat="47.86284" lon="7.17991">
        <ele>537.51</ele>
        <time>2017-02-01T10:07:20Z</time>
      </trkpt>
      <trkpt lat="47.86279" lon="7.17975">
        <ele>539.44</ele>
        <time>2017-02-01T10:07:33Z</time>
      </trkpt>
      <trkpt lat="47.86276" lon="7.17956">
        <ele>542.8</ele>
        <time>2017-02-01T10:07:46Z</time>
      </trkpt>
      <trkpt lat="47.86276" lon="7.17935">
        <ele>546.17</ele>
        <time>2017-02-01T10:08:01Z</time>
      </trkpt>
      <trkpt lat="47.86276" lon="7.17908">
        <ele>545.69</ele>
        <time>2017-02-01T10:08:20Z</time>
      </trkpt>
      <trkpt lat="47.86275" lon="7.17874">
        <ele>548.57</ele>
        <time>2017-02-01T10:08:38Z</time>
      </trkpt>
      <trkpt lat="47.8627" lon="7.17861">
        <ele>551.45</ele>
        <time>2017-02-01T10:08:54Z</time>
      </trkpt>
      <trkpt lat="47.86272" lon="7.17839">
        <ele>552.9</ele>
        <time>2017-02-01T10:09:07Z</time>
      </trkpt>
      <trkpt lat="47.86265" lon="7.17818">
        <ele>553.38</ele>
        <time>2017-02-01T10:09:21Z</time>
      </trkpt>
      <trkpt lat="47.86258" lon="7.17802">
        <ele>556.26</ele>
        <time>2017-02-01T10:09:38Z</time>
      </trkpt>
      <trkpt lat="47.86258" lon="7.17779">
        <ele>559.62</ele>
        <time>2017-02-01T10:09:57Z</time>
      </trkpt>
      <trkpt lat="47.86252" lon="7.17785">
        <ele>557.7</ele>
        <time>2017-02-01T10:11:23Z</time>
      </trkpt>
      <trkpt lat="47.86257" lon="7.17753">
        <ele>565.87</ele>
        <time>2017-02-01T10:11:53Z</time>
      </trkpt>
      <trkpt lat="47.86252" lon="7.1773">
        <ele>570.2</ele>
        <time>2017-02-01T10:12:25Z</time>
      </trkpt>
      <trkpt lat="47.86255" lon="7.17688">
        <ele>574.04</ele>
        <time>2017-02-01T10:12:45Z</time>
      </trkpt>
      <trkpt lat="47.86252" lon="7.17659">
        <ele>576.93</ele>
        <time>2017-02-01T10:13:08Z</time>
      </trkpt>
      <trkpt lat="47.86249" lon="7.17629">
        <ele>578.85</ele>
        <time>2017-02-01T10:13:28Z</time>
      </trkpt>
      <trkpt lat="47.86243" lon="7.17614">
        <ele>580.29</ele>
        <time>2017-02-01T10:13:45Z</time>
      </trkpt>
      <trkpt lat="47.86239" lon="7.17598">
        <ele>583.66</ele>
        <time>2017-02-01T10:14:02Z</time>
      </trkpt>
      <trkpt lat="47.8624" lon="7.17578">
        <ele>588.46</ele>
        <time>2017-02-01T10:14:25Z</time>
      </trkpt>
      <trkpt lat="47.86232" lon="7.17561">
        <ele>591.35</ele>
        <time>2017-02-01T10:14:47Z</time>
      </trkpt>
      <trkpt lat="47.86227" lon="7.17542">
        <ele>593.27</ele>
        <time>2017-02-01T10:15:11Z</time>
      </trkpt>
      <trkpt lat="47.86219" lon="7.17522">
        <ele>598.08</ele>
        <time>2017-02-01T10:15:29Z</time>
      </trkpt>
      <trkpt lat="47.86213" lon="7.175">
        <ele>601.44</ele>
        <time>2017-02-01T10:15:56Z</time>
      </trkpt>
      <trkpt lat="47.86209" lon="7.17481">
        <ele>602.88</ele>
        <time>2017-02-01T10:16:19Z</time>
      </trkpt>
      <trkpt lat="47.86199" lon="7.17472">
        <ele>606.73</ele>
        <time>2017-02-01T10:16:48Z</time>
      </trkpt>
      <trkpt lat="47.86178" lon="7.17467">
        <ele>608.65</ele>
        <time>2017-02-01T10:17:11Z</time>
      </trkpt>
      <trkpt lat="47.86174" lon="7.17451">
        <ele>619.23</ele>
        <time>2017-02-01T10:18:06Z</time>
      </trkpt>
      <trkpt lat="47.86177" lon="7.17442">
        <ele>624.51</ele>
        <time>2017-02-01T10:18:40Z</time>
      </trkpt>
      <trkpt lat="47.86177" lon="7.17429">
        <ele>627.88</ele>
        <time>2017-02-01T10:19:19Z</time>
      </trkpt>
      <trkpt lat="47.86162" lon="7.17428">
        <ele>630.76</ele>
        <time>2017-02-01T10:19:50Z</time>
      </trkpt>
      <trkpt lat="47.86143" lon="7.1743">
        <ele>633.17</ele>
        <time>2017-02-01T10:22:44Z</time>
      </trkpt>
      <trkpt lat="47.86122" lon="7.17435">
        <ele>632.2</ele>
        <time>2017-02-01T10:23:01Z</time>
      </trkpt>
      <trkpt lat="47.86115" lon="7.17437">
        <ele>636.05</ele>
        <time>2017-02-01T10:23:11Z</time>
      </trkpt>
      <trkpt lat="47.86109" lon="7.17443">
        <ele>636.05</ele>
        <time>2017-02-01T10:23:22Z</time>
      </trkpt>
      <trkpt lat="47.86098" lon="7.17455">
        <ele>634.13</ele>
        <time>2017-02-01T10:23:37Z</time>
      </trkpt>
      <trkpt lat="47.86084" lon="7.17473">
        <ele>638.93</ele>
        <time>2017-02-01T10:23:55Z</time>
      </trkpt>
      <trkpt lat="47.86074" lon="7.17487">
        <ele>636.05</ele>
        <time>2017-02-01T10:24:09Z</time>
      </trkpt>
      <trkpt lat="47.86061" lon="7.175">
        <ele>639.89</ele>
        <time>2017-02-01T10:24:26Z</time>
      </trkpt>
      <trkpt lat="47.86051" lon="7.17517">
        <ele>640.86</ele>
        <time>2017-02-01T10:24:45Z</time>
      </trkpt>
      <trkpt lat="47.86036" lon="7.17529">
        <ele>641.34</ele>
        <time>2017-02-01T10:25:00Z</time>
      </trkpt>
      <trkpt lat="47.86029" lon="7.17543">
        <ele>643.26</ele>
        <time>2017-02-01T10:25:15Z</time>
      </trkpt>
      <trkpt lat="47.86012" lon="7.17566">
        <ele>646.62</ele>
        <time>2017-02-01T10:25:36Z</time>
      </trkpt>
      <trkpt lat="47.85997" lon="7.17579">
        <ele>645.66</ele>
        <time>2017-02-01T10:25:54Z</time>
      </trkpt>
      <trkpt lat="47.85986" lon="7.17596">
        <ele>648.07</ele>
        <time>2017-02-01T10:26:08Z</time>
      </trkpt>
      <trkpt lat="47.85975" lon="7.17609">
        <ele>648.55</ele>
        <time>2017-02-01T10:26:21Z</time>
      </trkpt>
      <trkpt lat="47.85964" lon="7.17615">
        <ele>651.43</ele>
        <time>2017-02-01T10:26:32Z</time>
      </trkpt>
      <trkpt lat="47.85949" lon="7.17632">
        <ele>649.51</ele>
        <time>2017-02-01T10:26:49Z</time>
      </trkpt>
      <trkpt lat="47.85943" lon="7.1765">
        <ele>653.83</ele>
        <time>2017-02-01T10:27:07Z</time>
      </trkpt>
      <trkpt lat="47.85931" lon="7.17657">
        <ele>653.83</ele>
        <time>2017-02-01T10:27:21Z</time>
      </trkpt>
      <trkpt lat="47.85907" lon="7.17662">
        <ele>654.8</ele>
        <time>2017-02-01T10:27:41Z</time>
      </trkpt>
      <trkpt lat="47.85891" lon="7.17664">
        <ele>658.16</ele>
        <time>2017-02-01T10:28:10Z</time>
      </trkpt>
      <trkpt lat="47.85866" lon="7.17656">
        <ele>658.64</ele>
        <time>2017-02-01T10:28:31Z</time>
      </trkpt>
      <trkpt lat="47.85848" lon="7.17645">
        <ele>661.04</ele>
        <time>2017-02-01T10:28:51Z</time>
      </trkpt>
      <trkpt lat="47.85841" lon="7.17637">
        <ele>662.01</ele>
        <time>2017-02-01T10:29:50Z</time>
      </trkpt>
      <trkpt lat="47.85839" lon="7.17638">
        <ele>662.49</ele>
        <time>2017-02-01T10:33:30Z</time>
      </trkpt>
      <trkpt lat="47.85837" lon="7.17643">
        <ele>661.04</ele>
        <time>2017-02-01T10:36:32Z</time>
      </trkpt>
      <trkpt lat="47.85841" lon="7.17643">
        <ele>659.6</ele>
        <time>2017-02-01T10:36:50Z</time>
      </trkpt>
      <trkpt lat="47.85847" lon="7.17651">
        <ele>655.28</ele>
        <time>2017-02-01T10:37:07Z</time>
      </trkpt>
      <trkpt lat="47.85869" lon="7.17669">
        <ele>655.28</ele>
        <time>2017-02-01T10:37:25Z</time>
      </trkpt>
      <trkpt lat="47.85883" lon="7.17684">
        <ele>655.28</ele>
        <time>2017-02-01T10:37:39Z</time>
      </trkpt>
      <trkpt lat="47.85904" lon="7.1768">
        <ele>654.31</ele>
        <time>2017-02-01T10:37:58Z</time>
      </trkpt>
      <trkpt lat="47.85904" lon="7.17683">
        <ele>654.31</ele>
        <time>2017-02-01T10:38:12Z</time>
      </trkpt>
      <trkpt lat="47.85893" lon="7.17686">
        <ele>652.39</ele>
        <time>2017-02-01T10:38:26Z</time>
      </trkpt>
      <trkpt lat="47.85878" lon="7.17685">
        <ele>649.99</ele>
        <time>2017-02-01T10:38:44Z</time>
      </trkpt>
      <trkpt lat="47.85859" lon="7.17695">
        <ele>646.14</ele>
        <time>2017-02-01T10:39:09Z</time>
      </trkpt>
      <trkpt lat="47.85839" lon="7.17693">
        <ele>643.74</ele>
        <time>2017-02-01T10:39:24Z</time>
      </trkpt>
      <trkpt lat="47.85824" lon="7.17692">
        <ele>637.01</ele>
        <time>2017-02-01T10:39:34Z</time>
      </trkpt>
      <trkpt lat="47.85813" lon="7.17692">
        <ele>641.34</ele>
        <time>2017-02-01T10:39:44Z</time>
      </trkpt>
      <trkpt lat="47.85801" lon="7.17694">
        <ele>642.78</ele>
        <time>2017-02-01T10:39:53Z</time>
      </trkpt>
      <trkpt lat="47.85787" lon="7.17694">
        <ele>641.34</ele>
        <time>2017-02-01T10:40:07Z</time>
      </trkpt>
      <trkpt lat="47.85771" lon="7.17697">
        <ele>638.93</ele>
        <time>2017-02-01T10:40:17Z</time>
      </trkpt>
      <trkpt lat="47.85761" lon="7.17703">
        <ele>636.53</ele>
        <time>2017-02-01T10:40:25Z</time>
      </trkpt>
      <trkpt lat="47.85747" lon="7.17713">
        <ele>634.61</ele>
        <time>2017-02-01T10:40:45Z</time>
      </trkpt>
      <trkpt lat="47.85733" lon="7.17717">
        <ele>630.28</ele>
        <time>2017-02-01T10:40:57Z</time>
      </trkpt>
      <trkpt lat="47.85719" lon="7.17717">
        <ele>632.2</ele>
        <time>2017-02-01T10:41:08Z</time>
      </trkpt>
      <trkpt lat="47.85707" lon="7.17716">
        <ele>625.47</ele>
        <time>2017-02-01T10:41:20Z</time>
      </trkpt>
      <trkpt lat="47.85691" lon="7.17708">
        <ele>622.59</ele>
        <time>2017-02-01T10:41:37Z</time>
      </trkpt>
      <trkpt lat="47.8568" lon="7.17697">
        <ele>623.07</ele>
        <time>2017-02-01T10:41:52Z</time>
      </trkpt>
      <trkpt lat="47.85669" lon="7.17686">
        <ele>619.71</ele>
        <time>2017-02-01T10:42:04Z</time>
      </trkpt>
      <trkpt lat="47.85657" lon="7.17675">
        <ele>620.67</ele>
        <time>2017-02-01T10:42:17Z</time>
      </trkpt>
      <trkpt lat="47.85643" lon="7.1766">
        <ele>620.19</ele>
        <time>2017-02-01T10:42:31Z</time>
      </trkpt>
      <trkpt lat="47.85634" lon="7.17642">
        <ele>615.38</ele>
        <time>2017-02-01T10:42:43Z</time>
      </trkpt>
      <trkpt lat="47.85627" lon="7.17623">
        <ele>612.5</ele>
        <time>2017-02-01T10:42:57Z</time>
      </trkpt>
      <trkpt lat="47.85617" lon="7.17608">
        <ele>615.38</ele>
        <time>2017-02-01T10:43:12Z</time>
      </trkpt>
      <trkpt lat="47.8561" lon="7.17594">
        <ele>609.13</ele>
        <time>2017-02-01T10:43:27Z</time>
      </trkpt>
      <trkpt lat="47.85601" lon="7.17579">
        <ele>607.21</ele>
        <time>2017-02-01T10:43:37Z</time>
      </trkpt>
      <trkpt lat="47.85594" lon="7.1756">
        <ele>607.21</ele>
        <time>2017-02-01T10:43:59Z</time>
      </trkpt>
      <trkpt lat="47.85588" lon="7.1754">
        <ele>608.17</ele>
        <time>2017-02-01T10:44:13Z</time>
      </trkpt>
      <trkpt lat="47.85582" lon="7.17525">
        <ele>604.33</ele>
        <time>2017-02-01T10:44:24Z</time>
      </trkpt>
      <trkpt lat="47.85574" lon="7.17507">
        <ele>606.25</ele>
        <time>2017-02-01T10:44:37Z</time>
      </trkpt>
      <trkpt lat="47.85567" lon="7.17491">
        <ele>603.36</ele>
        <time>2017-02-01T10:44:48Z</time>
      </trkpt>
      <trkpt lat="47.85558" lon="7.17479">
        <ele>599.04</ele>
        <time>2017-02-01T10:44:59Z</time>
      </trkpt>
      <trkpt lat="47.85553" lon="7.17467">
        <ele>600.96</ele>
        <time>2017-02-01T10:45:09Z</time>
      </trkpt>
      <trkpt lat="47.85538" lon="7.17456">
        <ele>601.92</ele>
        <time>2017-02-01T10:45:25Z</time>
      </trkpt>
      <trkpt lat="47.85514" lon="7.17442">
        <ele>593.27</ele>
        <time>2017-02-01T10:45:43Z</time>
      </trkpt>
      <trkpt lat="47.855" lon="7.1743">
        <ele>590.87</ele>
        <time>2017-02-01T10:46:01Z</time>
      </trkpt>
      <trkpt lat="47.85486" lon="7.1742">
        <ele>594.23</ele>
        <time>2017-02-01T10:46:20Z</time>
      </trkpt>
      <trkpt lat="47.85463" lon="7.17413">
        <ele>587.02</ele>
        <time>2017-02-01T10:46:36Z</time>
      </trkpt>
      <trkpt lat="47.85445" lon="7.17423">
        <ele>591.35</ele>
        <time>2017-02-01T10:46:49Z</time>
      </trkpt>
      <trkpt lat="47.85436" lon="7.17427">
        <ele>590.87</ele>
        <time>2017-02-01T10:47:01Z</time>
      </trkpt>
      <trkpt lat="47.85418" lon="7.1743">
        <ele>586.06</ele>
        <time>2017-02-01T10:47:24Z</time>
      </trkpt>
      <trkpt lat="47.85395" lon="7.1744">
        <ele>585.1</ele>
        <time>2017-02-01T10:47:43Z</time>
      </trkpt>
      <trkpt lat="47.85376" lon="7.17456">
        <ele>579.33</ele>
        <time>2017-02-01T10:47:59Z</time>
      </trkpt>
      <trkpt lat="47.85363" lon="7.17472">
        <ele>577.89</ele>
        <time>2017-02-01T10:48:13Z</time>
      </trkpt>
      <trkpt lat="47.85347" lon="7.17487">
        <ele>575.49</ele>
        <time>2017-02-01T10:48:30Z</time>
      </trkpt>
      <trkpt lat="47.85328" lon="7.17498">
        <ele>572.6</ele>
        <time>2017-02-01T10:48:50Z</time>
      </trkpt>
      <trkpt lat="47.85306" lon="7.17502">
        <ele>574.53</ele>
        <time>2017-02-01T10:49:05Z</time>
      </trkpt>
      <trkpt lat="47.8529" lon="7.17527">
        <ele>571.16</ele>
        <time>2017-02-01T10:49:24Z</time>
      </trkpt>
      <trkpt lat="47.85283" lon="7.17548">
        <ele>565.87</ele>
        <time>2017-02-01T10:49:43Z</time>
      </trkpt>
      <trkpt lat="47.85274" lon="7.17582">
        <ele>564.43</ele>
        <time>2017-02-01T10:49:59Z</time>
      </trkpt>
      <trkpt lat="47.85264" lon="7.17615">
        <ele>561.07</ele>
        <time>2017-02-01T10:50:22Z</time>
      </trkpt>
      <trkpt lat="47.85254" lon="7.17643">
        <ele>555.3</ele>
        <time>2017-02-01T10:50:48Z</time>
      </trkpt>
      <trkpt lat="47.85246" lon="7.17667">
        <ele>557.22</ele>
        <time>2017-02-01T10:51:01Z</time>
      </trkpt>
      <trkpt lat="47.85236" lon="7.17689">
        <ele>551.45</ele>
        <time>2017-02-01T10:51:15Z</time>
      </trkpt>
      <trkpt lat="47.85226" lon="7.17719">
        <ele>551.93</ele>
        <time>2017-02-01T10:51:30Z</time>
      </trkpt>
      <trkpt lat="47.85209" lon="7.17738">
        <ele>548.57</ele>
        <time>2017-02-01T10:51:58Z</time>
      </trkpt>
      <trkpt lat="47.85192" lon="7.17761">
        <ele>548.09</ele>
        <time>2017-02-01T10:52:19Z</time>
      </trkpt>
      <trkpt lat="47.85176" lon="7.1778">
        <ele>542.32</ele>
        <time>2017-02-01T10:52:45Z</time>
      </trkpt>
      <trkpt lat="47.85167" lon="7.17803">
        <ele>538.48</ele>
        <time>2017-02-01T10:53:00Z</time>
      </trkpt>
      <trkpt lat="47.8515" lon="7.17816">
        <ele>536.07</ele>
        <time>2017-02-01T10:53:19Z</time>
      </trkpt>
      <trkpt lat="47.8516" lon="7.17837">
        <ele>530.79</ele>
        <time>2017-02-01T10:53:44Z</time>
      </trkpt>
      <trkpt lat="47.85178" lon="7.17852">
        <ele>532.23</ele>
        <time>2017-02-01T10:54:02Z</time>
      </trkpt>
      <trkpt lat="47.85197" lon="7.17862">
        <ele>528.38</ele>
        <time>2017-02-01T10:54:23Z</time>
      </trkpt>
      <trkpt lat="47.85191" lon="7.17867">
        <ele>521.17</ele>
        <time>2017-02-01T10:54:47Z</time>
      </trkpt>
      <trkpt lat="47.85167" lon="7.17902">
        <ele>515.4</ele>
        <time>2017-02-01T10:55:08Z</time>
      </trkpt>
      <trkpt lat="47.85155" lon="7.1793">
        <ele>512.04</ele>
        <time>2017-02-01T10:55:29Z</time>
      </trkpt>
      <trkpt lat="47.85141" lon="7.17943">
        <ele>514.92</ele>
        <time>2017-02-01T10:55:47Z</time>
      </trkpt>
      <trkpt lat="47.85127" lon="7.17966">
        <ele>507.71</ele>
        <time>2017-02-01T10:56:23Z</time>
      </trkpt>
      <trkpt lat="47.85106" lon="7.17981">
        <ele>507.71</ele>
        <time>2017-02-01T10:56:47Z</time>
      </trkpt>
      <trkpt lat="47.85087" lon="7.17985">
        <ele>505.79</ele>
        <time>2017-02-01T10:57:04Z</time>
      </trkpt>
      <trkpt lat="47.85066" lon="7.17985">
        <ele>500.98</ele>
        <time>2017-02-01T10:57:22Z</time>
      </trkpt>
      <trkpt lat="47.85055" lon="7.17994">
        <ele>497.62</ele>
        <time>2017-02-01T10:57:42Z</time>
      </trkpt>
      <trkpt lat="47.85041" lon="7.17985">
        <ele>498.58</ele>
        <time>2017-02-01T10:58:01Z</time>
      </trkpt>
      <trkpt lat="47.8502" lon="7.17973">
        <ele>494.26</ele>
        <time>2017-02-01T10:58:20Z</time>
      </trkpt>
      <trkpt lat="47.84997" lon="7.17975">
        <ele>486.08</ele>
        <time>2017-02-01T10:58:46Z</time>
      </trkpt>
      <trkpt lat="47.84973" lon="7.17981">
        <ele>485.12</ele>
        <time>2017-02-01T10:59:07Z</time>
      </trkpt>
      <trkpt lat="47.84948" lon="7.17986">
        <ele>478.39</ele>
        <time>2017-02-01T10:59:31Z</time>
      </trkpt>
      <trkpt lat="47.84933" lon="7.17985">
        <ele>479.84</ele>
        <time>2017-02-01T10:59:48Z</time>
      </trkpt>
      <trkpt lat="47.84913" lon="7.17974">
        <ele>474.07</ele>
        <time>2017-02-01T11:00:14Z</time>
      </trkpt>
      <trkpt lat="47.84887" lon="7.17958">
        <ele>472.63</ele>
        <time>2017-02-01T11:00:39Z</time>
      </trkpt>
      <trkpt lat="47.84864" lon="7.17943">
        <ele>470.22</ele>
        <time>2017-02-01T11:01:05Z</time>
      </trkpt>
      <trkpt lat="47.84844" lon="7.17932">
        <ele>467.34</ele>
        <time>2017-02-01T11:01:23Z</time>
      </trkpt>
      <trkpt lat="47.84826" lon="7.17927">
        <ele>464.45</ele>
        <time>2017-02-01T11:01:51Z</time>
      </trkpt>
      <trkpt lat="47.84803" lon="7.17921">
        <ele>459.17</ele>
        <time>2017-02-01T11:02:13Z</time>
      </trkpt>
      <trkpt lat="47.8478" lon="7.17917">
        <ele>457.24</ele>
        <time>2017-02-01T11:02:31Z</time>
      </trkpt>
      <trkpt lat="47.84752" lon="7.17912">
        <ele>453.4</ele>
        <time>2017-02-01T11:02:59Z</time>
      </trkpt>
      <trkpt lat="47.84736" lon="7.17917">
        <ele>451.48</ele>
        <time>2017-02-01T11:03:11Z</time>
      </trkpt>
      <trkpt lat="47.84719" lon="7.17912">
        <ele>442.82</ele>
        <time>2017-02-01T11:03:30Z</time>
      </trkpt>
      <trkpt lat="47.84704" lon="7.17914">
        <ele>440.9</ele>
        <time>2017-02-01T11:03:50Z</time>
      </trkpt>
      <trkpt lat="47.84686" lon="7.17915">
        <ele>437.54</ele>
        <time>2017-02-01T11:04:06Z</time>
      </trkpt>
      <trkpt lat="47.8467" lon="7.17916">
        <ele>434.65</ele>
        <time>2017-02-01T11:04:20Z</time>
      </trkpt>
      <trkpt lat="47.84656" lon="7.17907">
        <ele>434.65</ele>
        <time>2017-02-01T11:04:43Z</time>
      </trkpt>
      <trkpt lat="47.84635" lon="7.17899">
        <ele>431.77</ele>
        <time>2017-02-01T11:05:01Z</time>
      </trkpt>
      <trkpt lat="47.84613" lon="7.17887">
        <ele>428.89</ele>
        <time>2017-02-01T11:05:24Z</time>
      </trkpt>
      <trkpt lat="47.846" lon="7.1789">
        <ele>429.37</ele>
        <time>2017-02-01T11:06:16Z</time>
      </trkpt>
      <trkpt lat="47.84605" lon="7.17903">
        <ele>428.4</ele>
        <time>2017-02-01T11:06:31Z</time>
      </trkpt>
      <trkpt lat="47.84608" lon="7.17909">
        <ele>428.4</ele>
        <time>2017-02-01T11:07:09Z</time>
      </trkpt>
      <trkpt lat="47.84604" lon="7.17896">
        <ele>429.37</ele>
        <time>2017-02-01T11:07:22Z</time>
      </trkpt>
      <trkpt lat="47.84591" lon="7.17878">
        <ele>428.89</ele>
        <time>2017-02-01T11:07:57Z</time>
      </trkpt>
      <trkpt lat="47.84575" lon="7.17868">
        <ele>429.37</ele>
        <time>2017-02-01T11:08:13Z</time>
      </trkpt>
      <trkpt lat="47.84564" lon="7.17854">
        <ele>428.89</ele>
        <time>2017-02-01T11:09:00Z</time>
      </trkpt>
      <trkpt lat="47.84552" lon="7.17845">
        <ele>429.37</ele>
        <time>2017-02-01T11:09:15Z</time>
      </trkpt>
      <trkpt lat="47.84527" lon="7.17838">
        <ele>424.08</ele>
        <time>2017-02-01T11:09:38Z</time>
      </trkpt>
      <trkpt lat="47.84515" lon="7.17848">
        <ele>422.64</ele>
        <time>2017-02-01T11:09:52Z</time>
      </trkpt>
      <trkpt lat="47.84497" lon="7.17868">
        <ele>420.71</ele>
        <time>2017-02-01T11:10:10Z</time>
      </trkpt>
      <trkpt lat="47.84488" lon="7.1788">
        <ele>418.79</ele>
        <time>2017-02-01T11:10:22Z</time>
      </trkpt>
      <trkpt lat="47.84481" lon="7.17894">
        <ele>418.79</ele>
        <time>2017-02-01T11:10:35Z</time>
      </trkpt>
      <trkpt lat="47.84471" lon="7.17906">
        <ele>417.35</ele>
        <time>2017-02-01T11:10:49Z</time>
      </trkpt>
      <trkpt lat="47.84462" lon="7.17926">
        <ele>414.47</ele>
        <time>2017-02-01T11:11:03Z</time>
      </trkpt>
      <trkpt lat="47.8445" lon="7.17936">
        <ele>413.98</ele>
        <time>2017-02-01T11:11:16Z</time>
      </trkpt>
      <trkpt lat="47.84437" lon="7.17944">
        <ele>413.98</ele>
        <time>2017-02-01T11:11:29Z</time>
      </trkpt>
      <trkpt lat="47.84426" lon="7.17953">
        <ele>410.62</ele>
        <time>2017-02-01T11:11:41Z</time>
      </trkpt>
      <trkpt lat="47.84414" lon="7.17951">
        <ele>413.02</ele>
        <time>2017-02-01T11:11:55Z</time>
      </trkpt>
      <trkpt lat="47.84403" lon="7.17952">
        <ele>409.66</ele>
        <time>2017-02-01T11:12:05Z</time>
      </trkpt>
      <trkpt lat="47.84391" lon="7.17953">
        <ele>407.74</ele>
        <time>2017-02-01T11:12:17Z</time>
      </trkpt>
      <trkpt lat="47.84368" lon="7.17949">
        <ele>410.14</ele>
        <time>2017-02-01T11:12:30Z</time>
      </trkpt>
      <trkpt lat="47.84352" lon="7.17949">
        <ele>408.22</ele>
        <time>2017-02-01T11:12:47Z</time>
      </trkpt>
      <trkpt lat="47.84334" lon="7.17951">
        <ele>406.77</ele>
        <time>2017-02-01T11:12:58Z</time>
      </trkpt>
      <trkpt lat="47.84319" lon="7.17949">
        <ele>406.77</ele>
        <time>2017-02-01T11:13:11Z</time>
      </trkpt>
      <trkpt lat="47.84303" lon="7.17944">
        <ele>405.33</ele>
        <time>2017-02-01T11:13:23Z</time>
      </trkpt>
      <trkpt lat="47.8429" lon="7.17931">
        <ele>399.57</ele>
        <time>2017-02-01T11:13:33Z</time>
      </trkpt>
      <trkpt lat="47.84277" lon="7.17929">
        <ele>398.6</ele>
        <time>2017-02-01T11:13:44Z</time>
      </trkpt>
      <trkpt lat="47.84266" lon="7.17931">
        <ele>404.37</ele>
        <time>2017-02-01T11:13:52Z</time>
      </trkpt>
      <trkpt lat="47.84253" lon="7.17935">
        <ele>396.68</ele>
        <time>2017-02-01T11:14:02Z</time>
      </trkpt>
      <trkpt lat="47.84242" lon="7.1794">
        <ele>401.49</ele>
        <time>2017-02-01T11:14:10Z</time>
      </trkpt>
      <trkpt lat="47.84232" lon="7.1794">
        <ele>394.76</ele>
        <time>2017-02-01T11:14:20Z</time>
      </trkpt>
      <trkpt lat="47.8422" lon="7.17941">
        <ele>392.84</ele>
        <time>2017-02-01T11:14:29Z</time>
      </trkpt>
      <trkpt lat="47.84209" lon="7.17939">
        <ele>397.64</ele>
        <time>2017-02-01T11:14:37Z</time>
      </trkpt>
      <trkpt lat="47.84197" lon="7.17935">
        <ele>394.28</ele>
        <time>2017-02-01T11:14:46Z</time>
      </trkpt>
      <trkpt lat="47.84184" lon="7.17933">
        <ele>393.8</ele>
        <time>2017-02-01T11:14:54Z</time>
      </trkpt>
      <trkpt lat="47.84174" lon="7.17934">
        <ele>397.16</ele>
        <time>2017-02-01T11:15:01Z</time>
      </trkpt>
      <trkpt lat="47.84164" lon="7.17927">
        <ele>388.99</ele>
        <time>2017-02-01T11:15:11Z</time>
      </trkpt>
      <trkpt lat="47.84152" lon="7.17927">
        <ele>391.87</ele>
        <time>2017-02-01T11:15:22Z</time>
      </trkpt>
      <trkpt lat="47.8414" lon="7.17933">
        <ele>387.07</ele>
        <time>2017-02-01T11:15:30Z</time>
      </trkpt>
      <trkpt lat="47.84132" lon="7.17935">
        <ele>388.99</ele>
        <time>2017-02-01T11:15:38Z</time>
      </trkpt>
      <trkpt lat="47.84123" lon="7.17939">
        <ele>389.47</ele>
        <time>2017-02-01T11:15:46Z</time>
      </trkpt>
      <trkpt lat="47.84112" lon="7.17943">
        <ele>388.99</ele>
        <time>2017-02-01T11:15:53Z</time>
      </trkpt>
      <trkpt lat="47.84102" lon="7.17943">
        <ele>388.03</ele>
        <time>2017-02-01T11:16:02Z</time>
      </trkpt>
      <trkpt lat="47.84092" lon="7.17945">
        <ele>386.11</ele>
        <time>2017-02-01T11:16:09Z</time>
      </trkpt>
      <trkpt lat="47.84082" lon="7.17943">
        <ele>386.11</ele>
        <time>2017-02-01T11:16:17Z</time>
      </trkpt>
      <trkpt lat="47.84071" lon="7.17941">
        <ele>382.74</ele>
        <time>2017-02-01T11:16:28Z</time>
      </trkpt>
      <trkpt lat="47.8406" lon="7.17941">
        <ele>384.66</ele>
        <time>2017-02-01T11:16:38Z</time>
      </trkpt>
      <trkpt lat="47.8405" lon="7.1794">
        <ele>381.78</ele>
        <time>2017-02-01T11:16:50Z</time>
      </trkpt>
      <trkpt lat="47.84038" lon="7.17936">
        <ele>382.26</ele>
        <time>2017-02-01T11:17:00Z</time>
      </trkpt>
      <trkpt lat="47.84028" lon="7.17938">
        <ele>378.42</ele>
        <time>2017-02-01T11:17:09Z</time>
      </trkpt>
      <trkpt lat="47.84019" lon="7.17944">
        <ele>379.38</ele>
        <time>2017-02-01T11:17:17Z</time>
      </trkpt>
      <trkpt lat="47.84007" lon="7.17942">
        <ele>380.82</ele>
        <time>2017-02-01T11:17:26Z</time>
      </trkpt>
      <trkpt lat="47.83996" lon="7.17947">
        <ele>378.9</ele>
        <time>2017-02-01T11:17:35Z</time>
      </trkpt>
      <trkpt lat="47.83987" lon="7.17952">
        <ele>377.94</ele>
        <time>2017-02-01T11:17:43Z</time>
      </trkpt>
      <trkpt lat="47.83976" lon="7.17959">
        <ele>375.05</ele>
        <time>2017-02-01T11:17:54Z</time>
      </trkpt>
      <trkpt lat="47.83966" lon="7.17966">
        <ele>375.53</ele>
        <time>2017-02-01T11:18:01Z</time>
      </trkpt>
      <trkpt lat="47.83957" lon="7.17975">
        <ele>374.57</ele>
        <time>2017-02-01T11:18:11Z</time>
      </trkpt>
      <trkpt lat="47.83947" lon="7.17982">
        <ele>374.09</ele>
        <time>2017-02-01T11:18:21Z</time>
      </trkpt>
      <trkpt lat="47.83937" lon="7.17989">
        <ele>370.24</ele>
        <time>2017-02-01T11:18:29Z</time>
      </trkpt>
      <trkpt lat="47.83928" lon="7.17995">
        <ele>373.13</ele>
        <time>2017-02-01T11:18:37Z</time>
      </trkpt>
      <trkpt lat="47.8392" lon="7.18002">
        <ele>369.76</ele>
        <time>2017-02-01T11:18:44Z</time>
      </trkpt>
      <trkpt lat="47.83912" lon="7.18009">
        <ele>368.8</ele>
        <time>2017-02-01T11:18:53Z</time>
      </trkpt>
      <trkpt lat="47.83902" lon="7.18012">
        <ele>366.88</ele>
        <time>2017-02-01T11:19:03Z</time>
      </trkpt>
      <trkpt lat="47.83892" lon="7.18013">
        <ele>369.28</ele>
        <time>2017-02-01T11:19:12Z</time>
      </trkpt>
      <trkpt lat="47.8388" lon="7.18016">
        <ele>368.32</ele>
        <time>2017-02-01T11:19:23Z</time>
      </trkpt>
      <trkpt lat="47.83866" lon="7.18013">
        <ele>364.48</ele>
        <time>2017-02-01T11:19:35Z</time>
      </trkpt>
      <trkpt lat="47.83853" lon="7.18012">
        <ele>364</ele>
        <time>2017-02-01T11:19:44Z</time>
      </trkpt>
      <trkpt lat="47.83843" lon="7.18011">
        <ele>367.36</ele>
        <time>2017-02-01T11:19:51Z</time>
      </trkpt>
      <trkpt lat="47.83833" lon="7.18011">
        <ele>363.04</ele>
        <time>2017-02-01T11:19:58Z</time>
      </trkpt>
      <trkpt lat="47.83825" lon="7.18002">
        <ele>366.4</ele>
        <time>2017-02-01T11:20:05Z</time>
      </trkpt>
      <trkpt lat="47.83817" lon="7.18">
        <ele>365.44</ele>
        <time>2017-02-01T11:20:15Z</time>
      </trkpt>
      <trkpt lat="47.83807" lon="7.17997">
        <ele>362.07</ele>
        <time>2017-02-01T11:20:24Z</time>
      </trkpt>
      <trkpt lat="47.83796" lon="7.17992">
        <ele>364</ele>
        <time>2017-02-01T11:20:35Z</time>
      </trkpt>
      <trkpt lat="47.83783" lon="7.17986">
        <ele>361.59</ele>
        <time>2017-02-01T11:20:43Z</time>
      </trkpt>
      <trkpt lat="47.8377" lon="7.1798">
        <ele>364.48</ele>
        <time>2017-02-01T11:20:53Z</time>
      </trkpt>
      <trkpt lat="47.83759" lon="7.17973">
        <ele>363.04</ele>
        <time>2017-02-01T11:21:02Z</time>
      </trkpt>
      <trkpt lat="47.83752" lon="7.17965">
        <ele>359.67</ele>
        <time>2017-02-01T11:21:11Z</time>
      </trkpt>
      <trkpt lat="47.83744" lon="7.17955">
        <ele>358.23</ele>
        <time>2017-02-01T11:21:20Z</time>
      </trkpt>
      <trkpt lat="47.83735" lon="7.17942">
        <ele>361.59</ele>
        <time>2017-02-01T11:21:29Z</time>
      </trkpt>
      <trkpt lat="47.83725" lon="7.17929">
        <ele>359.19</ele>
        <time>2017-02-01T11:21:38Z</time>
      </trkpt>
      <trkpt lat="47.83719" lon="7.17918">
        <ele>357.27</ele>
        <time>2017-02-01T11:21:45Z</time>
      </trkpt>
      <trkpt lat="47.83712" lon="7.17906">
        <ele>360.15</ele>
        <time>2017-02-01T11:21:54Z</time>
      </trkpt>
      <trkpt lat="47.83706" lon="7.17894">
        <ele>357.75</ele>
        <time>2017-02-01T11:22:04Z</time>
      </trkpt>
      <trkpt lat="47.83698" lon="7.17882">
        <ele>356.79</ele>
        <time>2017-02-01T11:22:13Z</time>
      </trkpt>
      <trkpt lat="47.83688" lon="7.17877">
        <ele>360.15</ele>
        <time>2017-02-01T11:22:23Z</time>
      </trkpt>
      <trkpt lat="47.83678" lon="7.1787">
        <ele>357.75</ele>
        <time>2017-02-01T11:22:31Z</time>
      </trkpt>
      <trkpt lat="47.8367" lon="7.17858">
        <ele>354.86</ele>
        <time>2017-02-01T11:22:40Z</time>
      </trkpt>
      <trkpt lat="47.8366" lon="7.17857">
        <ele>356.79</ele>
        <time>2017-02-01T11:22:49Z</time>
      </trkpt>
      <trkpt lat="47.8365" lon="7.17867">
        <ele>354.38</ele>
        <time>2017-02-01T11:22:57Z</time>
      </trkpt>
      <trkpt lat="47.83645" lon="7.1788">
        <ele>357.27</ele>
        <time>2017-02-01T11:23:06Z</time>
      </trkpt>
      <trkpt lat="47.83638" lon="7.17893">
        <ele>355.34</ele>
        <time>2017-02-01T11:23:17Z</time>
      </trkpt>
      <trkpt lat="47.83632" lon="7.17908">
        <ele>353.42</ele>
        <time>2017-02-01T11:23:28Z</time>
      </trkpt>
      <trkpt lat="47.83621" lon="7.17921">
        <ele>352.46</ele>
        <time>2017-02-01T11:23:37Z</time>
      </trkpt>
      <trkpt lat="47.83612" lon="7.17934">
        <ele>351.02</ele>
        <time>2017-02-01T11:23:52Z</time>
      </trkpt>
      <trkpt lat="47.83605" lon="7.17945">
        <ele>351.5</ele>
        <time>2017-02-01T11:24:00Z</time>
      </trkpt>
      <trkpt lat="47.83605" lon="7.17958">
        <ele>351.02</ele>
        <time>2017-02-01T11:24:08Z</time>
      </trkpt>
      <trkpt lat="47.83606" lon="7.17974">
        <ele>352.46</ele>
        <time>2017-02-01T11:24:18Z</time>
      </trkpt>
      <trkpt lat="47.83608" lon="7.17987">
        <ele>351.98</ele>
        <time>2017-02-01T11:24:28Z</time>
      </trkpt>
      <trkpt lat="47.83611" lon="7.18">
        <ele>352.46</ele>
        <time>2017-02-01T11:24:40Z</time>
      </trkpt>
      <trkpt lat="47.83613" lon="7.18003">
        <ele>351.98</ele>
        <time>2017-02-01T11:24:47Z</time>
      </trkpt>
      <trkpt lat="47.83613" lon="7.18003">
        <ele>358.71</ele>
        <time>2017-02-01T13:14:56Z</time>
      </trkpt>
      <trkpt lat="47.83823" lon="7.18086">
        <ele>366.88</ele>
        <time>2017-02-01T13:15:05Z</time>
      </trkpt>
      <trkpt lat="47.83831" lon="7.18082">
        <ele>367.36</ele>
        <time>2017-02-01T13:15:19Z</time>
      </trkpt>
      <trkpt lat="47.83847" lon="7.18068">
        <ele>367.36</ele>
        <time>2017-02-01T13:15:44Z</time>
      </trkpt>
      <trkpt lat="47.83859" lon="7.18059">
        <ele>366.4</ele>
        <time>2017-02-01T13:15:54Z</time>
      </trkpt>
      <trkpt lat="47.8387" lon="7.18043">
        <ele>366.88</ele>
        <time>2017-02-01T13:16:09Z</time>
      </trkpt>
      <trkpt lat="47.83887" lon="7.18049">
        <ele>365.92</ele>
        <time>2017-02-01T13:16:27Z</time>
      </trkpt>
      <trkpt lat="47.83897" lon="7.18058">
        <ele>366.88</ele>
        <time>2017-02-01T13:16:34Z</time>
      </trkpt>
      <trkpt lat="47.83907" lon="7.18066">
        <ele>365.44</ele>
        <time>2017-02-01T13:16:41Z</time>
      </trkpt>
      <trkpt lat="47.83915" lon="7.18074">
        <ele>363.52</ele>
        <time>2017-02-01T13:16:48Z</time>
      </trkpt>
      <trkpt lat="47.83923" lon="7.18083">
        <ele>364.96</ele>
        <time>2017-02-01T13:16:56Z</time>
      </trkpt>
      <trkpt lat="47.83931" lon="7.18094">
        <ele>365.44</ele>
        <time>2017-02-01T13:17:05Z</time>
      </trkpt>
      <trkpt lat="47.83938" lon="7.18106">
        <ele>366.4</ele>
        <time>2017-02-01T13:17:13Z</time>
      </trkpt>
      <trkpt lat="47.83946" lon="7.18116">
        <ele>364.48</ele>
        <time>2017-02-01T13:17:21Z</time>
      </trkpt>
      <trkpt lat="47.83955" lon="7.18125">
        <ele>364.48</ele>
        <time>2017-02-01T13:17:28Z</time>
      </trkpt>
      <trkpt lat="47.83964" lon="7.18133">
        <ele>364.48</ele>
        <time>2017-02-01T13:17:36Z</time>
      </trkpt>
      <trkpt lat="47.83972" lon="7.18144">
        <ele>367.84</ele>
        <time>2017-02-01T13:17:46Z</time>
      </trkpt>
      <trkpt lat="47.83979" lon="7.18155">
        <ele>364.48</ele>
        <time>2017-02-01T13:17:54Z</time>
      </trkpt>
      <trkpt lat="47.83986" lon="7.18167">
        <ele>364.96</ele>
        <time>2017-02-01T13:18:02Z</time>
      </trkpt>
      <trkpt lat="47.83995" lon="7.18177">
        <ele>368.8</ele>
        <time>2017-02-01T13:18:10Z</time>
      </trkpt>
      <trkpt lat="47.84001" lon="7.18187">
        <ele>368.8</ele>
        <time>2017-02-01T13:18:18Z</time>
      </trkpt>
      <trkpt lat="47.84009" lon="7.18197">
        <ele>367.36</ele>
        <time>2017-02-01T13:18:26Z</time>
      </trkpt>
      <trkpt lat="47.84017" lon="7.18203">
        <ele>370.73</ele>
        <time>2017-02-01T13:18:32Z</time>
      </trkpt>
      <trkpt lat="47.84023" lon="7.18214">
        <ele>366.88</ele>
        <time>2017-02-01T13:18:40Z</time>
      </trkpt>
      <trkpt lat="47.8403" lon="7.18224">
        <ele>366.4</ele>
        <time>2017-02-01T13:18:48Z</time>
      </trkpt>
      <trkpt lat="47.84038" lon="7.18237">
        <ele>370.73</ele>
        <time>2017-02-01T13:18:57Z</time>
      </trkpt>
      <trkpt lat="47.84046" lon="7.18245">
        <ele>367.84</ele>
        <time>2017-02-01T13:19:05Z</time>
      </trkpt>
      <trkpt lat="47.84055" lon="7.18254">
        <ele>367.36</ele>
        <time>2017-02-01T13:19:14Z</time>
      </trkpt>
      <trkpt lat="47.84064" lon="7.18262">
        <ele>367.84</ele>
        <time>2017-02-01T13:19:22Z</time>
      </trkpt>
      <trkpt lat="47.84073" lon="7.18268">
        <ele>369.76</ele>
        <time>2017-02-01T13:19:30Z</time>
      </trkpt>
      <trkpt lat="47.84081" lon="7.18275">
        <ele>372.17</ele>
        <time>2017-02-01T13:19:38Z</time>
      </trkpt>
      <trkpt lat="47.84091" lon="7.18282">
        <ele>369.76</ele>
        <time>2017-02-01T13:19:46Z</time>
      </trkpt>
      <trkpt lat="47.84101" lon="7.18289">
        <ele>367.84</ele>
        <time>2017-02-01T13:19:56Z</time>
      </trkpt>
      <trkpt lat="47.8411" lon="7.18293">
        <ele>371.21</ele>
        <time>2017-02-01T13:20:04Z</time>
      </trkpt>
      <trkpt lat="47.84119" lon="7.18301">
        <ele>369.76</ele>
        <time>2017-02-01T13:20:11Z</time>
      </trkpt>
      <trkpt lat="47.84129" lon="7.18304">
        <ele>369.28</ele>
        <time>2017-02-01T13:20:19Z</time>
      </trkpt>
      <trkpt lat="47.84139" lon="7.18309">
        <ele>369.76</ele>
        <time>2017-02-01T13:20:27Z</time>
      </trkpt>
      <trkpt lat="47.84147" lon="7.18314">
        <ele>373.13</ele>
        <time>2017-02-01T13:20:34Z</time>
      </trkpt>
      <trkpt lat="47.84156" lon="7.1832">
        <ele>372.17</ele>
        <time>2017-02-01T13:20:41Z</time>
      </trkpt>
      <trkpt lat="47.84163" lon="7.18324">
        <ele>373.61</ele>
        <time>2017-02-01T13:20:48Z</time>
      </trkpt>
      <trkpt lat="47.84173" lon="7.18329">
        <ele>372.17</ele>
        <time>2017-02-01T13:20:56Z</time>
      </trkpt>
      <trkpt lat="47.84182" lon="7.18333">
        <ele>375.05</ele>
        <time>2017-02-01T13:21:04Z</time>
      </trkpt>
      <trkpt lat="47.84192" lon="7.18339">
        <ele>374.09</ele>
        <time>2017-02-01T13:21:12Z</time>
      </trkpt>
      <trkpt lat="47.84201" lon="7.18344">
        <ele>372.65</ele>
        <time>2017-02-01T13:21:20Z</time>
      </trkpt>
      <trkpt lat="47.8421" lon="7.18348">
        <ele>375.53</ele>
        <time>2017-02-01T13:21:28Z</time>
      </trkpt>
      <trkpt lat="47.8422" lon="7.18351">
        <ele>376.97</ele>
        <time>2017-02-01T13:21:36Z</time>
      </trkpt>
      <trkpt lat="47.84229" lon="7.18356">
        <ele>375.05</ele>
        <time>2017-02-01T13:21:44Z</time>
      </trkpt>
      <trkpt lat="47.84238" lon="7.18357">
        <ele>376.01</ele>
        <time>2017-02-01T13:21:51Z</time>
      </trkpt>
      <trkpt lat="47.84247" lon="7.18362">
        <ele>376.97</ele>
        <time>2017-02-01T13:21:59Z</time>
      </trkpt>
      <trkpt lat="47.84256" lon="7.18367">
        <ele>374.57</ele>
        <time>2017-02-01T13:22:07Z</time>
      </trkpt>
      <trkpt lat="47.84264" lon="7.18374">
        <ele>374.57</ele>
        <time>2017-02-01T13:22:14Z</time>
      </trkpt>
      <trkpt lat="47.84273" lon="7.1838">
        <ele>374.09</ele>
        <time>2017-02-01T13:22:22Z</time>
      </trkpt>
      <trkpt lat="47.84282" lon="7.18388">
        <ele>375.05</ele>
        <time>2017-02-01T13:22:30Z</time>
      </trkpt>
      <trkpt lat="47.8429" lon="7.18396">
        <ele>375.53</ele>
        <time>2017-02-01T13:22:38Z</time>
      </trkpt>
      <trkpt lat="47.84298" lon="7.18403">
        <ele>375.53</ele>
        <time>2017-02-01T13:22:45Z</time>
      </trkpt>
      <trkpt lat="47.84306" lon="7.18411">
        <ele>374.09</ele>
        <time>2017-02-01T13:22:53Z</time>
      </trkpt>
      <trkpt lat="47.84313" lon="7.18419">
        <ele>375.05</ele>
        <time>2017-02-01T13:23:00Z</time>
      </trkpt>
      <trkpt lat="47.84322" lon="7.18425">
        <ele>376.49</ele>
        <time>2017-02-01T13:23:09Z</time>
      </trkpt>
      <trkpt lat="47.84332" lon="7.1843">
        <ele>378.42</ele>
        <time>2017-02-01T13:23:17Z</time>
      </trkpt>
      <trkpt lat="47.84342" lon="7.18434">
        <ele>377.45</ele>
        <time>2017-02-01T13:23:25Z</time>
      </trkpt>
      <trkpt lat="47.84351" lon="7.18435">
        <ele>375.53</ele>
        <time>2017-02-01T13:23:33Z</time>
      </trkpt>
      <trkpt lat="47.84361" lon="7.18435">
        <ele>376.97</ele>
        <time>2017-02-01T13:23:41Z</time>
      </trkpt>
      <trkpt lat="47.84371" lon="7.18438">
        <ele>375.05</ele>
        <time>2017-02-01T13:23:50Z</time>
      </trkpt>
      <trkpt lat="47.8438" lon="7.18439">
        <ele>374.57</ele>
        <time>2017-02-01T13:23:58Z</time>
      </trkpt>
      <trkpt lat="47.8439" lon="7.18443">
        <ele>375.05</ele>
        <time>2017-02-01T13:24:06Z</time>
      </trkpt>
      <trkpt lat="47.844" lon="7.18446">
        <ele>373.61</ele>
        <time>2017-02-01T13:24:14Z</time>
      </trkpt>
      <trkpt lat="47.84409" lon="7.18449">
        <ele>375.53</ele>
        <time>2017-02-01T13:24:21Z</time>
      </trkpt>
      <trkpt lat="47.84419" lon="7.18449">
        <ele>376.97</ele>
        <time>2017-02-01T13:24:28Z</time>
      </trkpt>
      <trkpt lat="47.84429" lon="7.18452">
        <ele>375.05</ele>
        <time>2017-02-01T13:24:37Z</time>
      </trkpt>
      <trkpt lat="47.84439" lon="7.18453">
        <ele>376.49</ele>
        <time>2017-02-01T13:24:45Z</time>
      </trkpt>
      <trkpt lat="47.8445" lon="7.18458">
        <ele>374.09</ele>
        <time>2017-02-01T13:24:54Z</time>
      </trkpt>
      <trkpt lat="47.84461" lon="7.18461">
        <ele>373.61</ele>
        <time>2017-02-01T13:25:02Z</time>
      </trkpt>
      <trkpt lat="47.84472" lon="7.18464">
        <ele>375.53</ele>
        <time>2017-02-01T13:25:10Z</time>
      </trkpt>
      <trkpt lat="47.84481" lon="7.18469">
        <ele>373.61</ele>
        <time>2017-02-01T13:25:17Z</time>
      </trkpt>
      <trkpt lat="47.84491" lon="7.18472">
        <ele>373.13</ele>
        <time>2017-02-01T13:25:25Z</time>
      </trkpt>
      <trkpt lat="47.845" lon="7.18478">
        <ele>373.13</ele>
        <time>2017-02-01T13:25:34Z</time>
      </trkpt>
      <trkpt lat="47.8451" lon="7.18484">
        <ele>376.97</ele>
        <time>2017-02-01T13:25:42Z</time>
      </trkpt>
      <trkpt lat="47.84522" lon="7.18486">
        <ele>376.97</ele>
        <time>2017-02-01T13:25:50Z</time>
      </trkpt>
      <trkpt lat="47.84531" lon="7.18494">
        <ele>372.65</ele>
        <time>2017-02-01T13:25:58Z</time>
      </trkpt>
      <trkpt lat="47.8454" lon="7.185">
        <ele>374.09</ele>
        <time>2017-02-01T13:26:06Z</time>
      </trkpt>
      <trkpt lat="47.84549" lon="7.18504">
        <ele>375.53</ele>
        <time>2017-02-01T13:26:14Z</time>
      </trkpt>
      <trkpt lat="47.84559" lon="7.18511">
        <ele>372.17</ele>
        <time>2017-02-01T13:26:24Z</time>
      </trkpt>
      <trkpt lat="47.84568" lon="7.18519">
        <ele>371.69</ele>
        <time>2017-02-01T13:26:33Z</time>
      </trkpt>
      <trkpt lat="47.8458" lon="7.18525">
        <ele>372.17</ele>
        <time>2017-02-01T13:26:41Z</time>
      </trkpt>
      <trkpt lat="47.84589" lon="7.18529">
        <ele>373.13</ele>
        <time>2017-02-01T13:26:49Z</time>
      </trkpt>
      <trkpt lat="47.84599" lon="7.18535">
        <ele>371.69</ele>
        <time>2017-02-01T13:26:56Z</time>
      </trkpt>
      <trkpt lat="47.84612" lon="7.18538">
        <ele>371.21</ele>
        <time>2017-02-01T13:27:09Z</time>
      </trkpt>
      <trkpt lat="47.84628" lon="7.18551">
        <ele>372.17</ele>
        <time>2017-02-01T13:27:22Z</time>
      </trkpt>
      <trkpt lat="47.84647" lon="7.18559">
        <ele>374.09</ele>
        <time>2017-02-01T13:27:34Z</time>
      </trkpt>
      <trkpt lat="47.84658" lon="7.18559">
        <ele>372.65</ele>
        <time>2017-02-01T13:27:44Z</time>
      </trkpt>
      <trkpt lat="47.84669" lon="7.18555">
        <ele>374.57</ele>
        <time>2017-02-01T13:27:56Z</time>
      </trkpt>
      <trkpt lat="47.84679" lon="7.18559">
        <ele>371.21</ele>
        <time>2017-02-01T13:28:08Z</time>
      </trkpt>
      <trkpt lat="47.8469" lon="7.18563">
        <ele>373.13</ele>
        <time>2017-02-01T13:28:17Z</time>
      </trkpt>
      <trkpt lat="47.84704" lon="7.18567">
        <ele>375.53</ele>
        <time>2017-02-01T13:28:27Z</time>
      </trkpt>
      <trkpt lat="47.8472" lon="7.18573">
        <ele>374.57</ele>
        <time>2017-02-01T13:28:35Z</time>
      </trkpt>
      <trkpt lat="47.84733" lon="7.18569">
        <ele>375.05</ele>
        <time>2017-02-01T13:28:44Z</time>
      </trkpt>
      <trkpt lat="47.84747" lon="7.18573">
        <ele>376.01</ele>
        <time>2017-02-01T13:28:57Z</time>
      </trkpt>
      <trkpt lat="47.8476" lon="7.18575">
        <ele>379.38</ele>
        <time>2017-02-01T13:29:18Z</time>
      </trkpt>
      <trkpt lat="47.84775" lon="7.18579">
        <ele>379.38</ele>
        <time>2017-02-01T13:29:32Z</time>
      </trkpt>
      <trkpt lat="47.84791" lon="7.1858">
        <ele>378.42</ele>
        <time>2017-02-01T13:29:47Z</time>
      </trkpt>
      <trkpt lat="47.84807" lon="7.18579">
        <ele>379.86</ele>
        <time>2017-02-01T13:30:00Z</time>
      </trkpt>
      <trkpt lat="47.8482" lon="7.18581">
        <ele>381.3</ele>
        <time>2017-02-01T13:30:12Z</time>
      </trkpt>
      <trkpt lat="47.84836" lon="7.18584">
        <ele>383.22</ele>
        <time>2017-02-01T13:30:28Z</time>
      </trkpt>
      <trkpt lat="47.84851" lon="7.18585">
        <ele>386.11</ele>
        <time>2017-02-01T13:30:43Z</time>
      </trkpt>
      <trkpt lat="47.84868" lon="7.18584">
        <ele>388.99</ele>
        <time>2017-02-01T13:30:56Z</time>
      </trkpt>
      <trkpt lat="47.84881" lon="7.18589">
        <ele>389.95</ele>
        <time>2017-02-01T13:31:08Z</time>
      </trkpt>
      <trkpt lat="47.84894" lon="7.186">
        <ele>388.51</ele>
        <time>2017-02-01T13:31:23Z</time>
      </trkpt>
      <trkpt lat="47.84912" lon="7.18602">
        <ele>390.91</ele>
        <time>2017-02-01T13:31:35Z</time>
      </trkpt>
      <trkpt lat="47.84921" lon="7.18607">
        <ele>393.32</ele>
        <time>2017-02-01T13:31:47Z</time>
      </trkpt>
      <trkpt lat="47.84938" lon="7.18616">
        <ele>391.87</ele>
        <time>2017-02-01T13:32:01Z</time>
      </trkpt>
      <trkpt lat="47.84956" lon="7.18625">
        <ele>394.28</ele>
        <time>2017-02-01T13:32:13Z</time>
      </trkpt>
      <trkpt lat="47.84974" lon="7.18628">
        <ele>394.28</ele>
        <time>2017-02-01T13:32:25Z</time>
      </trkpt>
      <trkpt lat="47.84987" lon="7.18625">
        <ele>395.72</ele>
        <time>2017-02-01T13:32:35Z</time>
      </trkpt>
      <trkpt lat="47.85005" lon="7.18619">
        <ele>393.32</ele>
        <time>2017-02-01T13:32:47Z</time>
      </trkpt>
      <trkpt lat="47.8502" lon="7.18621">
        <ele>392.84</ele>
        <time>2017-02-01T13:33:00Z</time>
      </trkpt>
      <trkpt lat="47.85038" lon="7.18616">
        <ele>394.28</ele>
        <time>2017-02-01T13:33:13Z</time>
      </trkpt>
      <trkpt lat="47.85054" lon="7.18604">
        <ele>391.39</ele>
        <time>2017-02-01T13:33:26Z</time>
      </trkpt>
      <trkpt lat="47.85068" lon="7.186">
        <ele>392.36</ele>
        <time>2017-02-01T13:33:37Z</time>
      </trkpt>
      <trkpt lat="47.85085" lon="7.18597">
        <ele>391.39</ele>
        <time>2017-02-01T13:33:51Z</time>
      </trkpt>
      <trkpt lat="47.851" lon="7.18601">
        <ele>391.87</ele>
        <time>2017-02-01T13:34:00Z</time>
      </trkpt>
      <trkpt lat="47.85111" lon="7.18606">
        <ele>390.43</ele>
        <time>2017-02-01T13:34:10Z</time>
      </trkpt>
      <trkpt lat="47.85122" lon="7.18612">
        <ele>393.32</ele>
        <time>2017-02-01T13:34:20Z</time>
      </trkpt>
      <trkpt lat="47.85135" lon="7.18617">
        <ele>393.32</ele>
        <time>2017-02-01T13:34:31Z</time>
      </trkpt>
      <trkpt lat="47.85148" lon="7.18617">
        <ele>392.84</ele>
        <time>2017-02-01T13:34:49Z</time>
      </trkpt>
      <trkpt lat="47.85157" lon="7.18618">
        <ele>391.39</ele>
        <time>2017-02-01T13:36:34Z</time>
      </trkpt>
      <trkpt lat="47.85174" lon="7.18622">
        <ele>389.95</ele>
        <time>2017-02-01T13:36:46Z</time>
      </trkpt>
      <trkpt lat="47.8519" lon="7.18619">
        <ele>392.84</ele>
        <time>2017-02-01T13:36:56Z</time>
      </trkpt>
      <trkpt lat="47.85203" lon="7.18614">
        <ele>395.24</ele>
        <time>2017-02-01T13:37:07Z</time>
      </trkpt>
      <trkpt lat="47.85213" lon="7.18607">
        <ele>391.87</ele>
        <time>2017-02-01T13:37:18Z</time>
      </trkpt>
      <trkpt lat="47.85228" lon="7.18603">
        <ele>393.32</ele>
        <time>2017-02-01T13:37:30Z</time>
      </trkpt>
      <trkpt lat="47.85241" lon="7.18598">
        <ele>395.24</ele>
        <time>2017-02-01T13:37:40Z</time>
      </trkpt>
      <trkpt lat="47.85254" lon="7.18594">
        <ele>394.28</ele>
        <time>2017-02-01T13:37:53Z</time>
      </trkpt>
      <trkpt lat="47.85275" lon="7.18598">
        <ele>395.72</ele>
        <time>2017-02-01T13:38:08Z</time>
      </trkpt>
      <trkpt lat="47.85289" lon="7.186">
        <ele>394.28</ele>
        <time>2017-02-01T13:38:22Z</time>
      </trkpt>
      <trkpt lat="47.85304" lon="7.186">
        <ele>393.8</ele>
        <time>2017-02-01T13:38:33Z</time>
      </trkpt>
      <trkpt lat="47.85314" lon="7.18602">
        <ele>395.24</ele>
        <time>2017-02-01T13:38:42Z</time>
      </trkpt>
      <trkpt lat="47.85325" lon="7.18605">
        <ele>392.84</ele>
        <time>2017-02-01T13:38:51Z</time>
      </trkpt>
      <trkpt lat="47.85336" lon="7.18609">
        <ele>393.32</ele>
        <time>2017-02-01T13:39:02Z</time>
      </trkpt>
      <trkpt lat="47.8535" lon="7.18608">
        <ele>390.43</ele>
        <time>2017-02-01T13:39:14Z</time>
      </trkpt>
      <trkpt lat="47.85369" lon="7.18601">
        <ele>390.91</ele>
        <time>2017-02-01T13:39:26Z</time>
      </trkpt>
      <trkpt lat="47.85382" lon="7.18598">
        <ele>393.32</ele>
        <time>2017-02-01T13:39:37Z</time>
      </trkpt>
      <trkpt lat="47.85395" lon="7.18595">
        <ele>389.95</ele>
        <time>2017-02-01T13:39:48Z</time>
      </trkpt>
      <trkpt lat="47.85411" lon="7.18589">
        <ele>390.91</ele>
        <time>2017-02-01T13:40:01Z</time>
      </trkpt>
      <trkpt lat="47.85425" lon="7.1859">
        <ele>389.95</ele>
        <time>2017-02-01T13:40:12Z</time>
      </trkpt>
      <trkpt lat="47.85441" lon="7.18593">
        <ele>391.87</ele>
        <time>2017-02-01T13:40:24Z</time>
      </trkpt>
      <trkpt lat="47.8545" lon="7.18598">
        <ele>392.84</ele>
        <time>2017-02-01T13:40:42Z</time>
      </trkpt>
      <trkpt lat="47.85447" lon="7.18605">
        <ele>390.43</ele>
        <time>2017-02-01T13:42:01Z</time>
      </trkpt>
      <trkpt lat="47.85442" lon="7.1862">
        <ele>385.15</ele>
        <time>2017-02-01T13:42:15Z</time>
      </trkpt>
      <trkpt lat="47.85437" lon="7.18637">
        <ele>383.7</ele>
        <time>2017-02-01T13:42:25Z</time>
      </trkpt>
      <trkpt lat="47.85435" lon="7.18661">
        <ele>376.97</ele>
        <time>2017-02-01T13:42:37Z</time>
      </trkpt>
      <trkpt lat="47.85434" lon="7.18682">
        <ele>380.82</ele>
        <time>2017-02-01T13:42:48Z</time>
      </trkpt>
      <trkpt lat="47.85435" lon="7.18708">
        <ele>377.94</ele>
        <time>2017-02-01T13:43:01Z</time>
      </trkpt>
      <trkpt lat="47.85433" lon="7.1873">
        <ele>377.94</ele>
        <time>2017-02-01T13:43:14Z</time>
      </trkpt>
      <trkpt lat="47.8543" lon="7.18752">
        <ele>378.9</ele>
        <time>2017-02-01T13:43:25Z</time>
      </trkpt>
      <trkpt lat="47.85432" lon="7.18774">
        <ele>377.45</ele>
        <time>2017-02-01T13:43:38Z</time>
      </trkpt>
      <trkpt lat="47.8543" lon="7.18792">
        <ele>374.09</ele>
        <time>2017-02-01T13:43:49Z</time>
      </trkpt>
      <trkpt lat="47.85428" lon="7.18811">
        <ele>367.84</ele>
        <time>2017-02-01T13:43:59Z</time>
      </trkpt>
      <trkpt lat="47.85427" lon="7.18829">
        <ele>367.36</ele>
        <time>2017-02-01T13:44:09Z</time>
      </trkpt>
      <trkpt lat="47.85427" lon="7.18844">
        <ele>368.32</ele>
        <time>2017-02-01T13:44:17Z</time>
      </trkpt>
      <trkpt lat="47.85429" lon="7.18864">
        <ele>367.84</ele>
        <time>2017-02-01T13:44:29Z</time>
      </trkpt>
      <trkpt lat="47.8543" lon="7.18886">
        <ele>361.11</ele>
        <time>2017-02-01T13:44:40Z</time>
      </trkpt>
      <trkpt lat="47.85436" lon="7.1891">
        <ele>360.63</ele>
        <time>2017-02-01T13:44:51Z</time>
      </trkpt>
      <trkpt lat="47.85441" lon="7.18932">
        <ele>360.63</ele>
        <time>2017-02-01T13:45:03Z</time>
      </trkpt>
      <trkpt lat="47.85446" lon="7.18953">
        <ele>361.11</ele>
        <time>2017-02-01T13:45:15Z</time>
      </trkpt>
      <trkpt lat="47.85453" lon="7.18968">
        <ele>358.71</ele>
        <time>2017-02-01T13:45:26Z</time>
      </trkpt>
      <trkpt lat="47.85462" lon="7.18982">
        <ele>355.34</ele>
        <time>2017-02-01T13:45:39Z</time>
      </trkpt>
      <trkpt lat="47.85467" lon="7.19002">
        <ele>354.86</ele>
        <time>2017-02-01T13:45:49Z</time>
      </trkpt>
      <trkpt lat="47.85471" lon="7.19022">
        <ele>353.9</ele>
        <time>2017-02-01T13:45:59Z</time>
      </trkpt>
      <trkpt lat="47.85473" lon="7.19045">
        <ele>351.5</ele>
        <time>2017-02-01T13:46:10Z</time>
      </trkpt>
      <trkpt lat="47.85478" lon="7.19069">
        <ele>348.13</ele>
        <time>2017-02-01T13:46:24Z</time>
      </trkpt>
      <trkpt lat="47.85482" lon="7.19085">
        <ele>346.69</ele>
        <time>2017-02-01T13:46:35Z</time>
      </trkpt>
      <trkpt lat="47.85488" lon="7.19107">
        <ele>344.77</ele>
        <time>2017-02-01T13:46:47Z</time>
      </trkpt>
      <trkpt lat="47.85493" lon="7.19128">
        <ele>349.1</ele>
        <time>2017-02-01T13:46:58Z</time>
      </trkpt>
      <trkpt lat="47.85496" lon="7.19145">
        <ele>348.13</ele>
        <time>2017-02-01T13:47:08Z</time>
      </trkpt>
      <trkpt lat="47.85498" lon="7.19166">
        <ele>346.69</ele>
        <time>2017-02-01T13:47:20Z</time>
      </trkpt>
      <trkpt lat="47.85503" lon="7.19182">
        <ele>344.29</ele>
        <time>2017-02-01T13:47:31Z</time>
      </trkpt>
      <trkpt lat="47.85508" lon="7.19203">
        <ele>343.33</ele>
        <time>2017-02-01T13:47:44Z</time>
      </trkpt>
      <trkpt lat="47.8551" lon="7.19231">
        <ele>336.12</ele>
        <time>2017-02-01T13:47:56Z</time>
      </trkpt>
      <trkpt lat="47.85519" lon="7.19252">
        <ele>341.41</ele>
        <time>2017-02-01T13:48:09Z</time>
      </trkpt>
      <trkpt lat="47.85526" lon="7.19262">
        <ele>339.48</ele>
        <time>2017-02-01T13:48:19Z</time>
      </trkpt>
      <trkpt lat="47.8553" lon="7.1928">
        <ele>333.23</ele>
        <time>2017-02-01T13:48:30Z</time>
      </trkpt>
      <trkpt lat="47.85535" lon="7.19301">
        <ele>332.27</ele>
        <time>2017-02-01T13:48:43Z</time>
      </trkpt>
      <trkpt lat="47.85534" lon="7.19333">
        <ele>329.39</ele>
        <time>2017-02-01T13:48:58Z</time>
      </trkpt>
      <trkpt lat="47.85535" lon="7.19353">
        <ele>327.47</ele>
        <time>2017-02-01T13:49:11Z</time>
      </trkpt>
      <trkpt lat="47.85535" lon="7.19376">
        <ele>326.99</ele>
        <time>2017-02-01T13:49:23Z</time>
      </trkpt>
      <trkpt lat="47.85541" lon="7.19405">
        <ele>326.99</ele>
        <time>2017-02-01T13:49:40Z</time>
      </trkpt>
      <trkpt lat="47.85544" lon="7.19429">
        <ele>326.5</ele>
        <time>2017-02-01T13:49:51Z</time>
      </trkpt>
      <trkpt lat="47.85551" lon="7.19448">
        <ele>323.62</ele>
        <time>2017-02-01T13:50:03Z</time>
      </trkpt>
      <trkpt lat="47.85559" lon="7.19472">
        <ele>322.18</ele>
        <time>2017-02-01T13:50:16Z</time>
      </trkpt>
      <trkpt lat="47.85566" lon="7.19489">
        <ele>320.26</ele>
        <time>2017-02-01T13:50:27Z</time>
      </trkpt>
      <trkpt lat="47.85572" lon="7.19509">
        <ele>321.7</ele>
        <time>2017-02-01T13:50:39Z</time>
      </trkpt>
      <trkpt lat="47.8558" lon="7.19525">
        <ele>317.37</ele>
        <time>2017-02-01T13:50:50Z</time>
      </trkpt>
      <trkpt lat="47.85586" lon="7.19538">
        <ele>319.78</ele>
        <time>2017-02-01T13:51:00Z</time>
      </trkpt>
      <trkpt lat="47.85592" lon="7.19551">
        <ele>318.81</ele>
        <time>2017-02-01T13:51:10Z</time>
      </trkpt>
      <trkpt lat="47.85596" lon="7.19572">
        <ele>316.89</ele>
        <time>2017-02-01T13:51:20Z</time>
      </trkpt>
      <trkpt lat="47.85603" lon="7.19591">
        <ele>317.37</ele>
        <time>2017-02-01T13:51:29Z</time>
      </trkpt>
      <trkpt lat="47.85611" lon="7.19608">
        <ele>316.89</ele>
        <time>2017-02-01T13:51:39Z</time>
      </trkpt>
      <trkpt lat="47.85621" lon="7.19623">
        <ele>316.41</ele>
        <time>2017-02-01T13:51:49Z</time>
      </trkpt>
      <trkpt lat="47.8563" lon="7.19632">
        <ele>311.12</ele>
        <time>2017-02-01T13:51:58Z</time>
      </trkpt>
      <trkpt lat="47.8564" lon="7.19652">
        <ele>310.16</ele>
        <time>2017-02-01T13:52:12Z</time>
      </trkpt>
      <trkpt lat="47.85651" lon="7.19676">
        <ele>310.16</ele>
        <time>2017-02-01T13:52:24Z</time>
      </trkpt>
      <trkpt lat="47.85666" lon="7.19703">
        <ele>307.76</ele>
        <time>2017-02-01T13:52:40Z</time>
      </trkpt>
      <trkpt lat="47.85675" lon="7.19716">
        <ele>308.24</ele>
        <time>2017-02-01T13:52:51Z</time>
      </trkpt>
      <trkpt lat="47.85686" lon="7.19741">
        <ele>306.32</ele>
        <time>2017-02-01T13:53:06Z</time>
      </trkpt>
      <trkpt lat="47.85689" lon="7.19759">
        <ele>307.76</ele>
        <time>2017-02-01T13:53:17Z</time>
      </trkpt>
      <trkpt lat="47.85691" lon="7.19782">
        <ele>305.36</ele>
        <time>2017-02-01T13:53:29Z</time>
      </trkpt>
      <trkpt lat="47.85692" lon="7.19801">
        <ele>303.91</ele>
        <time>2017-02-01T13:53:40Z</time>
      </trkpt>
      <trkpt lat="47.85694" lon="7.1982">
        <ele>299.59</ele>
        <time>2017-02-01T13:53:51Z</time>
      </trkpt>
      <trkpt lat="47.85695" lon="7.19836">
        <ele>301.99</ele>
        <time>2017-02-01T13:54:02Z</time>
      </trkpt>
      <trkpt lat="47.857" lon="7.19852">
        <ele>298.63</ele>
        <time>2017-02-01T13:54:13Z</time>
      </trkpt>
      <trkpt lat="47.85705" lon="7.19868">
        <ele>299.59</ele>
        <time>2017-02-01T13:54:23Z</time>
      </trkpt>
      <trkpt lat="47.85709" lon="7.19886">
        <ele>300.07</ele>
        <time>2017-02-01T13:54:34Z</time>
      </trkpt>
      <trkpt lat="47.85716" lon="7.19909">
        <ele>300.07</ele>
        <time>2017-02-01T13:54:46Z</time>
      </trkpt>
      <trkpt lat="47.85721" lon="7.19925">
        <ele>295.74</ele>
        <time>2017-02-01T13:54:57Z</time>
      </trkpt>
      <trkpt lat="47.85721" lon="7.19953">
        <ele>297.18</ele>
        <time>2017-02-01T13:55:10Z</time>
      </trkpt>
      <trkpt lat="47.85724" lon="7.19971">
        <ele>296.7</ele>
        <time>2017-02-01T13:55:20Z</time>
      </trkpt>
      <trkpt lat="47.85723" lon="7.19987">
        <ele>293.34</ele>
        <time>2017-02-01T13:55:28Z</time>
      </trkpt>
      <trkpt lat="47.85723" lon="7.2001">
        <ele>295.26</ele>
        <time>2017-02-01T13:55:40Z</time>
      </trkpt>
      <trkpt lat="47.85731" lon="7.20037">
        <ele>294.78</ele>
        <time>2017-02-01T13:55:55Z</time>
      </trkpt>
      <trkpt lat="47.85741" lon="7.20063">
        <ele>293.82</ele>
        <time>2017-02-01T13:56:09Z</time>
      </trkpt>
      <trkpt lat="47.8575" lon="7.20077">
        <ele>289.97</ele>
        <time>2017-02-01T13:56:19Z</time>
      </trkpt>
      <trkpt lat="47.85759" lon="7.20092">
        <ele>292.86</ele>
        <time>2017-02-01T13:56:29Z</time>
      </trkpt>
      <trkpt lat="47.85762" lon="7.20107">
        <ele>290.46</ele>
        <time>2017-02-01T13:56:40Z</time>
      </trkpt>
      <trkpt lat="47.85772" lon="7.20116">
        <ele>287.57</ele>
        <time>2017-02-01T13:56:50Z</time>
      </trkpt>
      <trkpt lat="47.85784" lon="7.20142">
        <ele>289.97</ele>
        <time>2017-02-01T13:57:03Z</time>
      </trkpt>
      <trkpt lat="47.85797" lon="7.20155">
        <ele>289.49</ele>
        <time>2017-02-01T13:57:15Z</time>
      </trkpt>
      <trkpt lat="47.85808" lon="7.20176">
        <ele>288.53</ele>
        <time>2017-02-01T13:57:28Z</time>
      </trkpt>
      <trkpt lat="47.85818" lon="7.20187">
        <ele>285.65</ele>
        <time>2017-02-01T13:57:39Z</time>
      </trkpt>
      <trkpt lat="47.85825" lon="7.202">
        <ele>285.17</ele>
        <time>2017-02-01T13:57:48Z</time>
      </trkpt>
      <trkpt lat="47.85834" lon="7.20212">
        <ele>284.69</ele>
        <time>2017-02-01T13:57:57Z</time>
      </trkpt>
      <trkpt lat="47.85841" lon="7.20219">
        <ele>286.61</ele>
        <time>2017-02-01T13:58:05Z</time>
      </trkpt>
      <trkpt lat="47.85849" lon="7.20226">
        <ele>284.21</ele>
        <time>2017-02-01T13:58:12Z</time>
      </trkpt>
      <trkpt lat="47.85858" lon="7.20236">
        <ele>284.21</ele>
        <time>2017-02-01T13:58:21Z</time>
      </trkpt>
      <trkpt lat="47.85861" lon="7.20249">
        <ele>280.84</ele>
        <time>2017-02-01T13:58:29Z</time>
      </trkpt>
      <trkpt lat="47.85867" lon="7.20263">
        <ele>280.84</ele>
        <time>2017-02-01T13:58:37Z</time>
      </trkpt>
      <trkpt lat="47.85872" lon="7.20277">
        <ele>282.28</ele>
        <time>2017-02-01T13:58:45Z</time>
      </trkpt>
      <trkpt lat="47.85876" lon="7.20292">
        <ele>282.77</ele>
        <time>2017-02-01T13:58:53Z</time>
      </trkpt>
      <trkpt lat="47.85878" lon="7.20306">
        <ele>283.25</ele>
        <time>2017-02-01T13:59:01Z</time>
      </trkpt>
      <trkpt lat="47.85883" lon="7.20319">
        <ele>281.32</ele>
        <time>2017-02-01T13:59:09Z</time>
      </trkpt>
      <trkpt lat="47.85887" lon="7.20334">
        <ele>277.96</ele>
        <time>2017-02-01T13:59:17Z</time>
      </trkpt>
      <trkpt lat="47.8589" lon="7.20347">
        <ele>277.48</ele>
        <time>2017-02-01T13:59:24Z</time>
      </trkpt>
      <trkpt lat="47.85893" lon="7.20362">
        <ele>278.92</ele>
        <time>2017-02-01T13:59:32Z</time>
      </trkpt>
      <trkpt lat="47.85899" lon="7.20375">
        <ele>277.96</ele>
        <time>2017-02-01T13:59:41Z</time>
      </trkpt>
      <trkpt lat="47.859" lon="7.2039">
        <ele>275.07</ele>
        <time>2017-02-01T13:59:48Z</time>
      </trkpt>
      <trkpt lat="47.85903" lon="7.20407">
        <ele>278.92</ele>
        <time>2017-02-01T13:59:57Z</time>
      </trkpt>
      <trkpt lat="47.85904" lon="7.20423">
        <ele>277</ele>
        <time>2017-02-01T14:00:06Z</time>
      </trkpt>
      <trkpt lat="47.8591" lon="7.20437">
        <ele>275.07</ele>
        <time>2017-02-01T14:00:16Z</time>
      </trkpt>
      <trkpt lat="47.85912" lon="7.20459">
        <ele>276.04</ele>
        <time>2017-02-01T14:00:26Z</time>
      </trkpt>
      <trkpt lat="47.85913" lon="7.20476">
        <ele>273.15</ele>
        <time>2017-02-01T14:00:33Z</time>
      </trkpt>
      <trkpt lat="47.85915" lon="7.20491">
        <ele>275.56</ele>
        <time>2017-02-01T14:00:41Z</time>
      </trkpt>
      <trkpt lat="47.85924" lon="7.20508">
        <ele>272.19</ele>
        <time>2017-02-01T14:00:52Z</time>
      </trkpt>
      <trkpt lat="47.85933" lon="7.20518">
        <ele>275.07</ele>
        <time>2017-02-01T14:01:01Z</time>
      </trkpt>
      <trkpt lat="47.85938" lon="7.20531">
        <ele>270.75</ele>
        <time>2017-02-01T14:01:11Z</time>
      </trkpt>
      <trkpt lat="47.85942" lon="7.20549">
        <ele>273.15</ele>
        <time>2017-02-01T14:01:20Z</time>
      </trkpt>
      <trkpt lat="47.85944" lon="7.20565">
        <ele>270.75</ele>
        <time>2017-02-01T14:01:28Z</time>
      </trkpt>
      <trkpt lat="47.85947" lon="7.20581">
        <ele>272.19</ele>
        <time>2017-02-01T14:01:37Z</time>
      </trkpt>
      <trkpt lat="47.85951" lon="7.20597">
        <ele>268.83</ele>
        <time>2017-02-01T14:01:46Z</time>
      </trkpt>
      <trkpt lat="47.85958" lon="7.20614">
        <ele>269.79</ele>
        <time>2017-02-01T14:01:56Z</time>
      </trkpt>
      <trkpt lat="47.85964" lon="7.2063">
        <ele>272.67</ele>
        <time>2017-02-01T14:02:05Z</time>
      </trkpt>
      <trkpt lat="47.85966" lon="7.20644">
        <ele>268.83</ele>
        <time>2017-02-01T14:02:14Z</time>
      </trkpt>
      <trkpt lat="47.85971" lon="7.20659">
        <ele>266.9</ele>
        <time>2017-02-01T14:02:23Z</time>
      </trkpt>
      <trkpt lat="47.85973" lon="7.20675">
        <ele>265.46</ele>
        <time>2017-02-01T14:02:31Z</time>
      </trkpt>
      <trkpt lat="47.85975" lon="7.20691">
        <ele>268.35</ele>
        <time>2017-02-01T14:02:39Z</time>
      </trkpt>
      <trkpt lat="47.85979" lon="7.20704">
        <ele>266.9</ele>
        <time>2017-02-01T14:02:47Z</time>
      </trkpt>
      <trkpt lat="47.85982" lon="7.2072">
        <ele>267.86</ele>
        <time>2017-02-01T14:02:58Z</time>
      </trkpt>
      <trkpt lat="47.85989" lon="7.20734">
        <ele>264.02</ele>
        <time>2017-02-01T14:03:07Z</time>
      </trkpt>
      <trkpt lat="47.85996" lon="7.20749">
        <ele>267.38</ele>
        <time>2017-02-01T14:03:16Z</time>
      </trkpt>
      <trkpt lat="47.85999" lon="7.20769">
        <ele>266.42</ele>
        <time>2017-02-01T14:03:27Z</time>
      </trkpt>
      <trkpt lat="47.86004" lon="7.20787">
        <ele>266.42</ele>
        <time>2017-02-01T14:03:37Z</time>
      </trkpt>
      <trkpt lat="47.86007" lon="7.20803">
        <ele>266.9</ele>
        <time>2017-02-01T14:03:46Z</time>
      </trkpt>
      <trkpt lat="47.86013" lon="7.20816">
        <ele>265.94</ele>
        <time>2017-02-01T14:03:55Z</time>
      </trkpt>
      <trkpt lat="47.86015" lon="7.20834">
        <ele>263.06</ele>
        <time>2017-02-01T14:04:04Z</time>
      </trkpt>
      <trkpt lat="47.86016" lon="7.2085">
        <ele>266.42</ele>
        <time>2017-02-01T14:04:12Z</time>
      </trkpt>
      <trkpt lat="47.8602" lon="7.20864">
        <ele>265.94</ele>
        <time>2017-02-01T14:04:20Z</time>
      </trkpt>
      <trkpt lat="47.86024" lon="7.20879">
        <ele>264.5</ele>
        <time>2017-02-01T14:04:29Z</time>
      </trkpt>
      <trkpt lat="47.86024" lon="7.20893">
        <ele>267.38</ele>
        <time>2017-02-01T14:04:40Z</time>
      </trkpt>
      <trkpt lat="47.86016" lon="7.20905">
        <ele>265.94</ele>
        <time>2017-02-01T14:05:06Z</time>
      </trkpt>
      <trkpt lat="47.86018" lon="7.20915">
        <ele>266.42</ele>
        <time>2017-02-01T14:10:09Z</time>
      </trkpt>
      <trkpt lat="47.86013" lon="7.2093">
        <ele>264.98</ele>
        <time>2017-02-01T14:10:20Z</time>
      </trkpt>
      <trkpt lat="47.86019" lon="7.20942">
        <ele>264.02</ele>
        <time>2017-02-01T14:10:29Z</time>
      </trkpt>
      <trkpt lat="47.86027" lon="7.20949">
        <ele>265.94</ele>
        <time>2017-02-01T14:10:40Z</time>
      </trkpt>
      <trkpt lat="47.86036" lon="7.20955">
        <ele>263.54</ele>
        <time>2017-02-01T14:11:03Z</time>
      </trkpt>
      <trkpt lat="47.86043" lon="7.20963">
        <ele>264.02</ele>
        <time>2017-02-01T14:11:13Z</time>
      </trkpt>
      <trkpt lat="47.86048" lon="7.20979">
        <ele>265.46</ele>
        <time>2017-02-01T14:11:25Z</time>
      </trkpt>
      <trkpt lat="47.86054" lon="7.20992">
        <ele>262.58</ele>
        <time>2017-02-01T14:11:35Z</time>
      </trkpt>
      <trkpt lat="47.86058" lon="7.21005">
        <ele>263.54</ele>
        <time>2017-02-01T14:11:45Z</time>
      </trkpt>
      <trkpt lat="47.8606" lon="7.21019">
        <ele>265.94</ele>
        <time>2017-02-01T14:11:54Z</time>
      </trkpt>
      <trkpt lat="47.86064" lon="7.21033">
        <ele>263.06</ele>
        <time>2017-02-01T14:12:03Z</time>
      </trkpt>
      <trkpt lat="47.86068" lon="7.21047">
        <ele>264.5</ele>
        <time>2017-02-01T14:12:12Z</time>
      </trkpt>
      <trkpt lat="47.86072" lon="7.21061">
        <ele>262.1</ele>
        <time>2017-02-01T14:12:20Z</time>
      </trkpt>
      <trkpt lat="47.86074" lon="7.21073">
        <ele>263.06</ele>
        <time>2017-02-01T14:12:28Z</time>
      </trkpt>
      <trkpt lat="47.86078" lon="7.21087">
        <ele>262.58</ele>
        <time>2017-02-01T14:12:37Z</time>
      </trkpt>
      <trkpt lat="47.86079" lon="7.21103">
        <ele>263.06</ele>
        <time>2017-02-01T14:12:47Z</time>
      </trkpt>
      <trkpt lat="47.86081" lon="7.21117">
        <ele>261.62</ele>
        <time>2017-02-01T14:12:56Z</time>
      </trkpt>
      <trkpt lat="47.86081" lon="7.21134">
        <ele>261.14</ele>
        <time>2017-02-01T14:13:05Z</time>
      </trkpt>
      <trkpt lat="47.86084" lon="7.21149">
        <ele>262.1</ele>
        <time>2017-02-01T14:13:13Z</time>
      </trkpt>
      <trkpt lat="47.86085" lon="7.21164">
        <ele>260.65</ele>
        <time>2017-02-01T14:13:22Z</time>
      </trkpt>
      <trkpt lat="47.86086" lon="7.21181">
        <ele>259.69</ele>
        <time>2017-02-01T14:13:31Z</time>
      </trkpt>
      <trkpt lat="47.86088" lon="7.21198">
        <ele>259.69</ele>
        <time>2017-02-01T14:13:40Z</time>
      </trkpt>
      <trkpt lat="47.86089" lon="7.21213">
        <ele>259.69</ele>
        <time>2017-02-01T14:13:49Z</time>
      </trkpt>
      <trkpt lat="47.86091" lon="7.21228">
        <ele>261.14</ele>
        <time>2017-02-01T14:13:57Z</time>
      </trkpt>
      <trkpt lat="47.86093" lon="7.21242">
        <ele>262.1</ele>
        <time>2017-02-01T14:14:05Z</time>
      </trkpt>
      <trkpt lat="47.86094" lon="7.21258">
        <ele>260.17</ele>
        <time>2017-02-01T14:14:14Z</time>
      </trkpt>
      <trkpt lat="47.86094" lon="7.21274">
        <ele>259.21</ele>
        <time>2017-02-01T14:14:23Z</time>
      </trkpt>
      <trkpt lat="47.86093" lon="7.21289">
        <ele>260.17</ele>
        <time>2017-02-01T14:14:31Z</time>
      </trkpt>
      <trkpt lat="47.86096" lon="7.21304">
        <ele>261.14</ele>
        <time>2017-02-01T14:14:40Z</time>
      </trkpt>
      <trkpt lat="47.86097" lon="7.21321">
        <ele>261.62</ele>
        <time>2017-02-01T14:14:49Z</time>
      </trkpt>
      <trkpt lat="47.86098" lon="7.21336">
        <ele>259.69</ele>
        <time>2017-02-01T14:14:57Z</time>
      </trkpt>
      <trkpt lat="47.861" lon="7.2135">
        <ele>259.21</ele>
        <time>2017-02-01T14:15:06Z</time>
      </trkpt>
      <trkpt lat="47.861" lon="7.21367">
        <ele>257.77</ele>
        <time>2017-02-01T14:15:16Z</time>
      </trkpt>
      <trkpt lat="47.861" lon="7.21382">
        <ele>258.73</ele>
        <time>2017-02-01T14:15:24Z</time>
      </trkpt>
      <trkpt lat="47.86101" lon="7.21397">
        <ele>258.25</ele>
        <time>2017-02-01T14:15:32Z</time>
      </trkpt>
      <trkpt lat="47.861" lon="7.21414">
        <ele>259.21</ele>
        <time>2017-02-01T14:15:41Z</time>
      </trkpt>
      <trkpt lat="47.86102" lon="7.21429">
        <ele>257.29</ele>
        <time>2017-02-01T14:15:50Z</time>
      </trkpt>
      <trkpt lat="47.86107" lon="7.21443">
        <ele>254.41</ele>
        <time>2017-02-01T14:15:59Z</time>
      </trkpt>
      <trkpt lat="47.86113" lon="7.21459">
        <ele>254.41</ele>
        <time>2017-02-01T14:16:09Z</time>
      </trkpt>
      <trkpt lat="47.86117" lon="7.21479">
        <ele>256.81</ele>
        <time>2017-02-01T14:16:22Z</time>
      </trkpt>
      <trkpt lat="47.86121" lon="7.21494">
        <ele>256.33</ele>
        <time>2017-02-01T14:16:32Z</time>
      </trkpt>
      <trkpt lat="47.86121" lon="7.21511">
        <ele>254.41</ele>
        <time>2017-02-01T14:16:42Z</time>
      </trkpt>
      <trkpt lat="47.86127" lon="7.21529">
        <ele>256.81</ele>
        <time>2017-02-01T14:16:54Z</time>
      </trkpt>
      <trkpt lat="47.86132" lon="7.21547">
        <ele>254.89</ele>
        <time>2017-02-01T14:17:05Z</time>
      </trkpt>
      <trkpt lat="47.86133" lon="7.21565">
        <ele>253.44</ele>
        <time>2017-02-01T14:17:14Z</time>
      </trkpt>
      <trkpt lat="47.86137" lon="7.21585">
        <ele>253.44</ele>
        <time>2017-02-01T14:17:24Z</time>
      </trkpt>
      <trkpt lat="47.86143" lon="7.21601">
        <ele>252.96</ele>
        <time>2017-02-01T14:17:35Z</time>
      </trkpt>
      <trkpt lat="47.8615" lon="7.21611">
        <ele>251.04</ele>
        <time>2017-02-01T14:17:45Z</time>
      </trkpt>
      <trkpt lat="47.86159" lon="7.21626">
        <ele>252.48</ele>
        <time>2017-02-01T14:17:56Z</time>
      </trkpt>
      <trkpt lat="47.86166" lon="7.21637">
        <ele>252</ele>
        <time>2017-02-01T14:18:08Z</time>
      </trkpt>
      <trkpt lat="47.86185" lon="7.21648">
        <ele>250.56</ele>
        <time>2017-02-01T14:18:27Z</time>
      </trkpt>
      <trkpt lat="47.86193" lon="7.21658">
        <ele>248.16</ele>
        <time>2017-02-01T14:18:37Z</time>
      </trkpt>
      <trkpt lat="47.86208" lon="7.21667">
        <ele>247.68</ele>
        <time>2017-02-01T14:18:49Z</time>
      </trkpt>
      <trkpt lat="47.86223" lon="7.21671">
        <ele>249.12</ele>
        <time>2017-02-01T14:19:07Z</time>
      </trkpt>
      <trkpt lat="47.86229" lon="7.21658">
        <ele>249.12</ele>
        <time>2017-02-01T14:19:15Z</time>
      </trkpt>
      <trkpt lat="47.86237" lon="7.21646">
        <ele>249.12</ele>
        <time>2017-02-01T14:19:40Z</time>
      </trkpt>
      <trkpt lat="47.86247" lon="7.21639">
        <ele>247.68</ele>
        <time>2017-02-01T14:19:49Z</time>
      </trkpt>
      <trkpt lat="47.86256" lon="7.21633">
        <ele>249.12</ele>
        <time>2017-02-01T14:19:56Z</time>
      </trkpt>
      <trkpt lat="47.86262" lon="7.21623">
        <ele>248.64</ele>
        <time>2017-02-01T14:20:05Z</time>
      </trkpt>
      <trkpt lat="47.86264" lon="7.21605">
        <ele>248.64</ele>
        <time>2017-02-01T14:20:14Z</time>
      </trkpt>
      <trkpt lat="47.86265" lon="7.21592">
        <ele>248.16</ele>
        <time>2017-02-01T14:20:22Z</time>
      </trkpt>
      <trkpt lat="47.86267" lon="7.21575">
        <ele>249.6</ele>
        <time>2017-02-01T14:20:33Z</time>
      </trkpt>
      <trkpt lat="47.86277" lon="7.21569">
        <ele>249.6</ele>
        <time>2017-02-01T14:20:43Z</time>
      </trkpt>
      <trkpt lat="47.86286" lon="7.21569">
        <ele>247.68</ele>
        <time>2017-02-01T14:20:51Z</time>
      </trkpt>
      <trkpt lat="47.86297" lon="7.21572">
        <ele>249.12</ele>
        <time>2017-02-01T14:21:01Z</time>
      </trkpt>
      <trkpt lat="47.86308" lon="7.21576">
        <ele>249.12</ele>
        <time>2017-02-01T14:21:11Z</time>
      </trkpt>
      <trkpt lat="47.86319" lon="7.21576">
        <ele>249.12</ele>
        <time>2017-02-01T14:21:21Z</time>
      </trkpt>
      <trkpt lat="47.8633" lon="7.21575">
        <ele>248.16</ele>
        <time>2017-02-01T14:21:32Z</time>
      </trkpt>
      <trkpt lat="47.8634" lon="7.21576">
        <ele>247.2</ele>
        <time>2017-02-01T14:21:44Z</time>
      </trkpt>
      <trkpt lat="47.86352" lon="7.21578">
        <ele>247.68</ele>
        <time>2017-02-01T14:21:55Z</time>
      </trkpt>
      <trkpt lat="47.86363" lon="7.21579">
        <ele>247.2</ele>
        <time>2017-02-01T14:22:06Z</time>
      </trkpt>
      <trkpt lat="47.86376" lon="7.21579">
        <ele>249.12</ele>
        <time>2017-02-01T14:22:16Z</time>
      </trkpt>
      <trkpt lat="47.86388" lon="7.2158">
        <ele>247.2</ele>
        <time>2017-02-01T14:22:30Z</time>
      </trkpt>
      <trkpt lat="47.864" lon="7.2158">
        <ele>248.16</ele>
        <time>2017-02-01T14:22:42Z</time>
      </trkpt>
      <trkpt lat="47.8641" lon="7.21581">
        <ele>248.16</ele>
        <time>2017-02-01T14:22:52Z</time>
      </trkpt>
      <trkpt lat="47.8642" lon="7.21582">
        <ele>247.68</ele>
        <time>2017-02-01T14:23:02Z</time>
      </trkpt>
      <trkpt lat="47.86431" lon="7.21585">
        <ele>247.2</ele>
        <time>2017-02-01T14:23:12Z</time>
      </trkpt>
      <trkpt lat="47.86442" lon="7.21584">
        <ele>249.12</ele>
        <time>2017-02-01T14:23:23Z</time>
      </trkpt>
      <trkpt lat="47.86454" lon="7.21587">
        <ele>247.2</ele>
        <time>2017-02-01T14:25:00Z</time>
      </trkpt>
      <trkpt lat="47.86466" lon="7.21586">
        <ele>246.23</ele>
        <time>2017-02-01T14:25:11Z</time>
      </trkpt>
      <trkpt lat="47.86477" lon="7.21587">
        <ele>246.23</ele>
        <time>2017-02-01T14:25:20Z</time>
      </trkpt>
      <trkpt lat="47.86488" lon="7.21589">
        <ele>246.72</ele>
        <time>2017-02-01T14:25:30Z</time>
      </trkpt>
      <trkpt lat="47.86499" lon="7.21589">
        <ele>249.12</ele>
        <time>2017-02-01T14:25:39Z</time>
      </trkpt>
      <trkpt lat="47.8651" lon="7.2159">
        <ele>248.16</ele>
        <time>2017-02-01T14:25:48Z</time>
      </trkpt>
      <trkpt lat="47.86521" lon="7.2159">
        <ele>246.72</ele>
        <time>2017-02-01T14:25:57Z</time>
      </trkpt>
      <trkpt lat="47.86531" lon="7.21591">
        <ele>250.08</ele>
        <time>2017-02-01T14:26:06Z</time>
      </trkpt>
      <trkpt lat="47.8654" lon="7.21592">
        <ele>248.64</ele>
        <time>2017-02-01T14:26:14Z</time>
      </trkpt>
      <trkpt lat="47.8655" lon="7.21593">
        <ele>246.23</ele>
        <time>2017-02-01T14:26:22Z</time>
      </trkpt>
      <trkpt lat="47.86559" lon="7.21593">
        <ele>248.64</ele>
        <time>2017-02-01T14:26:30Z</time>
      </trkpt>
      <trkpt lat="47.86569" lon="7.21594">
        <ele>247.68</ele>
        <time>2017-02-01T14:26:39Z</time>
      </trkpt>
      <trkpt lat="47.86579" lon="7.21595">
        <ele>249.12</ele>
        <time>2017-02-01T14:26:47Z</time>
      </trkpt>
      <trkpt lat="47.86589" lon="7.21595">
        <ele>248.64</ele>
        <time>2017-02-01T14:26:56Z</time>
      </trkpt>
      <trkpt lat="47.86599" lon="7.21597">
        <ele>247.68</ele>
        <time>2017-02-01T14:27:04Z</time>
      </trkpt>
      <trkpt lat="47.86609" lon="7.21598">
        <ele>250.56</ele>
        <time>2017-02-01T14:27:13Z</time>
      </trkpt>
      <trkpt lat="47.8662" lon="7.21599">
        <ele>250.56</ele>
        <time>2017-02-01T14:27:22Z</time>
      </trkpt>
      <trkpt lat="47.8663" lon="7.21599">
        <ele>249.6</ele>
        <time>2017-02-01T14:27:31Z</time>
      </trkpt>
      <trkpt lat="47.8664" lon="7.216">
        <ele>249.12</ele>
        <time>2017-02-01T14:27:40Z</time>
      </trkpt>
      <trkpt lat="47.8665" lon="7.21602">
        <ele>250.08</ele>
        <time>2017-02-01T14:27:49Z</time>
      </trkpt>
      <trkpt lat="47.86661" lon="7.21602">
        <ele>250.08</ele>
        <time>2017-02-01T14:27:59Z</time>
      </trkpt>
      <trkpt lat="47.86671" lon="7.21603">
        <ele>251.04</ele>
        <time>2017-02-01T14:28:09Z</time>
      </trkpt>
      <trkpt lat="47.86683" lon="7.21605">
        <ele>252</ele>
        <time>2017-02-01T14:28:19Z</time>
      </trkpt>
      <trkpt lat="47.86695" lon="7.21605">
        <ele>249.6</ele>
        <time>2017-02-01T14:28:29Z</time>
      </trkpt>
      <trkpt lat="47.86705" lon="7.21605">
        <ele>250.56</ele>
        <time>2017-02-01T14:28:38Z</time>
      </trkpt>
      <trkpt lat="47.86716" lon="7.21606">
        <ele>252.96</ele>
        <time>2017-02-01T14:28:47Z</time>
      </trkpt>
      <trkpt lat="47.86727" lon="7.21607">
        <ele>251.04</ele>
        <time>2017-02-01T14:28:56Z</time>
      </trkpt>
      <trkpt lat="47.86739" lon="7.21608">
        <ele>254.41</ele>
        <time>2017-02-01T14:29:05Z</time>
      </trkpt>
      <trkpt lat="47.8675" lon="7.21607">
        <ele>252</ele>
        <time>2017-02-01T14:29:14Z</time>
      </trkpt>
      <trkpt lat="47.8676" lon="7.21608">
        <ele>251.52</ele>
        <time>2017-02-01T14:29:24Z</time>
      </trkpt>
      <trkpt lat="47.86771" lon="7.21607">
        <ele>252.48</ele>
        <time>2017-02-01T14:29:33Z</time>
      </trkpt>
      <trkpt lat="47.8678" lon="7.21609">
        <ele>255.85</ele>
        <time>2017-02-01T14:29:41Z</time>
      </trkpt>
      <trkpt lat="47.86791" lon="7.21609">
        <ele>254.41</ele>
        <time>2017-02-01T14:29:50Z</time>
      </trkpt>
      <trkpt lat="47.86802" lon="7.21609">
        <ele>254.89</ele>
        <time>2017-02-01T14:30:00Z</time>
      </trkpt>
      <trkpt lat="47.86813" lon="7.21609">
        <ele>255.37</ele>
        <time>2017-02-01T14:30:09Z</time>
      </trkpt>
      <trkpt lat="47.86823" lon="7.21607">
        <ele>253.93</ele>
        <time>2017-02-01T14:30:19Z</time>
      </trkpt>
      <trkpt lat="47.86836" lon="7.21608">
        <ele>256.81</ele>
        <time>2017-02-01T14:30:30Z</time>
      </trkpt>
      <trkpt lat="47.86845" lon="7.21611">
        <ele>257.77</ele>
        <time>2017-02-01T14:30:40Z</time>
      </trkpt>
      <trkpt lat="47.86854" lon="7.21616">
        <ele>259.69</ele>
        <time>2017-02-01T14:30:50Z</time>
      </trkpt>
      <trkpt lat="47.86863" lon="7.21622">
        <ele>257.29</ele>
        <time>2017-02-01T14:30:59Z</time>
      </trkpt>
      <trkpt lat="47.86872" lon="7.21628">
        <ele>258.73</ele>
        <time>2017-02-01T14:31:08Z</time>
      </trkpt>
      <trkpt lat="47.86882" lon="7.21635">
        <ele>261.14</ele>
        <time>2017-02-01T14:31:17Z</time>
      </trkpt>
      <trkpt lat="47.86891" lon="7.21642">
        <ele>259.69</ele>
        <time>2017-02-01T14:31:26Z</time>
      </trkpt>
      <trkpt lat="47.869" lon="7.21647">
        <ele>260.17</ele>
        <time>2017-02-01T14:31:36Z</time>
      </trkpt>
      <trkpt lat="47.8691" lon="7.21657">
        <ele>263.06</ele>
        <time>2017-02-01T14:31:48Z</time>
      </trkpt>
      <trkpt lat="47.86919" lon="7.21673">
        <ele>262.58</ele>
        <time>2017-02-01T14:32:03Z</time>
      </trkpt>
      <trkpt lat="47.86931" lon="7.21687">
        <ele>262.1</ele>
        <time>2017-02-01T14:32:15Z</time>
      </trkpt>
      <trkpt lat="47.86942" lon="7.21696">
        <ele>263.54</ele>
        <time>2017-02-01T14:32:25Z</time>
      </trkpt>
      <trkpt lat="47.86952" lon="7.21703">
        <ele>264.5</ele>
        <time>2017-02-01T14:32:35Z</time>
      </trkpt>
      <trkpt lat="47.86962" lon="7.21707">
        <ele>268.83</ele>
        <time>2017-02-01T14:32:44Z</time>
      </trkpt>
      <trkpt lat="47.86972" lon="7.21712">
        <ele>265.46</ele>
        <time>2017-02-01T14:32:53Z</time>
      </trkpt>
      <trkpt lat="47.86982" lon="7.21715">
        <ele>269.31</ele>
        <time>2017-02-01T14:33:02Z</time>
      </trkpt>
      <trkpt lat="47.86992" lon="7.21719">
        <ele>268.35</ele>
        <time>2017-02-01T14:33:11Z</time>
      </trkpt>
      <trkpt lat="47.87" lon="7.21722">
        <ele>268.35</ele>
        <time>2017-02-01T14:33:20Z</time>
      </trkpt>
      <trkpt lat="47.87009" lon="7.21728">
        <ele>269.79</ele>
        <time>2017-02-01T14:33:30Z</time>
      </trkpt>
      <trkpt lat="47.87019" lon="7.21732">
        <ele>274.11</ele>
        <time>2017-02-01T14:33:39Z</time>
      </trkpt>
      <trkpt lat="47.87029" lon="7.21736">
        <ele>270.75</ele>
        <time>2017-02-01T14:33:48Z</time>
      </trkpt>
      <trkpt lat="47.87037" lon="7.21742">
        <ele>272.67</ele>
        <time>2017-02-01T14:33:57Z</time>
      </trkpt>
      <trkpt lat="47.87047" lon="7.21749">
        <ele>273.15</ele>
        <time>2017-02-01T14:34:07Z</time>
      </trkpt>
      <trkpt lat="47.87055" lon="7.21753">
        <ele>273.63</ele>
        <time>2017-02-01T14:34:16Z</time>
      </trkpt>
      <trkpt lat="47.87064" lon="7.21758">
        <ele>275.07</ele>
        <time>2017-02-01T14:34:25Z</time>
      </trkpt>
      <trkpt lat="47.87073" lon="7.21763">
        <ele>274.59</ele>
        <time>2017-02-01T14:34:34Z</time>
      </trkpt>
      <trkpt lat="47.87083" lon="7.21768">
        <ele>278.92</ele>
        <time>2017-02-01T14:34:44Z</time>
      </trkpt>
      <trkpt lat="47.87093" lon="7.21768">
        <ele>277.96</ele>
        <time>2017-02-01T14:34:54Z</time>
      </trkpt>
      <trkpt lat="47.87102" lon="7.21768">
        <ele>281.32</ele>
        <time>2017-02-01T14:35:03Z</time>
      </trkpt>
      <trkpt lat="47.87112" lon="7.21769">
        <ele>281.8</ele>
        <time>2017-02-01T14:35:13Z</time>
      </trkpt>
      <trkpt lat="47.87122" lon="7.21769">
        <ele>279.88</ele>
        <time>2017-02-01T14:35:24Z</time>
      </trkpt>
      <trkpt lat="47.8713" lon="7.21766">
        <ele>279.4</ele>
        <time>2017-02-01T14:36:13Z</time>
      </trkpt>
      <trkpt lat="47.87135" lon="7.2177">
        <ele>281.8</ele>
        <time>2017-02-01T14:37:13Z</time>
      </trkpt>
      <trkpt lat="47.87145" lon="7.21769">
        <ele>282.77</ele>
        <time>2017-02-01T14:37:22Z</time>
      </trkpt>
      <trkpt lat="47.87155" lon="7.21771">
        <ele>284.21</ele>
        <time>2017-02-01T14:37:30Z</time>
      </trkpt>
      <trkpt lat="47.87164" lon="7.21772">
        <ele>285.65</ele>
        <time>2017-02-01T14:37:38Z</time>
      </trkpt>
      <trkpt lat="47.87175" lon="7.21771">
        <ele>288.05</ele>
        <time>2017-02-01T14:37:47Z</time>
      </trkpt>
      <trkpt lat="47.87185" lon="7.21773">
        <ele>288.53</ele>
        <time>2017-02-01T14:37:56Z</time>
      </trkpt>
      <trkpt lat="47.87196" lon="7.21773">
        <ele>289.01</ele>
        <time>2017-02-01T14:38:05Z</time>
      </trkpt>
      <trkpt lat="47.87207" lon="7.21772">
        <ele>288.05</ele>
        <time>2017-02-01T14:38:13Z</time>
      </trkpt>
      <trkpt lat="47.87218" lon="7.21771">
        <ele>289.97</ele>
        <time>2017-02-01T14:38:23Z</time>
      </trkpt>
      <trkpt lat="47.8723" lon="7.21766">
        <ele>288.05</ele>
        <time>2017-02-01T14:38:32Z</time>
      </trkpt>
      <trkpt lat="47.87235" lon="7.21752">
        <ele>290.94</ele>
        <time>2017-02-01T14:38:40Z</time>
      </trkpt>
      <trkpt lat="47.87235" lon="7.21737">
        <ele>289.01</ele>
        <time>2017-02-01T14:38:49Z</time>
      </trkpt>
      <trkpt lat="47.87235" lon="7.21721">
        <ele>292.86</ele>
        <time>2017-02-01T14:38:58Z</time>
      </trkpt>
      <trkpt lat="47.87235" lon="7.21703">
        <ele>292.38</ele>
        <time>2017-02-01T14:39:07Z</time>
      </trkpt>
      <trkpt lat="47.87234" lon="7.21687">
        <ele>289.49</ele>
        <time>2017-02-01T14:39:15Z</time>
      </trkpt>
      <trkpt lat="47.87234" lon="7.21672">
        <ele>291.42</ele>
        <time>2017-02-01T14:39:23Z</time>
      </trkpt>
      <trkpt lat="47.87234" lon="7.21654">
        <ele>292.86</ele>
        <time>2017-02-01T14:39:34Z</time>
      </trkpt>
      <trkpt lat="47.87238" lon="7.21637">
        <ele>294.78</ele>
        <time>2017-02-01T14:39:42Z</time>
      </trkpt>
      <trkpt lat="47.87239" lon="7.21623">
        <ele>290.46</ele>
        <time>2017-02-01T14:39:50Z</time>
      </trkpt>
      <trkpt lat="47.87241" lon="7.21609">
        <ele>293.82</ele>
        <time>2017-02-01T14:39:58Z</time>
      </trkpt>
      <trkpt lat="47.87243" lon="7.21594">
        <ele>293.34</ele>
        <time>2017-02-01T14:40:07Z</time>
      </trkpt>
      <trkpt lat="47.87244" lon="7.21577">
        <ele>294.78</ele>
        <time>2017-02-01T14:40:17Z</time>
      </trkpt>
      <trkpt lat="47.87246" lon="7.21562">
        <ele>294.3</ele>
        <time>2017-02-01T14:40:25Z</time>
      </trkpt>
      <trkpt lat="47.87249" lon="7.21547">
        <ele>293.82</ele>
        <time>2017-02-01T14:40:34Z</time>
      </trkpt>
      <trkpt lat="47.87252" lon="7.21532">
        <ele>290.94</ele>
        <time>2017-02-01T14:40:42Z</time>
      </trkpt>
      <trkpt lat="47.87254" lon="7.21517">
        <ele>293.82</ele>
        <time>2017-02-01T14:40:50Z</time>
      </trkpt>
      <trkpt lat="47.87255" lon="7.21501">
        <ele>295.26</ele>
        <time>2017-02-01T14:40:58Z</time>
      </trkpt>
      <trkpt lat="47.87254" lon="7.21488">
        <ele>299.59</ele>
        <time>2017-02-01T14:41:06Z</time>
      </trkpt>
      <trkpt lat="47.87249" lon="7.21474">
        <ele>298.63</ele>
        <time>2017-02-01T14:41:15Z</time>
      </trkpt>
      <trkpt lat="47.87249" lon="7.21457">
        <ele>296.22</ele>
        <time>2017-02-01T14:41:24Z</time>
      </trkpt>
      <trkpt lat="47.87246" lon="7.21444">
        <ele>296.22</ele>
        <time>2017-02-01T14:41:32Z</time>
      </trkpt>
      <trkpt lat="47.87245" lon="7.2143">
        <ele>299.11</ele>
        <time>2017-02-01T14:41:40Z</time>
      </trkpt>
      <trkpt lat="47.87249" lon="7.21416">
        <ele>298.15</ele>
        <time>2017-02-01T14:41:49Z</time>
      </trkpt>
      <trkpt lat="47.87254" lon="7.21403">
        <ele>300.07</ele>
        <time>2017-02-01T14:41:58Z</time>
      </trkpt>
      <trkpt lat="47.87259" lon="7.21391">
        <ele>300.55</ele>
        <time>2017-02-01T14:42:07Z</time>
      </trkpt>
      <trkpt lat="47.87264" lon="7.21379">
        <ele>298.63</ele>
        <time>2017-02-01T14:42:16Z</time>
      </trkpt>
      <trkpt lat="47.87271" lon="7.21368">
        <ele>301.03</ele>
        <time>2017-02-01T14:42:26Z</time>
      </trkpt>
      <trkpt lat="47.87276" lon="7.21356">
        <ele>300.55</ele>
        <time>2017-02-01T14:42:36Z</time>
      </trkpt>
      <trkpt lat="47.87282" lon="7.21343">
        <ele>301.99</ele>
        <time>2017-02-01T14:42:47Z</time>
      </trkpt>
      <trkpt lat="47.87287" lon="7.21329">
        <ele>301.99</ele>
        <time>2017-02-01T14:42:57Z</time>
      </trkpt>
      <trkpt lat="47.87293" lon="7.21315">
        <ele>302.95</ele>
        <time>2017-02-01T14:43:08Z</time>
      </trkpt>
      <trkpt lat="47.87297" lon="7.21301">
        <ele>301.51</ele>
        <time>2017-02-01T14:43:19Z</time>
      </trkpt>
      <trkpt lat="47.873" lon="7.21286">
        <ele>302.95</ele>
        <time>2017-02-01T14:43:29Z</time>
      </trkpt>
      <trkpt lat="47.87303" lon="7.2127">
        <ele>302.47</ele>
        <time>2017-02-01T14:43:39Z</time>
      </trkpt>
      <trkpt lat="47.87303" lon="7.21253">
        <ele>304.88</ele>
        <time>2017-02-01T14:43:49Z</time>
      </trkpt>
      <trkpt lat="47.87302" lon="7.21237">
        <ele>305.36</ele>
        <time>2017-02-01T14:43:58Z</time>
      </trkpt>
      <trkpt lat="47.87302" lon="7.21224">
        <ele>305.36</ele>
        <time>2017-02-01T14:44:06Z</time>
      </trkpt>
      <trkpt lat="47.87296" lon="7.2121">
        <ele>305.36</ele>
        <time>2017-02-01T14:44:15Z</time>
      </trkpt>
      <trkpt lat="47.87294" lon="7.21195">
        <ele>305.84</ele>
        <time>2017-02-01T14:44:25Z</time>
      </trkpt>
      <trkpt lat="47.87292" lon="7.21181">
        <ele>306.32</ele>
        <time>2017-02-01T14:44:35Z</time>
      </trkpt>
      <trkpt lat="47.87301" lon="7.21173">
        <ele>307.28</ele>
        <time>2017-02-01T14:44:46Z</time>
      </trkpt>
      <trkpt lat="47.87315" lon="7.21168">
        <ele>306.8</ele>
        <time>2017-02-01T14:44:58Z</time>
      </trkpt>
      <trkpt lat="47.87328" lon="7.21163">
        <ele>308.24</ele>
        <time>2017-02-01T14:45:08Z</time>
      </trkpt>
      <trkpt lat="47.87338" lon="7.21159">
        <ele>304.88</ele>
        <time>2017-02-01T14:45:17Z</time>
      </trkpt>
      <trkpt lat="47.87347" lon="7.21151">
        <ele>304.88</ele>
        <time>2017-02-01T14:45:26Z</time>
      </trkpt>
      <trkpt lat="47.87356" lon="7.21143">
        <ele>302.47</ele>
        <time>2017-02-01T14:45:37Z</time>
      </trkpt>
      <trkpt lat="47.87368" lon="7.21132">
        <ele>303.91</ele>
        <time>2017-02-01T14:45:51Z</time>
      </trkpt>
      <trkpt lat="47.87381" lon="7.21125">
        <ele>303.43</ele>
        <time>2017-02-01T14:46:03Z</time>
      </trkpt>
      <trkpt lat="47.87396" lon="7.21117">
        <ele>299.59</ele>
        <time>2017-02-01T14:46:14Z</time>
      </trkpt>
      <trkpt lat="47.87406" lon="7.2111">
        <ele>300.55</ele>
        <time>2017-02-01T14:46:24Z</time>
      </trkpt>
      <trkpt lat="47.87415" lon="7.211">
        <ele>300.55</ele>
        <time>2017-02-01T14:46:33Z</time>
      </trkpt>
      <trkpt lat="47.87422" lon="7.21089">
        <ele>301.03</ele>
        <time>2017-02-01T14:46:41Z</time>
      </trkpt>
      <trkpt lat="47.87426" lon="7.21073">
        <ele>301.51</ele>
        <time>2017-02-01T14:46:53Z</time>
      </trkpt>
      <trkpt lat="47.87434" lon="7.21062">
        <ele>300.07</ele>
        <time>2017-02-01T14:47:05Z</time>
      </trkpt>
      <trkpt lat="47.87435" lon="7.21048">
        <ele>301.03</ele>
        <time>2017-02-01T14:47:15Z</time>
      </trkpt>
      <trkpt lat="47.87429" lon="7.21036">
        <ele>301.51</ele>
        <time>2017-02-01T14:47:26Z</time>
      </trkpt>
      <trkpt lat="47.87426" lon="7.21019">
        <ele>301.99</ele>
        <time>2017-02-01T14:47:37Z</time>
      </trkpt>
      <trkpt lat="47.87434" lon="7.21008">
        <ele>302.47</ele>
        <time>2017-02-01T14:48:37Z</time>
      </trkpt>
      <trkpt lat="47.87444" lon="7.21004">
        <ele>303.91</ele>
        <time>2017-02-01T14:48:47Z</time>
      </trkpt>
      <trkpt lat="47.87455" lon="7.21">
        <ele>302.95</ele>
        <time>2017-02-01T14:48:59Z</time>
      </trkpt>
      <trkpt lat="47.87465" lon="7.20996">
        <ele>301.03</ele>
        <time>2017-02-01T14:49:08Z</time>
      </trkpt>
      <trkpt lat="47.87476" lon="7.20989">
        <ele>303.91</ele>
        <time>2017-02-01T14:49:21Z</time>
      </trkpt>
      <trkpt lat="47.8749" lon="7.20989">
        <ele>303.91</ele>
        <time>2017-02-01T14:49:32Z</time>
      </trkpt>
      <trkpt lat="47.87501" lon="7.20983">
        <ele>303.91</ele>
        <time>2017-02-01T14:49:48Z</time>
      </trkpt>
      <trkpt lat="47.87516" lon="7.20981">
        <ele>303.91</ele>
        <time>2017-02-01T14:49:58Z</time>
      </trkpt>
      <trkpt lat="47.87527" lon="7.20979">
        <ele>303.91</ele>
        <time>2017-02-01T14:50:08Z</time>
      </trkpt>
      <trkpt lat="47.87539" lon="7.20978">
        <ele>301.99</ele>
        <time>2017-02-01T14:50:19Z</time>
      </trkpt>
      <trkpt lat="47.87553" lon="7.20976">
        <ele>304.88</ele>
        <time>2017-02-01T14:50:29Z</time>
      </trkpt>
      <trkpt lat="47.87565" lon="7.20972">
        <ele>304.39</ele>
        <time>2017-02-01T14:50:43Z</time>
      </trkpt>
      <trkpt lat="47.87577" lon="7.20969">
        <ele>302.95</ele>
        <time>2017-02-01T14:50:53Z</time>
      </trkpt>
      <trkpt lat="47.8759" lon="7.20968">
        <ele>301.51</ele>
        <time>2017-02-01T14:51:06Z</time>
      </trkpt>
      <trkpt lat="47.87602" lon="7.20963">
        <ele>304.39</ele>
        <time>2017-02-01T14:51:18Z</time>
      </trkpt>
      <trkpt lat="47.87613" lon="7.2096">
        <ele>303.43</ele>
        <time>2017-02-01T14:51:28Z</time>
      </trkpt>
      <trkpt lat="47.87625" lon="7.2096">
        <ele>302.95</ele>
        <time>2017-02-01T14:51:40Z</time>
      </trkpt>
      <trkpt lat="47.8763" lon="7.20975">
        <ele>301.99</ele>
        <time>2017-02-01T14:51:50Z</time>
      </trkpt>
      <trkpt lat="47.87635" lon="7.20992">
        <ele>301.03</ele>
        <time>2017-02-01T14:51:59Z</time>
      </trkpt>
      <trkpt lat="47.87639" lon="7.21006">
        <ele>301.99</ele>
        <time>2017-02-01T14:52:08Z</time>
      </trkpt>
      <trkpt lat="47.87645" lon="7.21018">
        <ele>301.51</ele>
        <time>2017-02-01T14:52:19Z</time>
      </trkpt>
      <trkpt lat="47.87652" lon="7.21028">
        <ele>301.99</ele>
        <time>2017-02-01T14:52:28Z</time>
      </trkpt>
      <trkpt lat="47.87661" lon="7.21033">
        <ele>300.55</ele>
        <time>2017-02-01T14:52:37Z</time>
      </trkpt>
      <trkpt lat="47.87672" lon="7.21035">
        <ele>301.99</ele>
        <time>2017-02-01T14:52:46Z</time>
      </trkpt>
      <trkpt lat="47.87682" lon="7.21038">
        <ele>300.07</ele>
        <time>2017-02-01T14:52:55Z</time>
      </trkpt>
      <trkpt lat="47.87692" lon="7.21039">
        <ele>301.03</ele>
        <time>2017-02-01T14:53:03Z</time>
      </trkpt>
      <trkpt lat="47.87702" lon="7.21039">
        <ele>301.51</ele>
        <time>2017-02-01T14:53:12Z</time>
      </trkpt>
      <trkpt lat="47.87713" lon="7.21034">
        <ele>300.55</ele>
        <time>2017-02-01T14:53:21Z</time>
      </trkpt>
      <trkpt lat="47.87723" lon="7.21033">
        <ele>300.55</ele>
        <time>2017-02-01T14:53:30Z</time>
      </trkpt>
      <trkpt lat="47.87734" lon="7.2103">
        <ele>301.51</ele>
        <time>2017-02-01T14:53:40Z</time>
      </trkpt>
      <trkpt lat="47.87744" lon="7.21029">
        <ele>301.99</ele>
        <time>2017-02-01T14:53:48Z</time>
      </trkpt>
      <trkpt lat="47.87753" lon="7.21027">
        <ele>300.55</ele>
        <time>2017-02-01T14:53:56Z</time>
      </trkpt>
      <trkpt lat="47.87762" lon="7.21026">
        <ele>299.59</ele>
        <time>2017-02-01T14:54:04Z</time>
      </trkpt>
      <trkpt lat="47.87773" lon="7.21026">
        <ele>301.03</ele>
        <time>2017-02-01T14:54:12Z</time>
      </trkpt>
      <trkpt lat="47.87783" lon="7.21025">
        <ele>300.55</ele>
        <time>2017-02-01T14:54:22Z</time>
      </trkpt>
      <trkpt lat="47.87793" lon="7.21025">
        <ele>299.11</ele>
        <time>2017-02-01T14:54:32Z</time>
      </trkpt>
      <trkpt lat="47.87803" lon="7.21026">
        <ele>297.67</ele>
        <time>2017-02-01T14:54:42Z</time>
      </trkpt>
      <trkpt lat="47.87813" lon="7.21029">
        <ele>299.11</ele>
        <time>2017-02-01T14:54:51Z</time>
      </trkpt>
      <trkpt lat="47.87819" lon="7.21032">
        <ele>297.67</ele>
        <time>2017-02-01T14:55:01Z</time>
      </trkpt>
      <trkpt lat="47.8783" lon="7.21032">
        <ele>298.63</ele>
        <time>2017-02-01T14:55:10Z</time>
      </trkpt>
      <trkpt lat="47.87841" lon="7.2103">
        <ele>299.59</ele>
        <time>2017-02-01T14:55:19Z</time>
      </trkpt>
      <trkpt lat="47.87852" lon="7.21031">
        <ele>297.18</ele>
        <time>2017-02-01T14:55:29Z</time>
      </trkpt>
      <trkpt lat="47.87864" lon="7.21029">
        <ele>298.63</ele>
        <time>2017-02-01T14:55:38Z</time>
      </trkpt>
      <trkpt lat="47.87876" lon="7.21026">
        <ele>298.63</ele>
        <time>2017-02-01T14:55:48Z</time>
      </trkpt>
      <trkpt lat="47.87887" lon="7.21028">
        <ele>297.67</ele>
        <time>2017-02-01T14:55:58Z</time>
      </trkpt>
      <trkpt lat="47.87897" lon="7.2103">
        <ele>298.63</ele>
        <time>2017-02-01T14:56:06Z</time>
      </trkpt>
      <trkpt lat="47.87907" lon="7.21031">
        <ele>297.18</ele>
        <time>2017-02-01T14:56:15Z</time>
      </trkpt>
      <trkpt lat="47.87918" lon="7.21029">
        <ele>294.78</ele>
        <time>2017-02-01T14:56:24Z</time>
      </trkpt>
      <trkpt lat="47.8793" lon="7.21027">
        <ele>293.82</ele>
        <time>2017-02-01T14:56:33Z</time>
      </trkpt>
      <trkpt lat="47.8794" lon="7.21027">
        <ele>295.74</ele>
        <time>2017-02-01T14:56:42Z</time>
      </trkpt>
      <trkpt lat="47.87947" lon="7.21037">
        <ele>293.34</ele>
        <time>2017-02-01T14:56:53Z</time>
      </trkpt>
      <trkpt lat="47.87949" lon="7.21051">
        <ele>294.3</ele>
        <time>2017-02-01T14:57:01Z</time>
      </trkpt>
      <trkpt lat="47.87953" lon="7.21066">
        <ele>294.78</ele>
        <time>2017-02-01T14:57:10Z</time>
      </trkpt>
      <trkpt lat="47.87956" lon="7.21081">
        <ele>292.86</ele>
        <time>2017-02-01T14:57:19Z</time>
      </trkpt>
      <trkpt lat="47.8796" lon="7.21095">
        <ele>292.38</ele>
        <time>2017-02-01T14:57:28Z</time>
      </trkpt>
      <trkpt lat="47.87963" lon="7.21111">
        <ele>291.9</ele>
        <time>2017-02-01T14:57:37Z</time>
      </trkpt>
      <trkpt lat="47.87964" lon="7.21127">
        <ele>293.34</ele>
        <time>2017-02-01T14:57:45Z</time>
      </trkpt>
      <trkpt lat="47.87967" lon="7.21142">
        <ele>293.34</ele>
        <time>2017-02-01T14:57:53Z</time>
      </trkpt>
      <trkpt lat="47.87971" lon="7.21156">
        <ele>293.34</ele>
        <time>2017-02-01T14:58:02Z</time>
      </trkpt>
      <trkpt lat="47.87979" lon="7.21163">
        <ele>290.94</ele>
        <time>2017-02-01T14:58:10Z</time>
      </trkpt>
      <trkpt lat="47.87987" lon="7.21162">
        <ele>293.82</ele>
        <time>2017-02-01T14:58:18Z</time>
      </trkpt>
      <trkpt lat="47.87994" lon="7.21153">
        <ele>290.94</ele>
        <time>2017-02-01T14:58:27Z</time>
      </trkpt>
      <trkpt lat="47.88001" lon="7.21143">
        <ele>289.01</ele>
        <time>2017-02-01T14:58:35Z</time>
      </trkpt>
      <trkpt lat="47.8801" lon="7.21133">
        <ele>290.94</ele>
        <time>2017-02-01T14:58:43Z</time>
      </trkpt>
      <trkpt lat="47.88017" lon="7.21123">
        <ele>291.9</ele>
        <time>2017-02-01T14:58:52Z</time>
      </trkpt>
      <trkpt lat="47.88024" lon="7.21115">
        <ele>292.86</ele>
        <time>2017-02-01T14:59:00Z</time>
      </trkpt>
      <trkpt lat="47.88031" lon="7.21103">
        <ele>292.38</ele>
        <time>2017-02-01T14:59:08Z</time>
      </trkpt>
      <trkpt lat="47.8804" lon="7.21094">
        <ele>291.9</ele>
        <time>2017-02-01T14:59:16Z</time>
      </trkpt>
      <trkpt lat="47.88047" lon="7.21084">
        <ele>293.82</ele>
        <time>2017-02-01T14:59:23Z</time>
      </trkpt>
      <trkpt lat="47.88055" lon="7.21072">
        <ele>292.86</ele>
        <time>2017-02-01T14:59:31Z</time>
      </trkpt>
      <trkpt lat="47.88061" lon="7.21062">
        <ele>293.82</ele>
        <time>2017-02-01T14:59:39Z</time>
      </trkpt>
      <trkpt lat="47.88068" lon="7.2105">
        <ele>292.38</ele>
        <time>2017-02-01T14:59:47Z</time>
      </trkpt>
      <trkpt lat="47.88074" lon="7.21039">
        <ele>293.34</ele>
        <time>2017-02-01T14:59:55Z</time>
      </trkpt>
      <trkpt lat="47.88082" lon="7.21027">
        <ele>291.9</ele>
        <time>2017-02-01T15:00:03Z</time>
      </trkpt>
      <trkpt lat="47.8809" lon="7.21015">
        <ele>292.86</ele>
        <time>2017-02-01T15:00:11Z</time>
      </trkpt>
      <trkpt lat="47.88095" lon="7.21003">
        <ele>294.3</ele>
        <time>2017-02-01T15:00:18Z</time>
      </trkpt>
      <trkpt lat="47.88101" lon="7.20992">
        <ele>293.82</ele>
        <time>2017-02-01T15:00:25Z</time>
      </trkpt>
      <trkpt lat="47.88107" lon="7.20982">
        <ele>293.82</ele>
        <time>2017-02-01T15:00:34Z</time>
      </trkpt>
      <trkpt lat="47.88115" lon="7.20972">
        <ele>295.74</ele>
        <time>2017-02-01T15:00:42Z</time>
      </trkpt>
      <trkpt lat="47.88124" lon="7.20965">
        <ele>292.86</ele>
        <time>2017-02-01T15:00:50Z</time>
      </trkpt>
      <trkpt lat="47.88133" lon="7.20961">
        <ele>295.26</ele>
        <time>2017-02-01T15:00:57Z</time>
      </trkpt>
      <trkpt lat="47.88141" lon="7.20957">
        <ele>294.78</ele>
        <time>2017-02-01T15:01:04Z</time>
      </trkpt>
      <trkpt lat="47.8815" lon="7.20958">
        <ele>293.82</ele>
        <time>2017-02-01T15:01:11Z</time>
      </trkpt>
      <trkpt lat="47.88159" lon="7.20957">
        <ele>294.3</ele>
        <time>2017-02-01T15:01:19Z</time>
      </trkpt>
      <trkpt lat="47.88171" lon="7.20956">
        <ele>296.7</ele>
        <time>2017-02-01T15:01:28Z</time>
      </trkpt>
      <trkpt lat="47.88181" lon="7.20955">
        <ele>293.82</ele>
        <time>2017-02-01T15:01:36Z</time>
      </trkpt>
      <trkpt lat="47.88191" lon="7.20956">
        <ele>295.74</ele>
        <time>2017-02-01T15:01:44Z</time>
      </trkpt>
      <trkpt lat="47.882" lon="7.20957">
        <ele>294.3</ele>
        <time>2017-02-01T15:01:52Z</time>
      </trkpt>
      <trkpt lat="47.88211" lon="7.20958">
        <ele>296.22</ele>
        <time>2017-02-01T15:02:02Z</time>
      </trkpt>
      <trkpt lat="47.88222" lon="7.20958">
        <ele>294.78</ele>
        <time>2017-02-01T15:02:11Z</time>
      </trkpt>
      <trkpt lat="47.88233" lon="7.2096">
        <ele>295.26</ele>
        <time>2017-02-01T15:02:20Z</time>
      </trkpt>
      <trkpt lat="47.88243" lon="7.20961">
        <ele>294.3</ele>
        <time>2017-02-01T15:02:28Z</time>
      </trkpt>
      <trkpt lat="47.88252" lon="7.20962">
        <ele>295.26</ele>
        <time>2017-02-01T15:02:35Z</time>
      </trkpt>
      <trkpt lat="47.88261" lon="7.20963">
        <ele>296.22</ele>
        <time>2017-02-01T15:02:43Z</time>
      </trkpt>
      <trkpt lat="47.88271" lon="7.20963">
        <ele>295.74</ele>
        <time>2017-02-01T15:02:51Z</time>
      </trkpt>
      <trkpt lat="47.88279" lon="7.20964">
        <ele>297.67</ele>
        <time>2017-02-01T15:02:58Z</time>
      </trkpt>
      <trkpt lat="47.88288" lon="7.20965">
        <ele>296.7</ele>
        <time>2017-02-01T15:03:06Z</time>
      </trkpt>
      <trkpt lat="47.88297" lon="7.20966">
        <ele>297.67</ele>
        <time>2017-02-01T15:03:14Z</time>
      </trkpt>
      <trkpt lat="47.88308" lon="7.20969">
        <ele>295.74</ele>
        <time>2017-02-01T15:03:23Z</time>
      </trkpt>
      <trkpt lat="47.88317" lon="7.20973">
        <ele>297.18</ele>
        <time>2017-02-01T15:03:31Z</time>
      </trkpt>
      <trkpt lat="47.88327" lon="7.20975">
        <ele>296.7</ele>
        <time>2017-02-01T15:03:40Z</time>
      </trkpt>
      <trkpt lat="47.88338" lon="7.20978">
        <ele>297.18</ele>
        <time>2017-02-01T15:03:49Z</time>
      </trkpt>
      <trkpt lat="47.88347" lon="7.2098">
        <ele>298.15</ele>
        <time>2017-02-01T15:03:59Z</time>
      </trkpt>
      <trkpt lat="47.88355" lon="7.20985">
        <ele>298.63</ele>
        <time>2017-02-01T15:04:08Z</time>
      </trkpt>
      <trkpt lat="47.88365" lon="7.20993">
        <ele>299.59</ele>
        <time>2017-02-01T15:04:18Z</time>
      </trkpt>
      <trkpt lat="47.88372" lon="7.21004">
        <ele>302.47</ele>
        <time>2017-02-01T15:04:29Z</time>
      </trkpt>
      <trkpt lat="47.88378" lon="7.21015">
        <ele>304.88</ele>
        <time>2017-02-01T15:04:39Z</time>
      </trkpt>
      <trkpt lat="47.88385" lon="7.21025">
        <ele>304.39</ele>
        <time>2017-02-01T15:04:49Z</time>
      </trkpt>
      <trkpt lat="47.88393" lon="7.21035">
        <ele>305.84</ele>
        <time>2017-02-01T15:05:00Z</time>
      </trkpt>
      <trkpt lat="47.884" lon="7.21046">
        <ele>307.28</ele>
        <time>2017-02-01T15:05:11Z</time>
      </trkpt>
      <trkpt lat="47.88408" lon="7.21053">
        <ele>311.12</ele>
        <time>2017-02-01T15:05:22Z</time>
      </trkpt>
      <trkpt lat="47.88418" lon="7.21061">
        <ele>311.6</ele>
        <time>2017-02-01T15:05:33Z</time>
      </trkpt>
      <trkpt lat="47.88428" lon="7.21068">
        <ele>313.05</ele>
        <time>2017-02-01T15:05:43Z</time>
      </trkpt>
      <trkpt lat="47.88437" lon="7.21074">
        <ele>316.89</ele>
        <time>2017-02-01T15:05:53Z</time>
      </trkpt>
      <trkpt lat="47.88446" lon="7.21081">
        <ele>314.97</ele>
        <time>2017-02-01T15:06:05Z</time>
      </trkpt>
      <trkpt lat="47.88454" lon="7.21088">
        <ele>317.37</ele>
        <time>2017-02-01T15:06:15Z</time>
      </trkpt>
      <trkpt lat="47.88463" lon="7.21094">
        <ele>318.33</ele>
        <time>2017-02-01T15:06:25Z</time>
      </trkpt>
      <trkpt lat="47.88472" lon="7.21099">
        <ele>320.26</ele>
        <time>2017-02-01T15:06:36Z</time>
      </trkpt>
      <trkpt lat="47.88482" lon="7.21107">
        <ele>320.74</ele>
        <time>2017-02-01T15:06:47Z</time>
      </trkpt>
      <trkpt lat="47.8849" lon="7.21114">
        <ele>321.22</ele>
        <time>2017-02-01T15:06:56Z</time>
      </trkpt>
      <trkpt lat="47.88499" lon="7.21121">
        <ele>322.18</ele>
        <time>2017-02-01T15:07:06Z</time>
      </trkpt>
      <trkpt lat="47.88511" lon="7.21124">
        <ele>325.06</ele>
        <time>2017-02-01T15:07:16Z</time>
      </trkpt>
      <trkpt lat="47.88521" lon="7.21128">
        <ele>322.66</ele>
        <time>2017-02-01T15:07:26Z</time>
      </trkpt>
      <trkpt lat="47.88531" lon="7.21131">
        <ele>325.54</ele>
        <time>2017-02-01T15:07:35Z</time>
      </trkpt>
      <trkpt lat="47.88542" lon="7.21134">
        <ele>323.62</ele>
        <time>2017-02-01T15:07:45Z</time>
      </trkpt>
      <trkpt lat="47.88552" lon="7.21137">
        <ele>326.5</ele>
        <time>2017-02-01T15:07:54Z</time>
      </trkpt>
      <trkpt lat="47.88562" lon="7.21142">
        <ele>325.06</ele>
        <time>2017-02-01T15:08:03Z</time>
      </trkpt>
      <trkpt lat="47.88571" lon="7.21148">
        <ele>328.43</ele>
        <time>2017-02-01T15:08:12Z</time>
      </trkpt>
      <trkpt lat="47.88582" lon="7.21153">
        <ele>328.43</ele>
        <time>2017-02-01T15:08:21Z</time>
      </trkpt>
      <trkpt lat="47.88589" lon="7.21162">
        <ele>328.43</ele>
        <time>2017-02-01T15:08:32Z</time>
      </trkpt>
      <trkpt lat="47.88599" lon="7.21167">
        <ele>329.39</ele>
        <time>2017-02-01T15:08:42Z</time>
      </trkpt>
      <trkpt lat="47.8861" lon="7.21173">
        <ele>328.91</ele>
        <time>2017-02-01T15:08:52Z</time>
      </trkpt>
      <trkpt lat="47.88621" lon="7.21181">
        <ele>330.35</ele>
        <time>2017-02-01T15:09:01Z</time>
      </trkpt>
      <trkpt lat="47.88631" lon="7.21187">
        <ele>329.39</ele>
        <time>2017-02-01T15:09:10Z</time>
      </trkpt>
      <trkpt lat="47.88641" lon="7.21196">
        <ele>332.27</ele>
        <time>2017-02-01T15:09:19Z</time>
      </trkpt>
      <trkpt lat="47.88651" lon="7.21208">
        <ele>331.31</ele>
        <time>2017-02-01T15:09:29Z</time>
      </trkpt>
      <trkpt lat="47.88656" lon="7.21219">
        <ele>329.87</ele>
        <time>2017-02-01T15:09:37Z</time>
      </trkpt>
      <trkpt lat="47.88664" lon="7.2123">
        <ele>330.35</ele>
        <time>2017-02-01T15:09:46Z</time>
      </trkpt>
      <trkpt lat="47.88673" lon="7.21239">
        <ele>333.23</ele>
        <time>2017-02-01T15:09:56Z</time>
      </trkpt>
      <trkpt lat="47.88683" lon="7.21245">
        <ele>333.71</ele>
        <time>2017-02-01T15:10:05Z</time>
      </trkpt>
      <trkpt lat="47.88691" lon="7.21255">
        <ele>333.23</ele>
        <time>2017-02-01T15:10:14Z</time>
      </trkpt>
      <trkpt lat="47.88701" lon="7.21267">
        <ele>334.68</ele>
        <time>2017-02-01T15:10:25Z</time>
      </trkpt>
      <trkpt lat="47.8871" lon="7.21278">
        <ele>336.12</ele>
        <time>2017-02-01T15:10:35Z</time>
      </trkpt>
      <trkpt lat="47.88718" lon="7.2129">
        <ele>337.08</ele>
        <time>2017-02-01T15:10:44Z</time>
      </trkpt>
      <trkpt lat="47.88723" lon="7.21301">
        <ele>338.52</ele>
        <time>2017-02-01T15:10:55Z</time>
      </trkpt>
      <trkpt lat="47.88732" lon="7.21317">
        <ele>338.52</ele>
        <time>2017-02-01T15:11:06Z</time>
      </trkpt>
      <trkpt lat="47.88739" lon="7.21331">
        <ele>340.44</ele>
        <time>2017-02-01T15:11:15Z</time>
      </trkpt>
      <trkpt lat="47.88746" lon="7.21343">
        <ele>342.37</ele>
        <time>2017-02-01T15:11:26Z</time>
      </trkpt>
      <trkpt lat="47.88754" lon="7.21355">
        <ele>342.37</ele>
        <time>2017-02-01T15:11:35Z</time>
      </trkpt>
      <trkpt lat="47.8876" lon="7.21369">
        <ele>343.81</ele>
        <time>2017-02-01T15:11:44Z</time>
      </trkpt>
      <trkpt lat="47.88768" lon="7.21382">
        <ele>339</ele>
        <time>2017-02-01T15:11:54Z</time>
      </trkpt>
      <trkpt lat="47.88776" lon="7.21397">
        <ele>344.29</ele>
        <time>2017-02-01T15:12:05Z</time>
      </trkpt>
      <trkpt lat="47.88785" lon="7.21414">
        <ele>344.29</ele>
        <time>2017-02-01T15:12:16Z</time>
      </trkpt>
      <trkpt lat="47.88794" lon="7.21426">
        <ele>344.29</ele>
        <time>2017-02-01T15:12:24Z</time>
      </trkpt>
      <trkpt lat="47.88802" lon="7.21438">
        <ele>341.89</ele>
        <time>2017-02-01T15:12:33Z</time>
      </trkpt>
      <trkpt lat="47.8881" lon="7.21448">
        <ele>344.77</ele>
        <time>2017-02-01T15:12:42Z</time>
      </trkpt>
      <trkpt lat="47.88818" lon="7.2146">
        <ele>341.89</ele>
        <time>2017-02-01T15:12:51Z</time>
      </trkpt>
      <trkpt lat="47.88827" lon="7.21471">
        <ele>340.44</ele>
        <time>2017-02-01T15:12:59Z</time>
      </trkpt>
      <trkpt lat="47.88836" lon="7.21478">
        <ele>342.85</ele>
        <time>2017-02-01T15:13:08Z</time>
      </trkpt>
      <trkpt lat="47.88845" lon="7.21489">
        <ele>341.89</ele>
        <time>2017-02-01T15:13:19Z</time>
      </trkpt>
      <trkpt lat="47.88853" lon="7.21481">
        <ele>341.89</ele>
        <time>2017-02-01T15:13:28Z</time>
      </trkpt>
      <trkpt lat="47.88858" lon="7.21468">
        <ele>342.85</ele>
        <time>2017-02-01T15:13:37Z</time>
      </trkpt>
      <trkpt lat="47.88862" lon="7.21454">
        <ele>341.41</ele>
        <time>2017-02-01T15:13:46Z</time>
      </trkpt>
      <trkpt lat="47.88869" lon="7.21443">
        <ele>339.48</ele>
        <time>2017-02-01T15:13:55Z</time>
      </trkpt>
      <trkpt lat="47.88874" lon="7.21429">
        <ele>340.44</ele>
        <time>2017-02-01T15:14:04Z</time>
      </trkpt>
      <trkpt lat="47.88881" lon="7.21418">
        <ele>340.44</ele>
        <time>2017-02-01T15:14:13Z</time>
      </trkpt>
      <trkpt lat="47.88889" lon="7.21407">
        <ele>340.92</ele>
        <time>2017-02-01T15:14:23Z</time>
      </trkpt>
      <trkpt lat="47.88898" lon="7.21401">
        <ele>341.41</ele>
        <time>2017-02-01T15:14:31Z</time>
      </trkpt>
      <trkpt lat="47.88906" lon="7.21392">
        <ele>342.85</ele>
        <time>2017-02-01T15:14:40Z</time>
      </trkpt>
      <trkpt lat="47.88908" lon="7.21392">
        <ele>340.92</ele>
        <time>2017-02-01T15:18:37Z</time>
      </trkpt>
      <trkpt lat="47.88917" lon="7.21402">
        <ele>341.41</ele>
        <time>2017-02-01T15:18:47Z</time>
      </trkpt>
      <trkpt lat="47.88925" lon="7.21413">
        <ele>340.44</ele>
        <time>2017-02-01T15:19:01Z</time>
      </trkpt>
      <trkpt lat="47.88931" lon="7.21425">
        <ele>339.96</ele>
        <time>2017-02-01T15:19:10Z</time>
      </trkpt>
      <trkpt lat="47.88938" lon="7.21436">
        <ele>339</ele>
        <time>2017-02-01T15:19:20Z</time>
      </trkpt>
      <trkpt lat="47.88946" lon="7.21448">
        <ele>338.52</ele>
        <time>2017-02-01T15:19:30Z</time>
      </trkpt>
      <trkpt lat="47.88952" lon="7.21462">
        <ele>338.04</ele>
        <time>2017-02-01T15:19:39Z</time>
      </trkpt>
      <trkpt lat="47.88958" lon="7.21473">
        <ele>335.64</ele>
        <time>2017-02-01T15:19:49Z</time>
      </trkpt>
      <trkpt lat="47.88964" lon="7.21488">
        <ele>333.23</ele>
        <time>2017-02-01T15:19:59Z</time>
      </trkpt>
      <trkpt lat="47.8897" lon="7.21503">
        <ele>334.2</ele>
        <time>2017-02-01T15:20:09Z</time>
      </trkpt>
      <trkpt lat="47.88976" lon="7.21522">
        <ele>332.27</ele>
        <time>2017-02-01T15:20:24Z</time>
      </trkpt>
      <trkpt lat="47.88982" lon="7.21551">
        <ele>329.87</ele>
        <time>2017-02-01T15:20:38Z</time>
      </trkpt>
      <trkpt lat="47.88983" lon="7.21565">
        <ele>329.39</ele>
        <time>2017-02-01T15:21:04Z</time>
      </trkpt>
      <trkpt lat="47.88984" lon="7.21581">
        <ele>324.1</ele>
        <time>2017-02-01T15:21:14Z</time>
      </trkpt>
      <trkpt lat="47.88987" lon="7.21607">
        <ele>324.1</ele>
        <time>2017-02-01T15:21:25Z</time>
      </trkpt>
      <trkpt lat="47.88989" lon="7.21629">
        <ele>324.58</ele>
        <time>2017-02-01T15:21:36Z</time>
      </trkpt>
      <trkpt lat="47.88989" lon="7.21649">
        <ele>322.18</ele>
        <time>2017-02-01T15:21:48Z</time>
      </trkpt>
      <trkpt lat="47.88989" lon="7.21667">
        <ele>320.74</ele>
        <time>2017-02-01T15:21:57Z</time>
      </trkpt>
      <trkpt lat="47.88986" lon="7.21684">
        <ele>317.85</ele>
        <time>2017-02-01T15:22:06Z</time>
      </trkpt>
      <trkpt lat="47.88984" lon="7.21701">
        <ele>314.01</ele>
        <time>2017-02-01T15:22:15Z</time>
      </trkpt>
      <trkpt lat="47.88982" lon="7.21718">
        <ele>316.89</ele>
        <time>2017-02-01T15:22:24Z</time>
      </trkpt>
      <trkpt lat="47.88983" lon="7.21735">
        <ele>315.45</ele>
        <time>2017-02-01T15:22:32Z</time>
      </trkpt>
      <trkpt lat="47.88984" lon="7.21749">
        <ele>310.64</ele>
        <time>2017-02-01T15:22:40Z</time>
      </trkpt>
      <trkpt lat="47.88985" lon="7.21763">
        <ele>311.6</ele>
        <time>2017-02-01T15:22:47Z</time>
      </trkpt>
      <trkpt lat="47.88985" lon="7.21778">
        <ele>312.09</ele>
        <time>2017-02-01T15:22:55Z</time>
      </trkpt>
      <trkpt lat="47.88988" lon="7.21794">
        <ele>311.6</ele>
        <time>2017-02-01T15:23:04Z</time>
      </trkpt>
      <trkpt lat="47.88989" lon="7.21809">
        <ele>311.12</ele>
        <time>2017-02-01T15:23:12Z</time>
      </trkpt>
      <trkpt lat="47.8899" lon="7.21824">
        <ele>307.28</ele>
        <time>2017-02-01T15:23:19Z</time>
      </trkpt>
      <trkpt lat="47.88993" lon="7.21837">
        <ele>304.88</ele>
        <time>2017-02-01T15:23:27Z</time>
      </trkpt>
      <trkpt lat="47.88994" lon="7.21853">
        <ele>303.43</ele>
        <time>2017-02-01T15:23:35Z</time>
      </trkpt>
      <trkpt lat="47.88995" lon="7.21869">
        <ele>305.36</ele>
        <time>2017-02-01T15:23:44Z</time>
      </trkpt>
      <trkpt lat="47.88997" lon="7.21885">
        <ele>301.51</ele>
        <time>2017-02-01T15:23:52Z</time>
      </trkpt>
      <trkpt lat="47.88995" lon="7.219">
        <ele>303.43</ele>
        <time>2017-02-01T15:23:59Z</time>
      </trkpt>
      <trkpt lat="47.88994" lon="7.21915">
        <ele>301.99</ele>
        <time>2017-02-01T15:24:07Z</time>
      </trkpt>
      <trkpt lat="47.88991" lon="7.2193">
        <ele>298.15</ele>
        <time>2017-02-01T15:24:15Z</time>
      </trkpt>
      <trkpt lat="47.88989" lon="7.21944">
        <ele>296.7</ele>
        <time>2017-02-01T15:24:23Z</time>
      </trkpt>
      <trkpt lat="47.88987" lon="7.21958">
        <ele>297.18</ele>
        <time>2017-02-01T15:24:30Z</time>
      </trkpt>
      <trkpt lat="47.88987" lon="7.21974">
        <ele>298.15</ele>
        <time>2017-02-01T15:24:39Z</time>
      </trkpt>
      <trkpt lat="47.88986" lon="7.21991">
        <ele>298.15</ele>
        <time>2017-02-01T15:24:48Z</time>
      </trkpt>
      <trkpt lat="47.88988" lon="7.22008">
        <ele>296.22</ele>
        <time>2017-02-01T15:24:57Z</time>
      </trkpt>
      <trkpt lat="47.88992" lon="7.22022">
        <ele>292.38</ele>
        <time>2017-02-01T15:25:05Z</time>
      </trkpt>
      <trkpt lat="47.88997" lon="7.22034">
        <ele>289.01</ele>
        <time>2017-02-01T15:25:13Z</time>
      </trkpt>
      <trkpt lat="47.89002" lon="7.22049">
        <ele>288.53</ele>
        <time>2017-02-01T15:25:22Z</time>
      </trkpt>
      <trkpt lat="47.89006" lon="7.22065">
        <ele>289.97</ele>
        <time>2017-02-01T15:25:31Z</time>
      </trkpt>
      <trkpt lat="47.8901" lon="7.22079">
        <ele>289.49</ele>
        <time>2017-02-01T15:25:39Z</time>
      </trkpt>
      <trkpt lat="47.89015" lon="7.22093">
        <ele>289.01</ele>
        <time>2017-02-01T15:25:47Z</time>
      </trkpt>
      <trkpt lat="47.89018" lon="7.22108">
        <ele>286.61</ele>
        <time>2017-02-01T15:25:55Z</time>
      </trkpt>
      <trkpt lat="47.89022" lon="7.22121">
        <ele>283.25</ele>
        <time>2017-02-01T15:26:03Z</time>
      </trkpt>
      <trkpt lat="47.89024" lon="7.22136">
        <ele>282.77</ele>
        <time>2017-02-01T15:26:11Z</time>
      </trkpt>
      <trkpt lat="47.89027" lon="7.22152">
        <ele>282.77</ele>
        <time>2017-02-01T15:26:20Z</time>
      </trkpt>
      <trkpt lat="47.89029" lon="7.22168">
        <ele>283.25</ele>
        <time>2017-02-01T15:26:29Z</time>
      </trkpt>
      <trkpt lat="47.89031" lon="7.22184">
        <ele>281.8</ele>
        <time>2017-02-01T15:26:38Z</time>
      </trkpt>
      <trkpt lat="47.89033" lon="7.222">
        <ele>279.88</ele>
        <time>2017-02-01T15:26:47Z</time>
      </trkpt>
      <trkpt lat="47.89034" lon="7.22216">
        <ele>277.48</ele>
        <time>2017-02-01T15:26:55Z</time>
      </trkpt>
      <trkpt lat="47.89036" lon="7.22231">
        <ele>276.52</ele>
        <time>2017-02-01T15:27:04Z</time>
      </trkpt>
      <trkpt lat="47.8904" lon="7.22244">
        <ele>276.52</ele>
        <time>2017-02-01T15:27:12Z</time>
      </trkpt>
      <trkpt lat="47.89043" lon="7.22261">
        <ele>276.04</ele>
        <time>2017-02-01T15:27:21Z</time>
      </trkpt>
      <trkpt lat="47.89043" lon="7.22277">
        <ele>275.07</ele>
        <time>2017-02-01T15:27:29Z</time>
      </trkpt>
      <trkpt lat="47.89044" lon="7.22291">
        <ele>274.59</ele>
        <time>2017-02-01T15:27:37Z</time>
      </trkpt>
      <trkpt lat="47.89043" lon="7.22305">
        <ele>272.67</ele>
        <time>2017-02-01T15:27:45Z</time>
      </trkpt>
      <trkpt lat="47.89044" lon="7.22322">
        <ele>272.67</ele>
        <time>2017-02-01T15:27:55Z</time>
      </trkpt>
      <trkpt lat="47.89044" lon="7.22338">
        <ele>272.19</ele>
        <time>2017-02-01T15:28:05Z</time>
      </trkpt>
      <trkpt lat="47.89045" lon="7.22354">
        <ele>271.71</ele>
        <time>2017-02-01T15:28:13Z</time>
      </trkpt>
      <trkpt lat="47.89045" lon="7.22369">
        <ele>270.27</ele>
        <time>2017-02-01T15:28:22Z</time>
      </trkpt>
      <trkpt lat="47.89046" lon="7.22384">
        <ele>270.75</ele>
        <time>2017-02-01T15:28:31Z</time>
      </trkpt>
      <trkpt lat="47.89047" lon="7.22399">
        <ele>270.27</ele>
        <time>2017-02-01T15:28:41Z</time>
      </trkpt>
      <trkpt lat="47.89045" lon="7.22412">
        <ele>270.27</ele>
        <time>2017-02-01T15:28:48Z</time>
      </trkpt>
      <trkpt lat="47.89045" lon="7.22427">
        <ele>269.79</ele>
        <time>2017-02-01T15:28:55Z</time>
      </trkpt>
      <trkpt lat="47.89045" lon="7.2244">
        <ele>269.79</ele>
        <time>2017-02-01T15:29:03Z</time>
      </trkpt>
      <trkpt lat="47.89043" lon="7.22457">
        <ele>269.31</ele>
        <time>2017-02-01T15:29:12Z</time>
      </trkpt>
      <trkpt lat="47.89041" lon="7.22473">
        <ele>269.79</ele>
        <time>2017-02-01T15:29:20Z</time>
      </trkpt>
      <trkpt lat="47.89038" lon="7.2249">
        <ele>267.86</ele>
        <time>2017-02-01T15:29:30Z</time>
      </trkpt>
      <trkpt lat="47.89035" lon="7.22507">
        <ele>268.35</ele>
        <time>2017-02-01T15:29:39Z</time>
      </trkpt>
      <trkpt lat="47.89033" lon="7.22522">
        <ele>267.86</ele>
        <time>2017-02-01T15:29:49Z</time>
      </trkpt>
      <trkpt lat="47.89029" lon="7.2254">
        <ele>269.31</ele>
        <time>2017-02-01T15:29:58Z</time>
      </trkpt>
      <trkpt lat="47.89022" lon="7.22555">
        <ele>269.31</ele>
        <time>2017-02-01T15:30:08Z</time>
      </trkpt>
      <trkpt lat="47.89017" lon="7.22569">
        <ele>267.86</ele>
        <time>2017-02-01T15:30:18Z</time>
      </trkpt>
      <trkpt lat="47.89012" lon="7.22584">
        <ele>268.35</ele>
        <time>2017-02-01T15:30:28Z</time>
      </trkpt>
      <trkpt lat="47.89009" lon="7.22598">
        <ele>265.94</ele>
        <time>2017-02-01T15:30:37Z</time>
      </trkpt>
      <trkpt lat="47.89015" lon="7.22615">
        <ele>268.35</ele>
        <time>2017-02-01T15:30:52Z</time>
      </trkpt>
      <trkpt lat="47.89014" lon="7.22628">
        <ele>265.46</ele>
        <time>2017-02-01T15:30:59Z</time>
      </trkpt>
      <trkpt lat="47.89005" lon="7.22629">
        <ele>266.9</ele>
        <time>2017-02-01T15:31:06Z</time>
      </trkpt>
      <trkpt lat="47.88997" lon="7.22636">
        <ele>267.86</ele>
        <time>2017-02-01T15:31:15Z</time>
      </trkpt>
      <trkpt lat="47.88989" lon="7.22645">
        <ele>267.38</ele>
        <time>2017-02-01T15:31:23Z</time>
      </trkpt>
      <trkpt lat="47.88988" lon="7.22659">
        <ele>266.42</ele>
        <time>2017-02-01T15:31:30Z</time>
      </trkpt>
      <trkpt lat="47.88983" lon="7.2267">
        <ele>266.42</ele>
        <time>2017-02-01T15:31:37Z</time>
      </trkpt>
      <trkpt lat="47.88978" lon="7.22683">
        <ele>265.94</ele>
        <time>2017-02-01T15:31:45Z</time>
      </trkpt>
      <trkpt lat="47.8897" lon="7.2269">
        <ele>267.38</ele>
        <time>2017-02-01T15:31:55Z</time>
      </trkpt>
    </trkseg>
  </trk>
</gpx>